Darstellungsparameter: Aktuell verwendete Einstellungen:
Skalierung der Graphiken ... ?
xyx+y,   Skalierungsfaktor:      Skalierung: Modus: x, Faktor: 1
Darstellungszeitraum ... ?
Vom - - bis: - -   Zeitraum: 17.09.2008 - 16.10.2008
Min/Max/Avg-Anzeige ... ?
Zeige MMA aktuell
Zeige MMA Monat
Zeige MMA alles
Zeige --A aktuell
Zeige --A Monat
Zeige --A alles
Keine MMA-Anzeige
MMA:
Average (ber die Originaldaten)
MMA-Basis: 17.09.2008 - 16.10.2008
Quicknavigation für Darstellung... ?
Tage:      1T, 2T, 3T, 5T -1T -2T -3T -5T +1T +2T +3T +5T
Wochen: 1W, 2W, 3W -1W -2W -3W +1W +2W +3W
Monate: 1M, 3M, 6M -1M -3M -6M +1M +3M +6M
Jahre:    1J, 3J, 5J, 10J -1J -3J -5J -10J +1J +3J +5J +10J
Nutze für die Darstellung ... ?
Originaldaten oder Mittelwerte auf ...
Stundenbasis Tagesbasis Wochenbasis
Monatsbasis Jahresbasis      Datenbasis: Original-Daten
Darstellen als:
Statistik (Auto) Statistik J:M      Darstellung:
Zur Graphik,    zurück zur Übersicht aller Sensoren.
 
Tabellarische Datenbersicht: ?
 
Sensor: Nr:Datum:Temp:Abs-Feuchte:Windchill:Wind:
Aussen-T/F 1 17-09-2008 00:04:03 11.2 C 6.49 g/m*3 11.2 C 0 km/h
2 17-09-2008 00:09:03 11.1 C 6.45 g/m*3 11.1 C 0 km/h
3 17-09-2008 00:14:03 11.1 C 6.55 g/m*3 11.1 C 0 km/h
4 17-09-2008 00:19:03 11 C 6.51 g/m*3 11 C 0 km/h
5 17-09-2008 00:24:03 11 C 6.51 g/m*3 11 C 0 km/h
6 17-09-2008 00:29:03 10.9 C 6.66 g/m*3 10.9 C 0 km/h
7 17-09-2008 00:34:03 10.9 C 6.66 g/m*3 10.9 C 0 km/h
8 17-09-2008 00:39:03 10.9 C 6.66 g/m*3 10.9 C 0 km/h
9 17-09-2008 00:44:03 10.9 C 6.66 g/m*3 10.9 C 0 km/h
10 17-09-2008 00:49:03 10.9 C 6.66 g/m*3 10.9 C 0 km/h
11 17-09-2008 00:54:04 10.8 C 6.62 g/m*3 10.8 C 0 km/h
12 17-09-2008 00:59:04 10.8 C 6.62 g/m*3 10.8 C 0 km/h
13 17-09-2008 01:04:04 10.8 C 6.62 g/m*3 10.8 C 0 km/h
14 17-09-2008 01:09:04 10.7 C 6.58 g/m*3 10.7 C 0 km/h
15 17-09-2008 01:14:04 10.6 C 6.54 g/m*3 10.6 C 0 km/h
16 17-09-2008 01:19:04 10.5 C 6.5 g/m*3 10.5 C 0 km/h
17 17-09-2008 01:24:04 10.5 C 6.5 g/m*3 10.5 C 0 km/h
18 17-09-2008 01:29:04 10.5 C 6.4 g/m*3 10.5 C 0 km/h
19 17-09-2008 01:34:04 10.4 C 6.07 g/m*3 10.4 C 0 km/h
20 17-09-2008 01:39:04 10.5 C 5.92 g/m*3 10.5 C 0 km/h
21 17-09-2008 01:44:04 10.5 C 5.92 g/m*3 10.5 C 0 km/h
22 17-09-2008 01:49:04 10.5 C 6.01 g/m*3 10.5 C 0 km/h
23 17-09-2008 01:54:04 10.5 C 6.01 g/m*3 10.5 C 0 km/h
24 17-09-2008 01:59:04 10.4 C 6.07 g/m*3 10.4 C 0 km/h
25 17-09-2008 02:04:04 10.3 C 6.03 g/m*3 10.3 C 0 km/h
Sensor: Nr:Datum:Temp:Abs-Feuchte:Windchill:Wind:
Aussen-T/F 26 17-09-2008 02:09:04 10.3 C 6.03 g/m*3 10.3 C 0 km/h
27 17-09-2008 02:14:04 10.3 C 6.13 g/m*3 10.3 C 0 km/h
28 17-09-2008 02:19:04 10.2 C 6.09 g/m*3 10.2 C 0 km/h
29 17-09-2008 02:24:04 10.1 C 6.05 g/m*3 10.1 C 0 km/h
30 17-09-2008 02:29:04 10.1 C 6.05 g/m*3 10.1 C 0 km/h
31 17-09-2008 02:34:05 10 C 6.01 g/m*3 10 C 0 km/h
32 17-09-2008 02:39:05 10 C 6.01 g/m*3 10 C 0 km/h
33 17-09-2008 02:44:05 9.9 C 6.16 g/m*3 9.9 C 0 km/h
34 17-09-2008 02:49:05 9.7 C 6.18 g/m*3 9.7 C 0 km/h
35 17-09-2008 02:54:05 9.5 C 6.01 g/m*3 9.5 C 0 km/h
36 17-09-2008 02:59:05 9.3 C 5.93 g/m*3 9.3 C 0 km/h
37 17-09-2008 03:04:05 9 C 5.82 g/m*3 9 C 0 km/h
38 17-09-2008 03:09:05 8.8 C 5.83 g/m*3 8.8 C 0 km/h
39 17-09-2008 03:14:05 8.6 C 5.84 g/m*3 8.6 C 0 km/h
40 17-09-2008 03:19:05 8.3 C 5.73 g/m*3 8.3 C 0 km/h
41 17-09-2008 03:24:05 8.2 C 5.78 g/m*3 8.2 C 0 km/h
42 17-09-2008 03:29:05 8 C 5.7 g/m*3 8 C 0 km/h
43 17-09-2008 03:34:05 7.9 C 5.83 g/m*3 7.9 C 0 km/h
44 17-09-2008 03:39:05 7.8 C 5.79 g/m*3 7.8 C 0 km/h
45 17-09-2008 03:44:05 7.7 C 5.84 g/m*3 7.7 C 0 km/h
46 17-09-2008 03:49:05 7.6 C 5.8 g/m*3 7.6 C 0 km/h
47 17-09-2008 03:54:05 7.6 C 5.88 g/m*3 7.6 C 0 km/h
48 17-09-2008 03:59:05 7.5 C 5.84 g/m*3 7.5 C 0 km/h
49 17-09-2008 04:04:05 7.4 C 5.81 g/m*3 7.4 C 0 km/h
50 17-09-2008 04:09:05 7.3 C 5.85 g/m*3 7.3 C 0 km/h
Sensor: Nr:Datum:Temp:Abs-Feuchte:Windchill:Wind:
Aussen-T/F 51 17-09-2008 04:14:05 7.2 C 5.81 g/m*3 7.2 C 0 km/h
52 17-09-2008 04:19:06 7.2 C 5.81 g/m*3 7.2 C 0 km/h
53 17-09-2008 04:24:06 7.1 C 5.77 g/m*3 7.1 C 0 km/h
54 17-09-2008 04:29:06 7 C 5.73 g/m*3 7 C 0 km/h
55 17-09-2008 04:34:06 6.9 C 5.77 g/m*3 6.9 C 0 km/h
56 17-09-2008 04:39:06 6.9 C 5.77 g/m*3 6.9 C 0 km/h
57 17-09-2008 04:44:06 6.9 C 5.7 g/m*3 6.9 C 0 km/h
58 17-09-2008 04:49:06 6.9 C 5.7 g/m*3 6.9 C 0 km/h
59 17-09-2008 04:54:06 6.9 C 5.62 g/m*3 6.9 C 0 km/h
60 17-09-2008 04:59:06 6.9 C 5.62 g/m*3 6.9 C 0 km/h
61 17-09-2008 05:04:06 6.9 C 5.62 g/m*3 6.9 C 0 km/h
62 17-09-2008 05:09:06 6.8 C 5.58 g/m*3 6.8 C 0 km/h
63 17-09-2008 05:14:06 6.7 C 5.55 g/m*3 6.7 C 0 km/h
64 17-09-2008 05:19:06 6.5 C 5.47 g/m*3 6.5 C 0 km/h
65 17-09-2008 05:24:06 6.5 C 5.55 g/m*3 6.5 C 0 km/h
66 17-09-2008 05:29:06 6.6 C 5.66 g/m*3 6.6 C 0 km/h
67 17-09-2008 05:34:06 6.6 C 5.74 g/m*3 6.6 C 0 km/h
68 17-09-2008 05:39:06 6.5 C 5.7 g/m*3 6.5 C 0 km/h
69 17-09-2008 05:44:06 6.4 C 5.66 g/m*3 6.4 C 0 km/h
70 17-09-2008 05:49:06 6.3 C 5.7 g/m*3 6.3 C 0 km/h
71 17-09-2008 05:54:06 6.3 C 5.7 g/m*3 6.3 C 0 km/h
72 17-09-2008 05:59:06 6.2 C 5.74 g/m*3 6.2 C 0 km/h
73 17-09-2008 06:04:07 6.2 C 5.74 g/m*3 6.2 C 0 km/h
74 17-09-2008 06:09:07 6.1 C 5.7 g/m*3 6.1 C 0 km/h
75 17-09-2008 06:14:07 6.1 C 5.7 g/m*3 6.1 C 0 km/h
Sensor: Nr:Datum:Temp:Abs-Feuchte:Windchill:Wind:
Aussen-T/F 76 17-09-2008 06:19:07 6.1 C 5.77 g/m*3 6.1 C 0 km/h
77 17-09-2008 06:24:07 6 C 5.73 g/m*3 6 C 0 km/h
78 17-09-2008 06:29:07 5.9 C 5.77 g/m*3 5.9 C 0 km/h
79 17-09-2008 06:34:07 5.7 C 5.69 g/m*3 5.7 C 0 km/h
80 17-09-2008 06:39:07 5.7 C 5.62 g/m*3 5.7 C 0 km/h
81 17-09-2008 06:44:07 5.7 C 5.69 g/m*3 5.7 C 0 km/h
82 17-09-2008 06:49:07 5.7 C 5.69 g/m*3 5.7 C 0 km/h
83 17-09-2008 06:54:07 5.7 C 5.69 g/m*3 5.7 C 0 km/h
84 17-09-2008 06:59:07 5.7 C 5.69 g/m*3 5.7 C 0 km/h
85 17-09-2008 07:04:01 5.6 C 5.66 g/m*3 5.6 C 0 km/h
86 17-09-2008 07:09:01 5.6 C 5.66 g/m*3 5.6 C 0 km/h
87 17-09-2008 07:14:01 5.6 C 5.73 g/m*3 5.6 C 0 km/h
88 17-09-2008 07:19:01 5.6 C 5.73 g/m*3 5.6 C 0 km/h
89 17-09-2008 07:24:01 5.5 C 5.69 g/m*3 5.5 C 0 km/h
90 17-09-2008 07:29:01 5.5 C 5.69 g/m*3 5.5 C 0 km/h
91 17-09-2008 07:34:02 5.6 C 5.73 g/m*3 5.6 C 0 km/h
92 17-09-2008 07:39:02 5.6 C 5.73 g/m*3 5.6 C 0 km/h
93 17-09-2008 07:44:02 5.7 C 5.84 g/m*3 5.7 C 0 km/h
94 17-09-2008 07:49:03 5.7 C 5.84 g/m*3 5.7 C 0 km/h
95 17-09-2008 07:54:03 5.8 C 5.87 g/m*3 5.8 C 0 km/h
96 17-09-2008 07:59:03 5.8 C 5.95 g/m*3 5.8 C 0 km/h
97 17-09-2008 08:04:02 5.8 C 5.95 g/m*3 5.8 C 0 km/h
98 17-09-2008 08:09:02 5.9 C 5.98 g/m*3 5.9 C 0 km/h
99 17-09-2008 08:14:02 6 C 5.95 g/m*3 6 C 0 km/h
100 17-09-2008 08:19:03 6.1 C 5.99 g/m*3 6.1 C 0 km/h
Sensor: Nr:Datum:Temp:Abs-Feuchte:Windchill:Wind:
Aussen-T/F 101 17-09-2008 08:24:03 6.4 C 6.18 g/m*3 6.4 C 0 km/h
102 17-09-2008 08:29:03 6.5 C 6.22 g/m*3 6.5 C 0 km/h
103 17-09-2008 08:34:02 6.6 C 6.27 g/m*3 6.6 C 0 km/h
104 17-09-2008 08:39:02 6.8 C 6.27 g/m*3 6.8 C 0 km/h
105 17-09-2008 08:44:02 6.9 C 6.31 g/m*3 6.9 C 0 km/h
106 17-09-2008 08:49:01 6.9 C 6.31 g/m*3 6.9 C 0 km/h
107 17-09-2008 08:54:01 7.1 C 6.32 g/m*3 7.1 C 0 km/h
108 17-09-2008 08:59:01 7.2 C 6.36 g/m*3 7.2 C 0 km/h
109 17-09-2008 09:04:02 7.3 C 6.32 g/m*3 7.3 C 0 km/h
110 17-09-2008 09:09:02 7.4 C 6.36 g/m*3 7.4 C 0 km/h
111 17-09-2008 09:14:02 7.4 C 6.28 g/m*3 7.4 C 0 km/h
112 17-09-2008 09:19:01 7.5 C 6.32 g/m*3 7.5 C 0 km/h
113 17-09-2008 09:24:01 7.7 C 6.41 g/m*3 7.7 C 0 km/h
114 17-09-2008 09:29:01 7.9 C 6.41 g/m*3 7.9 C 0 km/h
115 17-09-2008 09:34:02 8 C 6.37 g/m*3 8 C 0 km/h
116 17-09-2008 09:39:02 8.1 C 6.32 g/m*3 8.1 C 0 km/h
117 17-09-2008 09:44:02 8.3 C 6.41 g/m*3 8.3 C 0 km/h
118 17-09-2008 09:49:02 8.5 C 6.4 g/m*3 8.5 C 0 km/h
119 17-09-2008 09:54:02 8.6 C 6.44 g/m*3 8.6 C 0 km/h
120 17-09-2008 09:59:02 8.8 C 6.44 g/m*3 8.8 C 0 km/h
121 17-09-2008 10:04:02 9 C 6.44 g/m*3 9 C 0 km/h
122 17-09-2008 10:09:02 9.3 C 6.47 g/m*3 9.3 C 0 km/h
123 17-09-2008 10:14:02 9.4 C 6.51 g/m*3 9.4 C 0 km/h
124 17-09-2008 10:19:03 9.7 C 6.55 g/m*3 9.7 C 0 km/h
125 17-09-2008 10:24:03 10 C 6.48 g/m*3 10 C 0 km/h
Sensor: Nr:Datum:Temp:Abs-Feuchte:Windchill:Wind:
Aussen-T/F 126 17-09-2008 10:29:03 10.2 C 6.57 g/m*3 10.2 C 0 km/h
127 17-09-2008 10:34:02 10.4 C 6.55 g/m*3 10.4 C 0 km/h
128 17-09-2008 10:39:02 10.8 C 6.62 g/m*3 10.8 C 0 km/h
129 17-09-2008 10:44:02 11 C 6.61 g/m*3 11 C 0 km/h
130 17-09-2008 10:49:01 11.2 C 6.59 g/m*3 11.2 C 0 km/h
131 17-09-2008 10:54:01 11.5 C 6.2 g/m*3 11.5 C 0 km/h
132 17-09-2008 10:59:01 11.7 C 5.75 g/m*3 11.7 C 0 km/h
133 17-09-2008 11:04:02 11.8 C 5.79 g/m*3 11.8 C 0 km/h
134 17-09-2008 11:09:02 12.1 C 5.79 g/m*3 12.1 C 0 km/h
135 17-09-2008 11:14:02 12.3 C 5.54 g/m*3 12.3 C 0 km/h
136 17-09-2008 11:19:01 12.4 C 5.57 g/m*3 12.4 C 0 km/h
137 17-09-2008 11:24:01 12.7 C 5.57 g/m*3 12.7 C 0 km/h
138 17-09-2008 11:29:01 12.9 C 5.52 g/m*3 12.9 C 0 km/h
139 17-09-2008 11:34:02 13.1 C 5.36 g/m*3 13.1 C 0 km/h
140 17-09-2008 11:39:02 13.2 C 5.28 g/m*3 13.2 C 0 km/h
141 17-09-2008 11:44:02 13.4 C 5.11 g/m*3 13.4 C 0 km/h
142 17-09-2008 11:49:02 13.5 C 5.03 g/m*3 13.5 C 0 km/h
143 17-09-2008 11:54:02 13.7 C 4.97 g/m*3 13.7 C 0 km/h
144 17-09-2008 11:59:02 13.9 C 4.92 g/m*3 13.9 C 0 km/h
145 17-09-2008 12:04:02 14 C 4.7 g/m*3 14 C 0 km/h
146 17-09-2008 12:09:02 14 C 4.82 g/m*3 14 C 0 km/h
147 17-09-2008 12:14:02 14.2 C 4.88 g/m*3 14.2 C 0 km/h
148 17-09-2008 12:19:02 14.3 C 4.91 g/m*3 14.3 C 0 km/h
149 17-09-2008 12:24:02 14.3 C 4.79 g/m*3 14.3 C 0 km/h
150 17-09-2008 12:29:02 14.3 C 4.79 g/m*3 14.3 C 0 km/h
Sensor: Nr:Datum:Temp:Abs-Feuchte:Windchill:Wind:
Aussen-T/F 151 17-09-2008 12:34:02 14.4 C 4.94 g/m*3 14.4 C 0 km/h
152 17-09-2008 12:39:02 14.7 C 5.16 g/m*3 14.7 C 0 km/h
153 17-09-2008 12:44:02 14.9 C 5.1 g/m*3 14.9 C 0 km/h
154 17-09-2008 12:49:02 14.9 C 4.84 g/m*3 14.9 C 0 km/h
155 17-09-2008 12:54:02 15 C 4.74 g/m*3 15 C 0 km/h
156 17-09-2008 12:59:02 15.2 C 4.93 g/m*3 15.2 C 0 km/h
157 17-09-2008 13:04:02 15.4 C 4.99 g/m*3 15.4 C 0 km/h
158 17-09-2008 13:09:03 15.7 C 5.08 g/m*3 15.7 C 0 km/h
159 17-09-2008 13:14:03 15.9 C 5.15 g/m*3 15.9 C 0 km/h
160 17-09-2008 13:19:02 16.3 C 4.99 g/m*3 16.3 C 0 km/h
161 17-09-2008 13:24:02 16.6 C 4.94 g/m*3 16.6 C 0 km/h
162 17-09-2008 13:29:02 16.5 C 4.91 g/m*3 16.5 C 0 km/h
163 17-09-2008 13:34:02 16.7 C 4.97 g/m*3 16.7 C 0 km/h
164 17-09-2008 13:39:02 16.8 C 4.86 g/m*3 16.8 C 0 km/h
165 17-09-2008 13:44:02 16.7 C 4.83 g/m*3 16.7 C 0 km/h
166 17-09-2008 13:49:02 16.7 C 4.97 g/m*3 16.7 C 0 km/h
167 17-09-2008 13:54:02 16.9 C 5.03 g/m*3 16.9 C 0 km/h
168 17-09-2008 13:59:03 17 C 4.77 g/m*3 17 C 0 km/h
169 17-09-2008 14:04:01 17.1 C 4.8 g/m*3 17.1 C 0 km/h
170 17-09-2008 14:09:01 17.6 C 5.1 g/m*3 17.6 C 0 km/h
171 17-09-2008 14:14:01 17.9 C 5.04 g/m*3 17.9 C 0 km/h
172 17-09-2008 14:19:02 17.7 C 4.83 g/m*3 17.7 C 0 km/h
173 17-09-2008 14:24:02 17.7 C 4.98 g/m*3 17.7 C 0 km/h
174 17-09-2008 14:29:02 17.6 C 4.8 g/m*3 17.6 C 0 km/h
175 17-09-2008 14:34:01 17.7 C 4.98 g/m*3 17.7 C 0 km/h
Sensor: Nr:Datum:Temp:Abs-Feuchte:Windchill:Wind:
Aussen-T/F 176 17-09-2008 14:39:01 17.8 C 4.86 g/m*3 17.8 C 0 km/h
177 17-09-2008 14:44:01 17.9 C 4.89 g/m*3 17.9 C 0 km/h
178 17-09-2008 14:49:01 18 C 4.92 g/m*3 18 C 0 km/h
179 17-09-2008 14:54:01 18.2 C 4.66 g/m*3 18.2 C 0 km/h
180 17-09-2008 14:59:01 18.2 C 4.66 g/m*3 18.2 C 0 km/h
181 17-09-2008 15:04:02 18.4 C 4.72 g/m*3 18.4 C 0 km/h
182 17-09-2008 15:09:03 18.6 C 4.77 g/m*3 18.6 C 0 km/h
183 17-09-2008 15:14:03 19 C 4.73 g/m*3 19 C 0 km/h
184 17-09-2008 15:19:01 18.8 C 4.51 g/m*3 18.8 C 0 km/h
185 17-09-2008 15:24:01 18.9 C 4.54 g/m*3 18.9 C 0 km/h
186 17-09-2008 15:29:01 19.2 C 4.62 g/m*3 19.2 C 0 km/h
187 17-09-2008 15:34:02 19.3 C 4.64 g/m*3 19.3 C 0 km/h
188 17-09-2008 15:39:02 19.5 C 4.7 g/m*3 19.5 C 0 km/h
189 17-09-2008 15:44:02 19.4 C 4.34 g/m*3 19.4 C 0 km/h
190 17-09-2008 15:49:02 19.4 C 4.5 g/m*3 19.4 C 0 km/h
191 17-09-2008 15:54:02 19.5 C 4.36 g/m*3 19.5 C 0 km/h
192 17-09-2008 15:59:03 19.5 C 4.36 g/m*3 19.5 C 0 km/h
193 17-09-2008 16:04:02 19.3 C 4.31 g/m*3 19.3 C 0 km/h
194 17-09-2008 16:09:02 18.9 C 4.37 g/m*3 18.9 C 0 km/h
195 17-09-2008 16:14:02 19 C 4.4 g/m*3 19 C 0 km/h
196 17-09-2008 16:19:02 19 C 4.4 g/m*3 19 C 0 km/h
197 17-09-2008 16:24:02 19.1 C 4.59 g/m*3 19.1 C 0 km/h
198 17-09-2008 16:29:02 19.2 C 4.62 g/m*3 19.2 C 0 km/h
199 17-09-2008 16:34:02 19.4 C 4.67 g/m*3 19.4 C 0 km/h
200 17-09-2008 16:39:02 19.4 C 4.5 g/m*3 19.4 C 0 km/h
Sensor: Nr:Datum:Temp:Abs-Feuchte:Windchill:Wind:
Aussen-T/F 201 17-09-2008 16:44:02 19.4 C 4.5 g/m*3 19.4 C 0 km/h
202 17-09-2008 16:49:02 19.1 C 4.43 g/m*3 19.1 C 0 km/h
203 17-09-2008 16:54:02 18.7 C 4.32 g/m*3 18.7 C 0 km/h
204 17-09-2008 16:59:02 18.4 C 4.25 g/m*3 18.4 C 0 km/h
205 17-09-2008 17:04:02 18.3 C 4.22 g/m*3 18.3 C 0 km/h
206 17-09-2008 17:09:02 18.2 C 4.51 g/m*3 18.2 C 0 km/h
207 17-09-2008 17:14:03 18.5 C 4.75 g/m*3 18.5 C 0 km/h
208 17-09-2008 17:19:02 18.6 C 4.62 g/m*3 18.6 C 0 km/h
209 17-09-2008 17:24:02 18.4 C 4.56 g/m*3 18.4 C 0 km/h
210 17-09-2008 17:29:02 18.2 C 4.51 g/m*3 18.2 C 0 km/h
211 17-09-2008 17:34:03 18.2 C 4.66 g/m*3 18.2 C 0 km/h
212 17-09-2008 17:39:03 18.1 C 4.48 g/m*3 18.1 C 0 km/h
213 17-09-2008 17:44:03 18.1 C 4.48 g/m*3 18.1 C 0 km/h
214 17-09-2008 17:49:02 17.6 C 4.5 g/m*3 17.6 C 0 km/h
215 17-09-2008 17:54:02 17.6 C 4.5 g/m*3 17.6 C 0 km/h
216 17-09-2008 17:59:02 17.5 C 4.47 g/m*3 17.5 C 0 km/h
217 17-09-2008 18:04:02 17.2 C 4.54 g/m*3 17.2 C 0 km/h
218 17-09-2008 18:09:02 17.1 C 4.51 g/m*3 17.1 C 0 km/h
219 17-09-2008 18:14:02 16.8 C 4.43 g/m*3 16.8 C 0 km/h
220 17-09-2008 18:19:02 16.3 C 4.3 g/m*3 16.3 C 0 km/h
221 17-09-2008 18:24:02 16.2 C 4.41 g/m*3 16.2 C 0 km/h
222 17-09-2008 18:29:02 16 C 4.5 g/m*3 16 C 0 km/h
223 17-09-2008 18:34:02 15.7 C 4.68 g/m*3 15.7 C 0 km/h
224 17-09-2008 18:39:02 15.6 C 4.65 g/m*3 15.6 C 0 km/h
225 17-09-2008 18:44:02 15.4 C 4.6 g/m*3 15.4 C 0 km/h
Sensor: Nr:Datum:Temp:Abs-Feuchte:Windchill:Wind:
Aussen-T/F 226 17-09-2008 18:49:02 15.1 C 4.77 g/m*3 15.1 C 0 km/h
227 17-09-2008 18:54:02 14.9 C 4.97 g/m*3 14.9 C 0 km/h
228 17-09-2008 18:59:02 14.8 C 5.07 g/m*3 14.8 C 0 km/h
229 17-09-2008 19:04:03 14.5 C 4.97 g/m*3 14.5 C 0 km/h
230 17-09-2008 19:09:03 14 C 5.07 g/m*3 14 C 0 km/h
231 17-09-2008 19:14:03 13.7 C 5.21 g/m*3 13.7 C 0 km/h
232 17-09-2008 19:19:02 13.3 C 5.2 g/m*3 13.3 C 0 km/h
233 17-09-2008 19:24:02 12.8 C 5.04 g/m*3 12.8 C 0 km/h
234 17-09-2008 19:29:02 12.7 C 5.12 g/m*3 12.7 C 0 km/h
235 17-09-2008 19:34:02 12.4 C 5.14 g/m*3 12.4 C 0 km/h
236 17-09-2008 19:39:02 12.1 C 5.04 g/m*3 12.1 C 0 km/h
237 17-09-2008 19:44:02 11.9 C 5.08 g/m*3 11.9 C 0 km/h
238 17-09-2008 19:49:01 11.6 C 5.09 g/m*3 11.6 C 0 km/h
239 17-09-2008 19:54:01 11.3 C 5.1 g/m*3 11.3 C 0 km/h
240 17-09-2008 19:59:01 11.1 C 5.14 g/m*3 11.1 C 0 km/h
241 17-09-2008 20:04:02 11 C 5.1 g/m*3 11 C 0 km/h
242 17-09-2008 20:09:02 10.8 C 5.24 g/m*3 10.8 C 0 km/h
243 17-09-2008 20:14:02 10.6 C 5.17 g/m*3 10.6 C 0 km/h
244 17-09-2008 20:19:02 10.5 C 5.14 g/m*3 10.5 C 0 km/h
245 17-09-2008 20:24:02 10.4 C 5.2 g/m*3 10.4 C 0 km/h
246 17-09-2008 20:29:03 10.2 C 5.23 g/m*3 10.2 C 0 km/h
247 17-09-2008 20:34:01 10.1 C 5.2 g/m*3 10.1 C 0 km/h
248 17-09-2008 20:39:01 9.9 C 5.32 g/m*3 9.9 C 0 km/h
249 17-09-2008 20:44:01 9.8 C 5.29 g/m*3 9.8 C 0 km/h
250 17-09-2008 20:49:02 9.7 C 5.25 g/m*3 9.7 C 0 km/h
Sensor: Nr:Datum:Temp:Abs-Feuchte:Windchill:Wind:
Aussen-T/F 251 17-09-2008 20:54:02 9.7 C 5.25 g/m*3 9.7 C 0 km/h
252 17-09-2008 20:59:02 9.7 C 5.25 g/m*3 9.7 C 0 km/h
253 17-09-2008 21:04:01 9.8 C 5.38 g/m*3 9.8 C 0 km/h
254 17-09-2008 21:09:01 9.8 C 5.38 g/m*3 9.8 C 0 km/h
255 17-09-2008 21:14:01 9.6 C 5.31 g/m*3 9.6 C 0 km/h
256 17-09-2008 21:19:01 9.5 C 5.28 g/m*3 9.5 C 0 km/h
257 17-09-2008 21:24:01 9.5 C 5.28 g/m*3 9.5 C 0 km/h
258 17-09-2008 21:29:01 9.4 C 5.16 g/m*3 9.4 C 0 km/h
259 17-09-2008 21:34:02 9.4 C 5.25 g/m*3 9.4 C 0 km/h
260 17-09-2008 21:39:03 9.4 C 5.25 g/m*3 9.4 C 0 km/h
261 17-09-2008 21:44:03 9.3 C 5.12 g/m*3 9.3 C 0 km/h
262 17-09-2008 21:49:02 9.4 C 5.16 g/m*3 9.4 C 0 km/h
263 17-09-2008 21:54:02 9.3 C 5.12 g/m*3 9.3 C 0 km/h
264 17-09-2008 21:59:02 9.2 C 5.09 g/m*3 9.2 C 0 km/h
265 17-09-2008 22:04:02 9.1 C 5.06 g/m*3 9.1 C 0 km/h
266 17-09-2008 22:09:02 9.1 C 5.06 g/m*3 9.1 C 0 km/h
267 17-09-2008 22:14:02 9.1 C 5.06 g/m*3 9.1 C 0 km/h
268 17-09-2008 22:19:02 8.9 C 5.08 g/m*3 8.9 C 0 km/h
269 17-09-2008 22:24:02 8.7 C 5.1 g/m*3 8.7 C 0 km/h
270 17-09-2008 22:29:03 8.6 C 5.07 g/m*3 8.6 C 0 km/h
271 17-09-2008 22:35:03 8.6 C 5.07 g/m*3 8.6 C 0 km/h
272 17-09-2008 22:40:03 8.5 C 5.12 g/m*3 8.5 C 0 km/h
273 17-09-2008 22:45:03 8.4 C 5.09 g/m*3 8.4 C 0 km/h
274 17-09-2008 22:50:03 8.4 C 5.09 g/m*3 8.4 C 0 km/h
275 17-09-2008 22:55:04 8.3 C 5.14 g/m*3 8.3 C 0 km/h
Sensor: Nr:Datum:Temp:Abs-Feuchte:Windchill:Wind:
Aussen-T/F 276 17-09-2008 23:00:04 8.1 C 5.08 g/m*3 8.1 C 0 km/h
277 17-09-2008 23:05:04 8.1 C 5.08 g/m*3 8.1 C 0 km/h
278 17-09-2008 23:10:04 8 C 5.04 g/m*3 8 C 0 km/h
279 17-09-2008 23:15:04 8 C 5.13 g/m*3 8 C 0 km/h
280 17-09-2008 23:20:04 7.9 C 5.09 g/m*3 7.9 C 0 km/h
281 17-09-2008 23:25:04 7.9 C 5.09 g/m*3 7.9 C 0 km/h
282 17-09-2008 23:30:04 7.8 C 5.14 g/m*3 7.8 C 0 km/h
283 17-09-2008 23:35:04 7.8 C 5.14 g/m*3 7.8 C 0 km/h
284 17-09-2008 23:40:04 7.7 C 5.11 g/m*3 7.7 C 0 km/h
285 17-09-2008 23:45:04 7.7 C 5.11 g/m*3 7.7 C 0 km/h
286 17-09-2008 23:50:04 7.5 C 5.04 g/m*3 7.5 C 0 km/h
287 17-09-2008 23:55:04 7.5 C 5.04 g/m*3 7.5 C 0 km/h
288 18-09-2008 00:00:04 7.4 C 5.09 g/m*3 7.4 C 0 km/h
289 18-09-2008 00:05:04 7.4 C 5.09 g/m*3 7.4 C 0 km/h
290 18-09-2008 00:10:04 7.4 C 5.09 g/m*3 7.4 C 0 km/h
291 18-09-2008 00:15:04 7.3 C 5.06 g/m*3 7.3 C 0 km/h
292 18-09-2008 00:20:04 7.2 C 5.1 g/m*3 7.2 C 0 km/h
293 18-09-2008 00:25:04 7.1 C 5.15 g/m*3 7.1 C 0 km/h
294 18-09-2008 00:30:05 7 C 5.11 g/m*3 7 C 0 km/h
295 18-09-2008 00:35:05 7 C 5.11 g/m*3 7 C 0 km/h
296 18-09-2008 00:40:05 6.9 C 5.16 g/m*3 6.9 C 0 km/h
297 18-09-2008 00:45:05 6.7 C 5.09 g/m*3 6.7 C 0 km/h
298 18-09-2008 00:50:05 6.6 C 5.21 g/m*3 6.6 C 0 km/h
299 18-09-2008 00:55:05 6.6 C 5.21 g/m*3 6.6 C 0 km/h
300 18-09-2008 01:00:05 6.6 C 5.28 g/m*3 6.6 C 0 km/h
Sensor: Nr:Datum:Temp:Abs-Feuchte:Windchill:Wind:
Aussen-T/F 301 18-09-2008 01:05:05 6.5 C 5.25 g/m*3 6.5 C 0 km/h
302 18-09-2008 01:10:05 6.4 C 5.22 g/m*3 6.4 C 0 km/h
303 18-09-2008 01:15:05 6.3 C 5.18 g/m*3 6.3 C 0 km/h
304 18-09-2008 01:20:05 6.3 C 5.26 g/m*3 6.3 C 0 km/h
305 18-09-2008 01:25:05 6.2 C 5.22 g/m*3 6.2 C 0 km/h
306 18-09-2008 01:30:05 6.2 C 5.22 g/m*3 6.2 C 0 km/h
307 18-09-2008 01:35:05 6.1 C 5.19 g/m*3 6.1 C 0 km/h
308 18-09-2008 01:40:05 6 C 5.23 g/m*3 6 C 0 km/h
309 18-09-2008 01:45:05 5.9 C 5.26 g/m*3 5.9 C 0 km/h
310 18-09-2008 01:50:05 5.9 C 5.26 g/m*3 5.9 C 0 km/h
311 18-09-2008 01:55:05 5.9 C 5.26 g/m*3 5.9 C 0 km/h
312 18-09-2008 02:00:05 5.9 C 5.26 g/m*3 5.9 C 0 km/h
313 18-09-2008 02:05:06 5.8 C 5.3 g/m*3 5.8 C 0 km/h
314 18-09-2008 02:10:06 5.8 C 5.3 g/m*3 5.8 C 0 km/h
315 18-09-2008 02:15:06 5.7 C 5.27 g/m*3 5.7 C 0 km/h
316 18-09-2008 02:20:06 5.7 C 5.27 g/m*3 5.7 C 0 km/h
317 18-09-2008 02:25:06 5.7 C 5.34 g/m*3 5.7 C 0 km/h
318 18-09-2008 02:30:06 5.7 C 5.34 g/m*3 5.7 C 0 km/h
319 18-09-2008 02:35:06 5.6 C 5.3 g/m*3 5.6 C 0 km/h
320 18-09-2008 02:40:06 5.6 C 5.3 g/m*3 5.6 C 0 km/h
321 18-09-2008 02:45:06 5.5 C 5.34 g/m*3 5.5 C 0 km/h
322 18-09-2008 02:50:06 5.4 C 5.3 g/m*3 5.4 C 0 km/h
323 18-09-2008 02:55:06 5.4 C 5.3 g/m*3 5.4 C 0 km/h
324 18-09-2008 03:00:06 5.3 C 5.27 g/m*3 5.3 C 0 km/h
325 18-09-2008 03:05:06 5.3 C 5.27 g/m*3 5.3 C 0 km/h
Sensor: Nr:Datum:Temp:Abs-Feuchte:Windchill:Wind:
Aussen-T/F 326 18-09-2008 03:10:06 5.3 C 5.27 g/m*3 5.3 C 0 km/h
327 18-09-2008 03:15:06 5.3 C 5.27 g/m*3 5.3 C 0 km/h
328 18-09-2008 03:20:06 5.3 C 5.27 g/m*3 5.3 C 0 km/h
329 18-09-2008 03:25:06 5.3 C 5.27 g/m*3 5.3 C 0 km/h
330 18-09-2008 03:30:06 5.3 C 5.27 g/m*3 5.3 C 0 km/h
331 18-09-2008 03:35:06 5.3 C 5.34 g/m*3 5.3 C 0 km/h
332 18-09-2008 03:40:07 5.3 C 5.34 g/m*3 5.3 C 0 km/h
333 18-09-2008 03:45:07 5.2 C 5.37 g/m*3 5.2 C 0 km/h
334 18-09-2008 03:50:07 5.2 C 5.37 g/m*3 5.2 C 0 km/h
335 18-09-2008 03:55:07 5.2 C 5.37 g/m*3 5.2 C 0 km/h
336 18-09-2008 04:00:07 5.2 C 5.37 g/m*3 5.2 C 0 km/h
337 18-09-2008 04:05:07 5.2 C 5.44 g/m*3 5.2 C 0 km/h
338 18-09-2008 04:10:07 5.2 C 5.44 g/m*3 5.2 C 0 km/h
339 18-09-2008 04:15:07 5.2 C 5.44 g/m*3 5.2 C 0 km/h
340 18-09-2008 04:20:07 5.2 C 5.51 g/m*3 5.2 C 0 km/h
341 18-09-2008 04:25:07 5.2 C 5.51 g/m*3 5.2 C 0 km/h
342 18-09-2008 04:30:07 5.2 C 5.44 g/m*3 5.2 C 0 km/h
343 18-09-2008 04:35:07 5.2 C 5.44 g/m*3 5.2 C 0 km/h
344 18-09-2008 04:40:07 5.1 C 5.4 g/m*3 5.1 C 0 km/h
345 18-09-2008 04:45:07 5.1 C 5.4 g/m*3 5.1 C 0 km/h
346 18-09-2008 04:50:07 5.2 C 5.44 g/m*3 5.2 C 0 km/h
347 18-09-2008 04:55:07 5.2 C 5.44 g/m*3 5.2 C 0 km/h
348 18-09-2008 05:00:07 5 C 5.3 g/m*3 5 C 0 km/h
349 18-09-2008 05:05:07 5 C 5.3 g/m*3 5 C 0 km/h
350 18-09-2008 05:10:07 5 C 5.3 g/m*3 5 C 0 km/h
Sensor: Nr:Datum:Temp:Abs-Feuchte:Windchill:Wind:
Aussen-T/F 351 18-09-2008 05:15:07 5.2 C 5.37 g/m*3 5.2 C 0 km/h
352 18-09-2008 05:20:08 5.1 C 5.34 g/m*3 5.1 C 0 km/h
353 18-09-2008 05:25:08 5.2 C 5.37 g/m*3 5.2 C 0 km/h
354 18-09-2008 05:30:08 5.2 C 5.37 g/m*3 5.2 C 0 km/h
355 18-09-2008 05:35:08 5.2 C 5.3 g/m*3 5.2 C 0 km/h
356 18-09-2008 05:40:08 5.1 C 5.27 g/m*3 5.1 C 0 km/h
357 18-09-2008 05:45:08 5.2 C 5.3 g/m*3 5.2 C 0 km/h
358 18-09-2008 05:50:08 5.2 C 5.3 g/m*3 5.2 C 0 km/h
359 18-09-2008 05:55:08 5.2 C 5.3 g/m*3 5.2 C 0 km/h
360 18-09-2008 06:00:08 5.2 C 5.37 g/m*3 5.2 C 0 km/h
361 18-09-2008 06:05:08 5.3 C 5.41 g/m*3 5.3 C 0 km/h
362 18-09-2008 06:10:08 5.3 C 5.41 g/m*3 5.3 C 0 km/h
363 18-09-2008 06:15:08 5.3 C 5.41 g/m*3 5.3 C 0 km/h
364 18-09-2008 06:20:08 5.3 C 5.41 g/m*3 5.3 C 0 km/h
365 18-09-2008 06:25:08 5.3 C 5.41 g/m*3 5.3 C 0 km/h
366 18-09-2008 06:30:08 5.3 C 5.41 g/m*3 5.3 C 0 km/h
367 18-09-2008 06:35:08 5.3 C 5.41 g/m*3 5.3 C 0 km/h
368 18-09-2008 06:40:08 5.3 C 5.48 g/m*3 5.3 C 0 km/h
369 18-09-2008 06:45:08 5.2 C 5.44 g/m*3 5.2 C 0 km/h
370 18-09-2008 06:50:08 5.2 C 5.44 g/m*3 5.2 C 0 km/h
371 18-09-2008 06:55:09 5.1 C 5.4 g/m*3 5.1 C 0 km/h
372 18-09-2008 07:00:09 5.1 C 5.4 g/m*3 5.1 C 0 km/h
373 18-09-2008 07:05:03 5.1 C 5.4 g/m*3 5.1 C 0 km/h
374 18-09-2008 07:10:03 5.2 C 5.44 g/m*3 5.2 C 0 km/h
375 18-09-2008 07:15:02 5 C 5.3 g/m*3 5 C 0 km/h
Sensor: Nr:Datum:Temp:Abs-Feuchte:Windchill:Wind:
Aussen-T/F 376 18-09-2008 07:20:02 5 C 5.3 g/m*3 5 C 0 km/h
377 18-09-2008 07:25:02 5.2 C 5.37 g/m*3 5.2 C 0 km/h
378 18-09-2008 07:30:02 5.2 C 5.37 g/m*3 5.2 C 0 km/h
379 18-09-2008 07:35:03 5.2 C 5.37 g/m*3 5.2 C 0 km/h
380 18-09-2008 07:40:03 5.1 C 5.34 g/m*3 5.1 C 0 km/h
381 18-09-2008 07:45:02 5.2 C 5.37 g/m*3 5.2 C 0 km/h
382 18-09-2008 07:50:02 5.3 C 5.41 g/m*3 5.3 C 0 km/h
383 18-09-2008 07:55:02 5.4 C 5.44 g/m*3 5.4 C 0 km/h
384 18-09-2008 08:00:02 5.6 C 5.51 g/m*3 5.6 C 0 km/h
385 18-09-2008 08:05:01 5.7 C 5.55 g/m*3 5.7 C 0 km/h
386 18-09-2008 08:10:01 5.8 C 5.59 g/m*3 5.8 C 0 km/h
387 18-09-2008 08:15:02 6 C 5.59 g/m*3 6 C 0 km/h
388 18-09-2008 08:20:02 6.2 C 5.66 g/m*3 6.2 C 0 km/h
389 18-09-2008 08:25:02 6.2 C 5.66 g/m*3 6.2 C 0 km/h
390 18-09-2008 08:30:02 6.3 C 5.7 g/m*3 6.3 C 0 km/h
391 18-09-2008 08:35:01 6.4 C 5.66 g/m*3 6.4 C 0 km/h
392 18-09-2008 08:40:01 6.6 C 5.74 g/m*3 6.6 C 0 km/h
393 18-09-2008 08:45:01 6.7 C 5.77 g/m*3 6.7 C 0 km/h
394 18-09-2008 08:50:01 6.8 C 5.74 g/m*3 6.8 C 0 km/h
395 18-09-2008 08:55:01 7 C 5.66 g/m*3 7 C 0 km/h
396 18-09-2008 09:00:01 7.1 C 5.69 g/m*3 7.1 C 0 km/h
397 18-09-2008 09:05:02 7.2 C 5.49 g/m*3 7.2 C 0 km/h
398 18-09-2008 09:10:02 7.3 C 5.29 g/m*3 7.3 C 0 km/h
399 18-09-2008 09:15:01 7.3 C 5.29 g/m*3 7.3 C 0 km/h
400 18-09-2008 09:20:01 7.5 C 5.28 g/m*3 7.5 C 0 km/h
Sensor: Nr:Datum:Temp:Abs-Feuchte:Windchill:Wind:
Aussen-T/F 401 18-09-2008 09:25:01 7.5 C 5.2 g/m*3 7.5 C 0 km/h
402 18-09-2008 09:30:01 7.6 C 5.24 g/m*3 7.6 C 0 km/h
403 18-09-2008 09:35:02 7.8 C 5.3 g/m*3 7.8 C 0 km/h
404 18-09-2008 09:40:02 8.1 C 5.33 g/m*3 8.1 C 0 km/h
405 18-09-2008 09:45:02 8.3 C 5.23 g/m*3 8.3 C 0 km/h
406 18-09-2008 09:50:02 8.4 C 5.26 g/m*3 8.4 C 0 km/h
407 18-09-2008 09:55:02 8.7 C 5.28 g/m*3 8.7 C 0 km/h
408 18-09-2008 10:00:02 8.9 C 5.17 g/m*3 8.9 C 0 km/h
409 18-09-2008 10:05:02 9 C 5.11 g/m*3 9 C 0 km/h
410 18-09-2008 10:10:02 9.2 C 4.91 g/m*3 9.2 C 0 km/h
411 18-09-2008 10:15:03 9.5 C 4.82 g/m*3 9.5 C 0 km/h
412 18-09-2008 10:20:03 9.6 C 4.67 g/m*3 9.6 C 0 km/h
413 18-09-2008 10:25:03 10 C 4.7 g/m*3 10 C 0 km/h
414 18-09-2008 10:30:03 10.3 C 4.5 g/m*3 10.3 C 0 km/h
415 18-09-2008 10:35:02 10.5 C 4.66 g/m*3 10.5 C 0 km/h
416 18-09-2008 10:40:02 10.6 C 4.59 g/m*3 10.6 C 0 km/h
417 18-09-2008 10:45:01 10.8 C 4.45 g/m*3 10.8 C 0 km/h
418 18-09-2008 10:50:01 10.9 C 4.58 g/m*3 10.9 C 0 km/h
419 18-09-2008 10:55:01 11 C 4.5 g/m*3 11 C 0 km/h
420 18-09-2008 11:00:01 11.1 C 4.43 g/m*3 11.1 C 0 km/h
421 18-09-2008 11:05:02 11.2 C 4.46 g/m*3 11.2 C 0 km/h
422 18-09-2008 11:10:02 11.2 C 4.46 g/m*3 11.2 C 0 km/h
423 18-09-2008 11:15:01 11.3 C 4.39 g/m*3 11.3 C 0 km/h
424 18-09-2008 11:20:01 11.3 C 4.39 g/m*3 11.3 C 0 km/h
425 18-09-2008 11:25:01 11.5 C 4.54 g/m*3 11.5 C 0 km/h
Sensor: Nr:Datum:Temp:Abs-Feuchte:Windchill:Wind:
Aussen-T/F 426 18-09-2008 11:30:01 11.7 C 4.5 g/m*3 11.7 C 0 km/h
427 18-09-2008 11:35:01 11.9 C 4.45 g/m*3 11.9 C 0 km/h
428 18-09-2008 11:40:01 12.2 C 4.53 g/m*3 12.2 C 0 km/h
429 18-09-2008 11:45:02 12.3 C 4.56 g/m*3 12.3 C 0 km/h
430 18-09-2008 11:50:02 12.5 C 4.51 g/m*3 12.5 C 0 km/h
431 18-09-2008 11:55:02 12.7 C 4.56 g/m*3 12.7 C 0 km/h
432 18-09-2008 12:00:02 12.9 C 4.62 g/m*3 12.9 C 0 km/h
433 18-09-2008 12:05:02 13.1 C 4.56 g/m*3 13.1 C 0 km/h
434 18-09-2008 12:10:02 13.3 C 4.39 g/m*3 13.3 C 0 km/h
435 18-09-2008 12:15:03 13.4 C 4.53 g/m*3 13.4 C 0 km/h
436 18-09-2008 12:20:03 13.6 C 4.47 g/m*3 13.6 C 0 km/h
437 18-09-2008 12:25:03 13.8 C 4.29 g/m*3 13.8 C 0 km/h
438 18-09-2008 12:30:03 14 C 4.22 g/m*3 14 C 0 km/h
439 18-09-2008 12:35:02 14 C 4.1 g/m*3 14 C 0 km/h
440 18-09-2008 12:40:03 14.1 C 3.88 g/m*3 14.1 C 0 km/h
441 18-09-2008 12:45:01 14.2 C 3.91 g/m*3 14.2 C 0 km/h
442 18-09-2008 12:50:01 14.2 C 3.79 g/m*3 14.2 C 0 km/h
443 18-09-2008 12:55:01 14.2 C 3.79 g/m*3 14.2 C 0 km/h
444 18-09-2008 13:00:01 14.2 C 3.79 g/m*3 14.2 C 0 km/h
445 18-09-2008 13:05:01 14.2 C 3.79 g/m*3 14.2 C 0 km/h
446 18-09-2008 13:10:01 14.2 C 3.79 g/m*3 14.2 C 0 km/h
447 18-09-2008 13:15:02 14.1 C 3.64 g/m*3 14.1 C 0 km/h
448 18-09-2008 13:20:02 14.1 C 3.64 g/m*3 14.1 C 0 km/h
449 18-09-2008 13:25:03 14.4 C 3.71 g/m*3 14.4 C 0 km/h
450 18-09-2008 13:30:03 14.6 C 3.75 g/m*3 14.6 C 0 km/h
Sensor: Nr:Datum:Temp:Abs-Feuchte:Windchill:Wind:
Aussen-T/F 451 18-09-2008 13:35:01 14.7 C 3.78 g/m*3 14.7 C 0 km/h
452 18-09-2008 13:40:01 14.8 C 3.8 g/m*3 14.8 C 0 km/h
453 18-09-2008 13:45:01 14.9 C 3.82 g/m*3 14.9 C 0 km/h
454 18-09-2008 13:50:01 15.3 C 3.92 g/m*3 15.3 C 0 km/h
455 18-09-2008 13:55:01 15.4 C 3.68 g/m*3 15.4 C 0 km/h
456 18-09-2008 14:00:01 15.6 C 3.72 g/m*3 15.6 C 0 km/h
457 18-09-2008 14:05:02 15.7 C 3.75 g/m*3 15.7 C 0 km/h
458 18-09-2008 14:10:03 16.1 C 3.7 g/m*3 16.1 C 0 km/h
459 18-09-2008 14:15:01 16.2 C 3.59 g/m*3 16.2 C 0 km/h
460 18-09-2008 14:20:01 16.4 C 3.63 g/m*3 16.4 C 0 km/h
461 18-09-2008 14:25:01 16.6 C 3.81 g/m*3 16.6 C 0 km/h
462 18-09-2008 14:30:01 16.9 C 3.88 g/m*3 16.9 C 0 km/h
463 18-09-2008 14:35:02 17.1 C 3.64 g/m*3 17.1 C 0 km/h
464 18-09-2008 14:40:02 17.4 C 3.85 g/m*3 17.4 C 0 km/h
465 18-09-2008 14:45:02 17.5 C 3.73 g/m*3 17.5 C 0 km/h
466 18-09-2008 14:50:03 17.6 C 3.9 g/m*3 17.6 C 0 km/h
467 18-09-2008 14:55:03 17.7 C 3.77 g/m*3 17.7 C 0 km/h
468 18-09-2008 15:00:03 17.6 C 3.6 g/m*3 17.6 C 0 km/h
469 18-09-2008 15:05:02 17.7 C 3.92 g/m*3 17.7 C 0 km/h
470 18-09-2008 15:10:02 18 C 3.84 g/m*3 18 C 0 km/h
471 18-09-2008 15:15:02 18.1 C 3.86 g/m*3 18.1 C 0 km/h
472 18-09-2008 15:20:02 18.2 C 3.73 g/m*3 18.2 C 0 km/h
473 18-09-2008 15:25:02 18.4 C 3.93 g/m*3 18.4 C 0 km/h
474 18-09-2008 15:30:02 18.6 C 3.98 g/m*3 18.6 C 0 km/h
475 18-09-2008 15:35:02 18.7 C 4 g/m*3 18.7 C 0 km/h
Sensor: Nr:Datum:Temp:Abs-Feuchte:Windchill:Wind:
Aussen-T/F 476 18-09-2008 15:40:02 19.1 C 3.77 g/m*3 19.1 C 0 km/h
477 18-09-2008 15:45:02 19.4 C 3.5 g/m*3 19.4 C 0 km/h
478 18-09-2008 15:50:02 19.5 C 3.52 g/m*3 19.5 C 0 km/h
479 18-09-2008 15:55:02 19.1 C 3.44 g/m*3 19.1 C 0 km/h
480 18-09-2008 16:00:02 19.1 C 3.61 g/m*3 19.1 C 0 km/h
481 18-09-2008 16:05:02 19.3 C 3.81 g/m*3 19.3 C 0 km/h
482 18-09-2008 16:10:02 19.5 C 3.86 g/m*3 19.5 C 0 km/h
483 18-09-2008 16:15:02 19.7 C 3.57 g/m*3 19.7 C 0 km/h
484 18-09-2008 16:20:02 19.6 C 3.55 g/m*3 19.6 C 0 km/h
485 18-09-2008 16:25:02 20 C 3.63 g/m*3 20 C 0 km/h
486 18-09-2008 16:30:02 20 C 3.46 g/m*3 20 C 0 km/h
487 18-09-2008 16:35:02 20.1 C 3.48 g/m*3 20.1 C 0 km/h
488 18-09-2008 16:40:02 20.3 C 3.69 g/m*3 20.3 C 0 km/h
489 18-09-2008 16:45:02 20.2 C 3.5 g/m*3 20.2 C 0 km/h
490 18-09-2008 16:50:02 20.4 C 3.54 g/m*3 20.4 C 0 km/h
491 18-09-2008 16:55:02 20.3 C 3.52 g/m*3 20.3 C 0 km/h
492 18-09-2008 17:00:02 20.3 C 3.52 g/m*3 20.3 C 0 km/h
493 18-09-2008 17:05:02 20.5 C 3.74 g/m*3 20.5 C 0 km/h
494 18-09-2008 17:10:02 20.6 C 3.58 g/m*3 20.6 C 0 km/h
495 18-09-2008 17:15:02 20.3 C 3.52 g/m*3 20.3 C 0 km/h
496 18-09-2008 17:20:02 20.2 C 3.5 g/m*3 20.2 C 0 km/h
497 18-09-2008 17:25:02 20.2 C 3.5 g/m*3 20.2 C 0 km/h
498 18-09-2008 17:30:02 20.2 C 3.5 g/m*3 20.2 C 0 km/h
499 18-09-2008 17:35:02 20.1 C 3.48 g/m*3 20.1 C 0 km/h
500 18-09-2008 17:40:02 20.1 C 3.48 g/m*3 20.1 C 0 km/h
Sensor: Nr:Datum:Temp:Abs-Feuchte:Windchill:Wind:
Aussen-T/F 501 18-09-2008 17:45:02 19.8 C 3.42 g/m*3 19.8 C 0 km/h
502 18-09-2008 17:50:02 19.8 C 3.42 g/m*3 19.8 C 0 km/h
503 18-09-2008 17:55:02 19.8 C 3.42 g/m*3 19.8 C 0 km/h
504 18-09-2008 18:00:02 19.8 C 3.42 g/m*3 19.8 C 0 km/h
505 18-09-2008 18:05:02 19.7 C 3.4 g/m*3 19.7 C 0 km/h
506 18-09-2008 18:10:02 19.8 C 3.76 g/m*3 19.8 C 0 km/h
507 18-09-2008 18:15:02 19.7 C 3.91 g/m*3 19.7 C 0 km/h
508 18-09-2008 18:20:02 19.8 C 3.76 g/m*3 19.8 C 0 km/h
509 18-09-2008 18:25:02 19.4 C 4.17 g/m*3 19.4 C 0 km/h
510 18-09-2008 18:30:02 19 C 4.24 g/m*3 19 C 0 km/h
511 18-09-2008 18:35:01 18.9 C 4.37 g/m*3 18.9 C 0 km/h
512 18-09-2008 18:40:01 18.5 C 4.43 g/m*3 18.5 C 0 km/h
513 18-09-2008 18:45:02 18.1 C 4.64 g/m*3 18.1 C 0 km/h
514 18-09-2008 18:50:02 17.8 C 4.55 g/m*3 17.8 C 0 km/h
515 18-09-2008 18:55:02 17.5 C 4.62 g/m*3 17.5 C 0 km/h
516 18-09-2008 19:00:02 17.1 C 4.8 g/m*3 17.1 C 0 km/h
517 18-09-2008 19:05:02 16.7 C 4.69 g/m*3 16.7 C 0 km/h
518 18-09-2008 19:10:02 16.2 C 4.69 g/m*3 16.2 C 0 km/h
519 18-09-2008 19:15:02 15.6 C 4.65 g/m*3 15.6 C 0 km/h
520 18-09-2008 19:20:02 15.3 C 4.57 g/m*3 15.3 C 0 km/h
521 18-09-2008 19:25:02 14.6 C 4.63 g/m*3 14.6 C 0 km/h
522 18-09-2008 19:30:02 14.1 C 4.61 g/m*3 14.1 C 0 km/h
523 18-09-2008 19:35:02 13.5 C 4.56 g/m*3 13.5 C 0 km/h
524 18-09-2008 19:40:02 13.2 C 4.59 g/m*3 13.2 C 0 km/h
525 18-09-2008 19:45:02 12.7 C 4.68 g/m*3 12.7 C 0 km/h
Sensor: Nr:Datum:Temp:Abs-Feuchte:Windchill:Wind:
Aussen-T/F 526 18-09-2008 19:50:02 12.3 C 4.67 g/m*3 12.3 C 0 km/h
527 18-09-2008 19:55:02 12.2 C 4.86 g/m*3 12.2 C 0 km/h
528 18-09-2008 20:00:02 11.9 C 4.87 g/m*3 11.9 C 0 km/h
529 18-09-2008 20:05:02 11.6 C 4.89 g/m*3 11.6 C 0 km/h
530 18-09-2008 20:10:02 11.5 C 4.96 g/m*3 11.5 C 0 km/h
531 18-09-2008 20:15:02 11.2 C 5.07 g/m*3 11.2 C 0 km/h
532 18-09-2008 20:20:02 10.9 C 5.17 g/m*3 10.9 C 0 km/h
533 18-09-2008 20:25:02 10.8 C 5.24 g/m*3 10.8 C 0 km/h
534 18-09-2008 20:30:03 10.8 C 5.24 g/m*3 10.8 C 0 km/h
535 18-09-2008 20:35:02 10.7 C 5.21 g/m*3 10.7 C 0 km/h
536 18-09-2008 20:40:02 10.6 C 5.17 g/m*3 10.6 C 0 km/h
537 18-09-2008 20:45:02 10.6 C 5.17 g/m*3 10.6 C 0 km/h
538 18-09-2008 20:50:02 10.6 C 5.27 g/m*3 10.6 C 0 km/h
539 18-09-2008 20:55:02 10.5 C 5.33 g/m*3 10.5 C 0 km/h
540 18-09-2008 21:00:02 10.4 C 5.3 g/m*3 10.4 C 0 km/h
541 18-09-2008 21:05:02 10.2 C 5.23 g/m*3 10.2 C 0 km/h
542 18-09-2008 21:10:02 10.2 C 5.33 g/m*3 10.2 C 0 km/h
543 18-09-2008 21:15:01 10.2 C 5.33 g/m*3 10.2 C 0 km/h
544 18-09-2008 21:20:01 10 C 5.36 g/m*3 10 C 0 km/h
545 18-09-2008 21:25:01 9.9 C 5.42 g/m*3 9.9 C 0 km/h
546 18-09-2008 21:30:01 9.8 C 5.47 g/m*3 9.8 C 0 km/h
547 18-09-2008 21:35:02 9.8 C 5.47 g/m*3 9.8 C 0 km/h
548 18-09-2008 21:40:03 9.7 C 5.44 g/m*3 9.7 C 0 km/h
549 18-09-2008 21:46:03 9.5 C 5.46 g/m*3 9.5 C 0 km/h
550 18-09-2008 21:51:03 9.5 C 5.46 g/m*3 9.5 C 0 km/h
Sensor: Nr:Datum:Temp:Abs-Feuchte:Windchill:Wind:
Aussen-T/F 551 18-09-2008 21:56:03 9.3 C 5.39 g/m*3 9.3 C 0 km/h
552 18-09-2008 22:01:03 9.2 C 5.54 g/m*3 9.2 C 0 km/h
553 18-09-2008 22:06:03 9.2 C 5.54 g/m*3 9.2 C 0 km/h
554 18-09-2008 22:11:03 9.1 C 5.59 g/m*3 9.1 C 0 km/h
555 18-09-2008 22:16:03 8.9 C 5.52 g/m*3 8.9 C 0 km/h
556 18-09-2008 22:21:03 8.9 C 5.52 g/m*3 8.9 C 0 km/h
557 18-09-2008 22:26:03 8.8 C 5.57 g/m*3 8.8 C 0 km/h
558 18-09-2008 22:31:03 8.7 C 5.62 g/m*3 8.7 C 0 km/h
559 18-09-2008 22:36:03 8.6 C 5.59 g/m*3 8.6 C 0 km/h
560 18-09-2008 22:41:03 8.6 C 5.59 g/m*3 8.6 C 0 km/h
561 18-09-2008 22:46:03 8.5 C 5.64 g/m*3 8.5 C 0 km/h
562 18-09-2008 22:51:03 8.5 C 5.64 g/m*3 8.5 C 0 km/h
563 18-09-2008 22:56:03 8.3 C 5.65 g/m*3 8.3 C 0 km/h
564 18-09-2008 23:01:03 8.2 C 5.61 g/m*3 8.2 C 0 km/h
565 18-09-2008 23:06:03 8.2 C 5.69 g/m*3 8.2 C 0 km/h
566 18-09-2008 23:11:03 8.1 C 5.57 g/m*3 8.1 C 0 km/h
567 18-09-2008 23:16:04 8 C 5.54 g/m*3 8 C 0 km/h
568 18-09-2008 23:21:04 7.9 C 5.67 g/m*3 7.9 C 0 km/h
569 18-09-2008 23:26:04 7.8 C 5.63 g/m*3 7.8 C 0 km/h
570 18-09-2008 23:31:04 7.8 C 5.63 g/m*3 7.8 C 0 km/h
571 18-09-2008 23:36:04 7.7 C 5.68 g/m*3 7.7 C 0 km/h
572 18-09-2008 23:41:04 7.5 C 5.6 g/m*3 7.5 C 0 km/h
573 18-09-2008 23:46:04 7.5 C 5.6 g/m*3 7.5 C 0 km/h
574 18-09-2008 23:51:04 7.5 C 5.68 g/m*3 7.5 C 0 km/h
575 18-09-2008 23:56:04 7.5 C 5.76 g/m*3 7.5 C 0 km/h
Sensor: Nr:Datum:Temp:Abs-Feuchte:Windchill:Wind:
Aussen-T/F 576 19-09-2008 00:01:04 7.4 C 5.73 g/m*3 7.4 C 0 km/h
577 19-09-2008 00:06:04 7.5 C 5.76 g/m*3 7.5 C 0 km/h
578 19-09-2008 00:11:04 7.3 C 5.77 g/m*3 7.3 C 0 km/h
579 19-09-2008 00:16:04 7.2 C 5.73 g/m*3 7.2 C 0 km/h
580 19-09-2008 00:21:04 7.1 C 5.77 g/m*3 7.1 C 0 km/h
581 19-09-2008 00:26:04 7.1 C 5.85 g/m*3 7.1 C 0 km/h
582 19-09-2008 00:31:04 7.1 C 5.85 g/m*3 7.1 C 0 km/h
583 19-09-2008 00:36:04 7 C 5.89 g/m*3 7 C 0 km/h
584 19-09-2008 00:41:04 7 C 5.89 g/m*3 7 C 0 km/h
585 19-09-2008 00:46:04 6.9 C 5.93 g/m*3 6.9 C 0 km/h
586 19-09-2008 00:51:04 6.9 C 5.93 g/m*3 6.9 C 0 km/h
587 19-09-2008 00:56:05 6.8 C 5.89 g/m*3 6.8 C 0 km/h
588 19-09-2008 01:01:05 6.7 C 5.85 g/m*3 6.7 C 0 km/h
589 19-09-2008 01:06:05 6.6 C 5.89 g/m*3 6.6 C 0 km/h
590 19-09-2008 01:11:05 6.6 C 5.89 g/m*3 6.6 C 0 km/h
591 19-09-2008 01:16:05 6.5 C 5.85 g/m*3 6.5 C 0 km/h
592 19-09-2008 01:21:05 6.4 C 5.81 g/m*3 6.4 C 0 km/h
593 19-09-2008 01:26:05 6.4 C 5.81 g/m*3 6.4 C 0 km/h
594 19-09-2008 01:31:05 6.4 C 5.81 g/m*3 6.4 C 0 km/h
595 19-09-2008 01:36:05 6.3 C 5.85 g/m*3 6.3 C 0 km/h
596 19-09-2008 01:41:05 6.2 C 5.81 g/m*3 6.2 C 0 km/h
597 19-09-2008 01:46:05 6.1 C 5.84 g/m*3 6.1 C 0 km/h
598 19-09-2008 01:51:05 6 C 5.81 g/m*3 6 C 0 km/h
599 19-09-2008 01:56:05 6 C 5.81 g/m*3 6 C 0 km/h
600 19-09-2008 02:01:05 6 C 5.81 g/m*3 6 C 0 km/h
Sensor: Nr:Datum:Temp:Abs-Feuchte:Windchill:Wind:
Aussen-T/F 601 19-09-2008 02:06:05 6 C 5.81 g/m*3 6 C 0 km/h
602 19-09-2008 02:11:05 5.9 C 5.84 g/m*3 5.9 C 0 km/h
603 19-09-2008 02:16:05 5.8 C 5.8 g/m*3 5.8 C 0 km/h
604 19-09-2008 02:21:05 5.8 C 5.8 g/m*3 5.8 C 0 km/h
605 19-09-2008 02:26:05 5.7 C 5.76 g/m*3 5.7 C 0 km/h
606 19-09-2008 02:31:06 5.7 C 5.76 g/m*3 5.7 C 0 km/h
607 19-09-2008 02:36:06 5.7 C 5.84 g/m*3 5.7 C 0 km/h
608 19-09-2008 02:41:06 5.7 C 5.91 g/m*3 5.7 C 0 km/h
609 19-09-2008 02:46:06 5.6 C 5.87 g/m*3 5.6 C 0 km/h
610 19-09-2008 02:51:06 5.6 C 5.87 g/m*3 5.6 C 0 km/h
611 19-09-2008 02:56:06 5.5 C 5.83 g/m*3 5.5 C 0 km/h
612 19-09-2008 03:01:06 5.5 C 5.83 g/m*3 5.5 C 0 km/h
613 19-09-2008 03:06:06 5.4 C 5.79 g/m*3 5.4 C 0 km/h
614 19-09-2008 03:11:06 5.3 C 5.75 g/m*3 5.3 C 0 km/h
615 19-09-2008 03:16:06 5.3 C 5.75 g/m*3 5.3 C 0 km/h
616 19-09-2008 03:21:06 5.2 C 5.71 g/m*3 5.2 C 0 km/h
617 19-09-2008 03:26:06 5.2 C 5.71 g/m*3 5.2 C 0 km/h
618 19-09-2008 03:31:06 5.2 C 5.71 g/m*3 5.2 C 0 km/h
619 19-09-2008 03:36:06 5.1 C 5.68 g/m*3 5.1 C 0 km/h
620 19-09-2008 03:41:06 5.1 C 5.68 g/m*3 5.1 C 0 km/h
621 19-09-2008 03:46:06 5.1 C 5.68 g/m*3 5.1 C 0 km/h
622 19-09-2008 03:51:06 5.1 C 5.68 g/m*3 5.1 C 0 km/h
623 19-09-2008 03:56:06 5.2 C 5.71 g/m*3 5.2 C 0 km/h
624 19-09-2008 04:01:06 4.9 C 5.67 g/m*3 4.9 C 0 km/h
625 19-09-2008 04:06:07 4.9 C 5.67 g/m*3 4.9 C 0 km/h
Sensor: Nr:Datum:Temp:Abs-Feuchte:Windchill:Wind:
Aussen-T/F 626 19-09-2008 04:11:07 4.9 C 5.67 g/m*3 4.9 C 0 km/h
627 19-09-2008 04:16:07 4.9 C 5.74 g/m*3 4.9 C 0 km/h
628 19-09-2008 04:21:07 4.8 C 5.7 g/m*3 4.8 C 0 km/h
629 19-09-2008 04:26:07 4.7 C 5.66 g/m*3 4.7 C 0 km/h
630 19-09-2008 04:31:07 4.7 C 5.66 g/m*3 4.7 C 0 km/h
631 19-09-2008 04:36:07 4.7 C 5.66 g/m*3 4.7 C 0 km/h
632 19-09-2008 04:41:07 4.6 C 5.62 g/m*3 4.6 C 0 km/h
633 19-09-2008 04:46:07 4.5 C 5.59 g/m*3 4.5 C 0 km/h
634 19-09-2008 04:51:07 4.5 C 5.59 g/m*3 4.5 C 0 km/h
635 19-09-2008 04:56:07 4.4 C 5.55 g/m*3 4.4 C 0 km/h
636 19-09-2008 05:01:07 4.4 C 5.55 g/m*3 4.4 C 0 km/h
637 19-09-2008 05:06:07 4.4 C 5.55 g/m*3 4.4 C 0 km/h
638 19-09-2008 05:11:07 4.4 C 5.55 g/m*3 4.4 C 0 km/h
639 19-09-2008 05:16:07 4.4 C 5.55 g/m*3 4.4 C 0 km/h
640 19-09-2008 05:21:07 4.3 C 5.58 g/m*3 4.3 C 0 km/h
641 19-09-2008 05:26:07 4.3 C 5.58 g/m*3 4.3 C 0 km/h
642 19-09-2008 05:31:07 4.2 C 5.54 g/m*3 4.2 C 0 km/h
643 19-09-2008 05:36:07 4.2 C 5.54 g/m*3 4.2 C 0 km/h
644 19-09-2008 05:41:07 4.2 C 5.54 g/m*3 4.2 C 0 km/h
645 19-09-2008 05:46:08 4.1 C 5.5 g/m*3 4.1 C 0 km/h
646 19-09-2008 05:51:08 4.1 C 5.5 g/m*3 4.1 C 0 km/h
647 19-09-2008 05:56:08 4 C 5.47 g/m*3 4 C 0 km/h
648 19-09-2008 06:01:08 3.9 C 5.49 g/m*3 3.9 C 0 km/h
649 19-09-2008 06:06:08 3.9 C 5.49 g/m*3 3.9 C 0 km/h
650 19-09-2008 06:11:08 3.9 C 5.49 g/m*3 3.9 C 0 km/h
Sensor: Nr:Datum:Temp:Abs-Feuchte:Windchill:Wind:
Aussen-T/F 651 19-09-2008 06:16:08 3.9 C 5.56 g/m*3 3.9 C 0 km/h
652 19-09-2008 06:21:08 3.8 C 5.52 g/m*3 3.8 C 0 km/h
653 19-09-2008 06:26:08 3.8 C 5.52 g/m*3 3.8 C 0 km/h
654 19-09-2008 06:31:08 3.8 C 5.52 g/m*3 3.8 C 0 km/h
655 19-09-2008 06:36:08 3.8 C 5.52 g/m*3 3.8 C 0 km/h
656 19-09-2008 06:41:08 3.8 C 5.52 g/m*3 3.8 C 0 km/h
657 19-09-2008 06:46:08 3.7 C 5.48 g/m*3 3.7 C 0 km/h
658 19-09-2008 06:51:08 3.7 C 5.48 g/m*3 3.7 C 0 km/h
659 19-09-2008 06:56:08 3.7 C 5.48 g/m*3 3.7 C 0 km/h
660 19-09-2008 07:01:03 3.6 C 5.45 g/m*3 3.6 C 0 km/h
661 19-09-2008 07:06:03 3.5 C 5.41 g/m*3 3.5 C 0 km/h
662 19-09-2008 07:11:03 3.4 C 5.37 g/m*3 3.4 C 0 km/h
663 19-09-2008 07:16:03 3.4 C 5.37 g/m*3 3.4 C 0 km/h
664 19-09-2008 07:21:03 3.4 C 5.37 g/m*3 3.4 C 0 km/h
665 19-09-2008 07:26:03 3.5 C 5.47 g/m*3 3.5 C 0 km/h
666 19-09-2008 07:31:03 3.5 C 5.47 g/m*3 3.5 C 0 km/h
667 19-09-2008 07:36:03 3.5 C 5.53 g/m*3 3.5 C 0 km/h
668 19-09-2008 07:41:03 3.4 C 5.5 g/m*3 3.4 C 0 km/h
669 19-09-2008 07:46:02 3.4 C 5.5 g/m*3 3.4 C 0 km/h
670 19-09-2008 07:51:02 3.4 C 5.5 g/m*3 3.4 C 0 km/h
671 19-09-2008 07:56:02 3.4 C 5.5 g/m*3 3.4 C 0 km/h
672 19-09-2008 08:01:01 3.5 C 5.6 g/m*3 3.5 C 0 km/h
673 19-09-2008 08:06:01 3.4 C 5.56 g/m*3 3.4 C 0 km/h
674 19-09-2008 08:11:01 3.5 C 5.6 g/m*3 3.5 C 0 km/h
675 19-09-2008 08:16:02 3.6 C 5.63 g/m*3 3.6 C 0 km/h
Sensor: Nr:Datum:Temp:Abs-Feuchte:Windchill:Wind:
Aussen-T/F 676 19-09-2008 08:21:02 3.6 C 5.63 g/m*3 3.6 C 0 km/h
677 19-09-2008 08:26:02 3.6 C 5.63 g/m*3 3.6 C 0 km/h
678 19-09-2008 08:31:01 3.7 C 5.67 g/m*3 3.7 C 0 km/h
679 19-09-2008 08:36:01 3.7 C 5.67 g/m*3 3.7 C 0 km/h
680 19-09-2008 08:41:01 3.7 C 5.67 g/m*3 3.7 C 0 km/h
681 19-09-2008 08:46:01 3.9 C 5.81 g/m*3 3.9 C 0 km/h
682 19-09-2008 08:51:01 3.9 C 5.81 g/m*3 3.9 C 0 km/h
683 19-09-2008 08:56:01 4 C 5.79 g/m*3 4 C 0 km/h
684 19-09-2008 09:01:02 4 C 5.79 g/m*3 4 C 0 km/h
685 19-09-2008 09:06:02 4.1 C 5.82 g/m*3 4.1 C 0 km/h
686 19-09-2008 09:11:02 4.1 C 5.82 g/m*3 4.1 C 0 km/h
687 19-09-2008 09:16:01 4.2 C 5.86 g/m*3 4.2 C 0 km/h
688 19-09-2008 09:21:01 4.3 C 5.9 g/m*3 4.3 C 0 km/h
689 19-09-2008 09:26:01 4.4 C 5.94 g/m*3 4.4 C 0 km/h
690 19-09-2008 09:31:02 4.5 C 5.98 g/m*3 4.5 C 0 km/h
691 19-09-2008 09:36:02 4.7 C 6.13 g/m*3 4.7 C 0 km/h
692 19-09-2008 09:41:02 4.7 C 6.13 g/m*3 4.7 C 0 km/h
693 19-09-2008 09:46:02 5 C 6.18 g/m*3 5 C 0 km/h
694 19-09-2008 09:51:02 5.3 C 6.38 g/m*3 5.3 C 0 km/h
695 19-09-2008 09:56:02 5.4 C 6.42 g/m*3 5.4 C 0 km/h
696 19-09-2008 10:01:02 5.7 C 6.55 g/m*3 5.7 C 0 km/h
697 19-09-2008 10:06:02 6.1 C 6.72 g/m*3 6.1 C 0 km/h
698 19-09-2008 10:11:02 6.3 C 6.81 g/m*3 6.3 C 0 km/h
699 19-09-2008 10:16:03 6.7 C 6.99 g/m*3 6.7 C 0 km/h
700 19-09-2008 10:21:03 6.9 C 7.08 g/m*3 6.9 C 0 km/h
Sensor: Nr:Datum:Temp:Abs-Feuchte:Windchill:Wind:
Aussen-T/F 701 19-09-2008 10:26:03 7.3 C 7.19 g/m*3 7.3 C 0 km/h
702 19-09-2008 10:31:02 7.4 C 7.24 g/m*3 7.4 C 0 km/h
703 19-09-2008 10:36:02 7.8 C 7.43 g/m*3 7.8 C 0 km/h
704 19-09-2008 10:41:02 8.1 C 7.41 g/m*3 8.1 C 0 km/h
705 19-09-2008 10:46:01 8.2 C 7.45 g/m*3 8.2 C 0 km/h
706 19-09-2008 10:51:01 8.5 C 7.51 g/m*3 8.5 C 0 km/h
707 19-09-2008 10:56:01 8.9 C 7.53 g/m*3 8.9 C 0 km/h
708 19-09-2008 11:01:02 9 C 7.41 g/m*3 9 C 0 km/h
709 19-09-2008 11:06:02 9.3 C 7.37 g/m*3 9.3 C 0 km/h
710 19-09-2008 11:11:02 9.7 C 7.19 g/m*3 9.7 C 0 km/h
711 19-09-2008 11:16:02 10 C 6.86 g/m*3 10 C 0 km/h
712 19-09-2008 11:21:03 10.3 C 6.9 g/m*3 10.3 C 0 km/h
713 19-09-2008 11:26:03 10.6 C 6.83 g/m*3 10.6 C 0 km/h
714 19-09-2008 11:31:01 11 C 6.81 g/m*3 11 C 0 km/h
715 19-09-2008 11:36:01 11.1 C 6.75 g/m*3 11.1 C 0 km/h
716 19-09-2008 11:41:01 11.5 C 6.71 g/m*3 11.5 C 0 km/h
717 19-09-2008 11:46:01 11.8 C 6.74 g/m*3 11.8 C 0 km/h
718 19-09-2008 11:51:01 12 C 6.71 g/m*3 12 C 0 km/h
719 19-09-2008 11:56:01 12.4 C 6.77 g/m*3 12.4 C 0 km/h
720 19-09-2008 12:01:01 12.5 C 6.82 g/m*3 12.5 C 0 km/h
721 19-09-2008 12:06:02 12.7 C 6.9 g/m*3 12.7 C 0 km/h
722 19-09-2008 12:11:02 12.8 C 6.72 g/m*3 12.8 C 0 km/h
723 19-09-2008 12:16:01 13.1 C 6.73 g/m*3 13.1 C 0 km/h
724 19-09-2008 12:21:01 13.2 C 6.66 g/m*3 13.2 C 0 km/h
725 19-09-2008 12:26:01 13.4 C 6.28 g/m*3 13.4 C 0 km/h
Sensor: Nr:Datum:Temp:Abs-Feuchte:Windchill:Wind:
Aussen-T/F 726 19-09-2008 12:31:02 13.7 C 6.16 g/m*3 13.7 C 0 km/h
727 19-09-2008 12:36:02 14.2 C 6.23 g/m*3 14.2 C 0 km/h
728 19-09-2008 12:41:02 14.3 C 6.39 g/m*3 14.3 C 0 km/h
729 19-09-2008 12:46:02 14.4 C 5.93 g/m*3 14.4 C 0 km/h
730 19-09-2008 12:51:02 15 C 5.77 g/m*3 15 C 0 km/h
731 19-09-2008 12:56:02 15.1 C 5.93 g/m*3 15.1 C 0 km/h
732 19-09-2008 13:01:02 15.1 C 5.81 g/m*3 15.1 C 0 km/h
733 19-09-2008 13:06:02 15.2 C 5.71 g/m*3 15.2 C 0 km/h
734 19-09-2008 13:11:02 15.8 C 5.25 g/m*3 15.8 C 0 km/h
735 19-09-2008 13:16:02 16 C 5.18 g/m*3 16 C 0 km/h
736 19-09-2008 13:21:02 16.2 C 5.1 g/m*3 16.2 C 0 km/h
737 19-09-2008 13:26:02 16.4 C 5.16 g/m*3 16.4 C 0 km/h
738 19-09-2008 13:31:02 16.6 C 5.09 g/m*3 16.6 C 0 km/h
739 19-09-2008 13:36:02 16.8 C 5.15 g/m*3 16.8 C 0 km/h
740 19-09-2008 13:41:02 16.9 C 5.18 g/m*3 16.9 C 0 km/h
741 19-09-2008 13:46:02 16.8 C 5 g/m*3 16.8 C 0 km/h
742 19-09-2008 13:51:02 17 C 5.06 g/m*3 17 C 0 km/h
743 19-09-2008 13:56:02 17.3 C 5.01 g/m*3 17.3 C 0 km/h
744 19-09-2008 14:01:02 17.6 C 4.95 g/m*3 17.6 C 0 km/h
745 19-09-2008 14:06:02 18.1 C 4.94 g/m*3 18.1 C 0 km/h
746 19-09-2008 14:11:02 18.1 C 4.79 g/m*3 18.1 C 0 km/h
747 19-09-2008 14:16:02 18.2 C 4.66 g/m*3 18.2 C 0 km/h
748 19-09-2008 14:21:02 18.4 C 4.88 g/m*3 18.4 C 0 km/h
749 19-09-2008 14:26:02 18.6 C 4.77 g/m*3 18.6 C 0 km/h
750 19-09-2008 14:31:02 19.1 C 4.59 g/m*3 19.1 C 0 km/h
Sensor: Nr:Datum:Temp:Abs-Feuchte:Windchill:Wind:
Aussen-T/F 751 19-09-2008 14:36:02 19.3 C 4.48 g/m*3 19.3 C 0 km/h
752 19-09-2008 14:41:02 19.3 C 4.31 g/m*3 19.3 C 0 km/h
753 19-09-2008 14:46:02 19.7 C 4.42 g/m*3 19.7 C 0 km/h
754 19-09-2008 14:51:02 19.7 C 4.42 g/m*3 19.7 C 0 km/h
755 19-09-2008 14:56:02 19.7 C 4.25 g/m*3 19.7 C 0 km/h
756 19-09-2008 15:01:01 19.3 C 4.31 g/m*3 19.3 C 0 km/h
757 19-09-2008 15:06:01 19.4 C 4.5 g/m*3 19.4 C 0 km/h
758 19-09-2008 15:11:01 20 C 4.49 g/m*3 20 C 0 km/h
759 19-09-2008 15:16:02 20.6 C 4.65 g/m*3 20.6 C 0 km/h
760 19-09-2008 15:21:02 20.3 C 4.05 g/m*3 20.3 C 0 km/h
761 19-09-2008 15:26:02 20 C 4.32 g/m*3 20 C 0 km/h
762 19-09-2008 15:31:01 19.8 C 4.44 g/m*3 19.8 C 0 km/h
763 19-09-2008 15:36:01 19.6 C 4.73 g/m*3 19.6 C 0 km/h
764 19-09-2008 15:41:01 19.5 C 4.7 g/m*3 19.5 C 0 km/h
765 19-09-2008 15:46:01 19.8 C 4.61 g/m*3 19.8 C 0 km/h
766 19-09-2008 15:51:01 20.2 C 4.55 g/m*3 20.2 C 0 km/h
767 19-09-2008 15:56:01 20.5 C 4.45 g/m*3 20.5 C 0 km/h
768 19-09-2008 16:01:02 21.1 C 4.61 g/m*3 21.1 C 0 km/h
769 19-09-2008 16:06:02 20.8 C 3.8 g/m*3 20.8 C 0 km/h
770 19-09-2008 16:11:02 21 C 3.85 g/m*3 21 C 0 km/h
771 19-09-2008 16:16:01 21.2 C 3.71 g/m*3 21.2 C 0 km/h
772 19-09-2008 16:21:01 21 C 3.66 g/m*3 21 C 0 km/h
773 19-09-2008 16:26:01 20.9 C 3.82 g/m*3 20.9 C 0 km/h
774 19-09-2008 16:31:02 21 C 3.85 g/m*3 21 C 0 km/h
775 19-09-2008 16:36:02 21.4 C 4.12 g/m*3 21.4 C 0 km/h
Sensor: Nr:Datum:Temp:Abs-Feuchte:Windchill:Wind:
Aussen-T/F 776 19-09-2008 16:41:02 21.7 C 4.01 g/m*3 21.7 C 0 km/h
777 19-09-2008 16:46:02 22 C 3.88 g/m*3 22 C 0 km/h
778 19-09-2008 16:51:02 22.1 C 3.9 g/m*3 22.1 C 0 km/h
779 19-09-2008 16:56:02 21.9 C 3.86 g/m*3 21.9 C 0 km/h
780 19-09-2008 17:01:02 21.7 C 3.82 g/m*3 21.7 C 0 km/h
781 19-09-2008 17:06:02 21 C 4.03 g/m*3 21 C 0 km/h
782 19-09-2008 17:11:02 20.4 C 4.42 g/m*3 20.4 C 0 km/h
783 19-09-2008 17:16:02 19.9 C 4.64 g/m*3 19.9 C 0 km/h
784 19-09-2008 17:21:02 19.6 C 4.39 g/m*3 19.6 C 0 km/h
785 19-09-2008 17:26:02 19.2 C 4.62 g/m*3 19.2 C 0 km/h
786 19-09-2008 17:31:02 18.9 C 4.86 g/m*3 18.9 C 0 km/h
787 19-09-2008 17:36:02 18.8 C 4.83 g/m*3 18.8 C 0 km/h
788 19-09-2008 17:41:02 18.5 C 4.9 g/m*3 18.5 C 0 km/h
789 19-09-2008 17:46:02 18.2 C 5.28 g/m*3 18.2 C 0 km/h
790 19-09-2008 17:51:02 18.2 C 5.28 g/m*3 18.2 C 0 km/h
791 19-09-2008 17:56:02 17.9 C 5.34 g/m*3 17.9 C 0 km/h
792 19-09-2008 18:01:02 17.7 C 5.28 g/m*3 17.7 C 0 km/h
793 19-09-2008 18:06:02 17.3 C 5.3 g/m*3 17.3 C 0 km/h
794 19-09-2008 18:11:02 17.2 C 5.56 g/m*3 17.2 C 0 km/h
795 19-09-2008 18:16:02 16.8 C 5.43 g/m*3 16.8 C 0 km/h
796 19-09-2008 18:21:02 16.8 C 5.43 g/m*3 16.8 C 0 km/h
797 19-09-2008 18:26:02 16.8 C 5.43 g/m*3 16.8 C 0 km/h
798 19-09-2008 18:31:02 16.7 C 5.4 g/m*3 16.7 C 0 km/h
799 19-09-2008 18:36:02 16.5 C 5.2 g/m*3 16.5 C 0 km/h
800 19-09-2008 18:41:02 16.5 C 5.2 g/m*3 16.5 C 0 km/h
Sensor: Nr:Datum:Temp:Abs-Feuchte:Windchill:Wind:
Aussen-T/F 801 19-09-2008 18:46:02 16.3 C 5.27 g/m*3 16.3 C 0 km/h
802 19-09-2008 18:51:03 16.1 C 5.35 g/m*3 16.1 C 0 km/h
803 19-09-2008 18:56:03 16 C 5.31 g/m*3 16 C 0 km/h
804 19-09-2008 19:01:01 15.7 C 5.49 g/m*3 15.7 C 0 km/h
805 19-09-2008 19:06:01 15.4 C 5.52 g/m*3 15.4 C 0 km/h
806 19-09-2008 19:11:01 15.2 C 5.58 g/m*3 15.2 C 0 km/h
807 19-09-2008 19:16:02 15 C 5.51 g/m*3 15 C 0 km/h
808 19-09-2008 19:21:02 14.8 C 5.7 g/m*3 14.8 C 0 km/h
809 19-09-2008 19:26:02 14.5 C 5.6 g/m*3 14.5 C 0 km/h
810 19-09-2008 19:31:01 14.2 C 5.37 g/m*3 14.2 C 0 km/h
811 19-09-2008 19:36:01 14 C 5.31 g/m*3 14 C 0 km/h
812 19-09-2008 19:41:01 14 C 5.43 g/m*3 14 C 0 km/h
813 19-09-2008 19:46:01 14 C 5.67 g/m*3 14 C 0 km/h
814 19-09-2008 19:51:01 13.8 C 5.72 g/m*3 13.8 C 0 km/h
815 19-09-2008 19:56:01 13.7 C 5.68 g/m*3 13.7 C 0 km/h
816 19-09-2008 20:01:02 13.7 C 5.8 g/m*3 13.7 C 0 km/h
817 19-09-2008 20:06:02 13.5 C 5.5 g/m*3 13.5 C 0 km/h
818 19-09-2008 20:11:02 13.4 C 5.46 g/m*3 13.4 C 0 km/h
819 19-09-2008 20:16:02 13.4 C 5.58 g/m*3 13.4 C 0 km/h
820 19-09-2008 20:21:02 13.3 C 5.55 g/m*3 13.3 C 0 km/h
821 19-09-2008 20:26:02 13.2 C 5.51 g/m*3 13.2 C 0 km/h
822 19-09-2008 20:31:02 13.1 C 5.59 g/m*3 13.1 C 0 km/h
823 19-09-2008 20:36:02 13 C 5.56 g/m*3 13 C 0 km/h
824 19-09-2008 20:41:02 12.9 C 5.75 g/m*3 12.9 C 0 km/h
825 19-09-2008 20:46:02 12.7 C 5.57 g/m*3 12.7 C 0 km/h
Sensor: Nr:Datum:Temp:Abs-Feuchte:Windchill:Wind:
Aussen-T/F 826 19-09-2008 20:51:02 12.5 C 5.5 g/m*3 12.5 C 0 km/h
827 19-09-2008 20:56:02 12.3 C 5.32 g/m*3 12.3 C 0 km/h
828 19-09-2008 21:01:01 12.2 C 5.4 g/m*3 12.2 C 0 km/h
829 19-09-2008 21:06:01 11.9 C 5.4 g/m*3 11.9 C 0 km/h
830 19-09-2008 21:11:01 11.9 C 5.51 g/m*3 11.9 C 0 km/h
831 19-09-2008 21:16:02 11.7 C 5.44 g/m*3 11.7 C 0 km/h
832 19-09-2008 21:21:02 11.5 C 5.47 g/m*3 11.5 C 0 km/h
833 19-09-2008 21:26:02 11.5 C 5.58 g/m*3 11.5 C 0 km/h
834 19-09-2008 21:31:01 11.4 C 5.54 g/m*3 11.4 C 0 km/h
835 19-09-2008 21:36:01 11.3 C 5.71 g/m*3 11.3 C 0 km/h
836 19-09-2008 21:41:01 11.2 C 5.68 g/m*3 11.2 C 0 km/h
837 19-09-2008 21:46:01 11.1 C 5.64 g/m*3 11.1 C 0 km/h
838 19-09-2008 21:51:01 11 C 5.71 g/m*3 11 C 0 km/h
839 19-09-2008 21:56:01 10.9 C 5.77 g/m*3 10.9 C 0 km/h
840 19-09-2008 22:01:02 10.8 C 5.93 g/m*3 10.8 C 0 km/h
841 19-09-2008 22:06:02 10.7 C 5.89 g/m*3 10.7 C 0 km/h
842 19-09-2008 22:11:02 10.6 C 5.95 g/m*3 10.6 C 0 km/h
843 19-09-2008 22:16:01 10.5 C 6.01 g/m*3 10.5 C 0 km/h
844 19-09-2008 22:21:01 10.4 C 6.07 g/m*3 10.4 C 0 km/h
845 19-09-2008 22:26:01 10.3 C 6.13 g/m*3 10.3 C 0 km/h
846 19-09-2008 22:31:02 10.2 C 6.09 g/m*3 10.2 C 0 km/h
847 19-09-2008 22:36:02 10.1 C 6.05 g/m*3 10.1 C 0 km/h
848 19-09-2008 22:41:02 10 C 6.01 g/m*3 10 C 0 km/h
849 19-09-2008 22:46:02 10 C 6.11 g/m*3 10 C 0 km/h
850 19-09-2008 22:51:02 9.8 C 6.12 g/m*3 9.8 C 0 km/h
Sensor: Nr:Datum:Temp:Abs-Feuchte:Windchill:Wind:
Aussen-T/F 851 19-09-2008 22:56:02 9.6 C 6.05 g/m*3 9.6 C 0 km/h
852 19-09-2008 23:02:02 9.5 C 6.1 g/m*3 9.5 C 0 km/h
853 19-09-2008 23:07:02 9.4 C 6.06 g/m*3 9.4 C 0 km/h
854 19-09-2008 23:12:02 9.3 C 6.11 g/m*3 9.3 C 0 km/h
855 19-09-2008 23:17:02 9.3 C 6.11 g/m*3 9.3 C 0 km/h
856 19-09-2008 23:22:02 9.2 C 6.07 g/m*3 9.2 C 0 km/h
857 19-09-2008 23:27:02 9.1 C 6.12 g/m*3 9.1 C 0 km/h
858 19-09-2008 23:32:02 9.1 C 6.12 g/m*3 9.1 C 0 km/h
859 19-09-2008 23:37:02 9.1 C 6.12 g/m*3 9.1 C 0 km/h
860 19-09-2008 23:42:02 9 C 6.08 g/m*3 9 C 0 km/h
861 19-09-2008 23:47:02 9 C 6.17 g/m*3 9 C 0 km/h
862 19-09-2008 23:52:02 8.9 C 6.22 g/m*3 8.9 C 0 km/h
863 19-09-2008 23:57:02 8.8 C 6.27 g/m*3 8.8 C 0 km/h
864 20-09-2008 00:02:02 8.7 C 6.31 g/m*3 8.7 C 0 km/h
865 20-09-2008 00:07:02 8.6 C 6.27 g/m*3 8.6 C 0 km/h
866 20-09-2008 00:12:02 8.6 C 6.27 g/m*3 8.6 C 0 km/h
867 20-09-2008 00:17:03 8.5 C 6.32 g/m*3 8.5 C 0 km/h
868 20-09-2008 00:22:03 8.3 C 6.32 g/m*3 8.3 C 0 km/h
869 20-09-2008 00:27:03 8.2 C 6.28 g/m*3 8.2 C 0 km/h
870 20-09-2008 00:32:03 8.2 C 6.28 g/m*3 8.2 C 0 km/h
871 20-09-2008 00:37:03 8 C 6.28 g/m*3 8 C 0 km/h
872 20-09-2008 00:42:03 8 C 6.37 g/m*3 8 C 0 km/h
873 20-09-2008 00:47:03 7.9 C 6.41 g/m*3 7.9 C 0 km/h
874 20-09-2008 00:52:03 7.9 C 6.41 g/m*3 7.9 C 0 km/h
875 20-09-2008 00:57:03 7.9 C 6.49 g/m*3 7.9 C 0 km/h
Sensor: Nr:Datum:Temp:Abs-Feuchte:Windchill:Wind:
Aussen-T/F 876 20-09-2008 01:02:03 7.9 C 6.49 g/m*3 7.9 C 0 km/h
877 20-09-2008 01:07:03 7.8 C 6.45 g/m*3 7.8 C 0 km/h
878 20-09-2008 01:12:03 7.7 C 6.41 g/m*3 7.7 C 0 km/h
879 20-09-2008 01:17:03 7.7 C 6.32 g/m*3 7.7 C 0 km/h
880 20-09-2008 01:22:03 7.7 C 6.32 g/m*3 7.7 C 0 km/h
881 20-09-2008 01:27:03 7.6 C 6.28 g/m*3 7.6 C 0 km/h
882 20-09-2008 01:32:03 7.6 C 6.28 g/m*3 7.6 C 0 km/h
883 20-09-2008 01:37:03 7.5 C 6.24 g/m*3 7.5 C 0 km/h
884 20-09-2008 01:42:03 7.4 C 6.28 g/m*3 7.4 C 0 km/h
885 20-09-2008 01:47:03 7.4 C 6.28 g/m*3 7.4 C 0 km/h
886 20-09-2008 01:52:03 7.4 C 6.28 g/m*3 7.4 C 0 km/h
887 20-09-2008 01:57:04 7.4 C 6.28 g/m*3 7.4 C 0 km/h
888 20-09-2008 02:02:04 7.4 C 6.36 g/m*3 7.4 C 0 km/h
889 20-09-2008 02:07:04 7.3 C 6.32 g/m*3 7.3 C 0 km/h
890 20-09-2008 02:12:04 7.2 C 6.36 g/m*3 7.2 C 0 km/h
891 20-09-2008 02:17:04 7.1 C 6.32 g/m*3 7.1 C 0 km/h
892 20-09-2008 02:22:04 7.1 C 6.32 g/m*3 7.1 C 0 km/h
893 20-09-2008 02:27:04 7 C 6.28 g/m*3 7 C 0 km/h
894 20-09-2008 02:32:04 7 C 6.28 g/m*3 7 C 0 km/h
895 20-09-2008 02:37:04 6.9 C 6.31 g/m*3 6.9 C 0 km/h
896 20-09-2008 02:42:04 6.9 C 6.39 g/m*3 6.9 C 0 km/h
897 20-09-2008 02:47:04 6.8 C 6.35 g/m*3 6.8 C 0 km/h
898 20-09-2008 02:52:04 6.8 C 6.35 g/m*3 6.8 C 0 km/h
899 20-09-2008 02:57:04 6.7 C 6.38 g/m*3 6.7 C 0 km/h
900 20-09-2008 03:02:04 6.7 C 6.38 g/m*3 6.7 C 0 km/h
Sensor: Nr:Datum:Temp:Abs-Feuchte:Windchill:Wind:
Aussen-T/F 901 20-09-2008 03:07:04 6.5 C 6.3 g/m*3 6.5 C 0 km/h
902 20-09-2008 03:12:04 6.5 C 6.3 g/m*3 6.5 C 0 km/h
903 20-09-2008 03:17:04 6.4 C 6.26 g/m*3 6.4 C 0 km/h
904 20-09-2008 03:22:04 6.4 C 6.26 g/m*3 6.4 C 0 km/h
905 20-09-2008 03:27:04 6.4 C 6.26 g/m*3 6.4 C 0 km/h
906 20-09-2008 03:32:04 6.3 C 6.22 g/m*3 6.3 C 0 km/h
907 20-09-2008 03:37:04 6.3 C 6.22 g/m*3 6.3 C 0 km/h
908 20-09-2008 03:42:05 6.3 C 6.22 g/m*3 6.3 C 0 km/h
909 20-09-2008 03:47:05 6.3 C 6.22 g/m*3 6.3 C 0 km/h
910 20-09-2008 03:52:05 6.3 C 6.29 g/m*3 6.3 C 0 km/h
911 20-09-2008 03:57:05 6.3 C 6.29 g/m*3 6.3 C 0 km/h
912 20-09-2008 04:02:05 6.3 C 6.29 g/m*3 6.3 C 0 km/h
913 20-09-2008 04:07:05 6.3 C 6.29 g/m*3 6.3 C 0 km/h
914 20-09-2008 04:12:05 6.3 C 6.22 g/m*3 6.3 C 0 km/h
915 20-09-2008 04:17:05 6.2 C 6.18 g/m*3 6.2 C 0 km/h
916 20-09-2008 04:22:05 6.2 C 6.18 g/m*3 6.2 C 0 km/h
917 20-09-2008 04:27:05 6.1 C 6.14 g/m*3 6.1 C 0 km/h
918 20-09-2008 04:32:05 5.9 C 6.13 g/m*3 5.9 C 0 km/h
919 20-09-2008 04:37:05 5.9 C 6.13 g/m*3 5.9 C 0 km/h
920 20-09-2008 04:42:05 5.8 C 6.16 g/m*3 5.8 C 0 km/h
921 20-09-2008 04:47:05 5.8 C 6.16 g/m*3 5.8 C 0 km/h
922 20-09-2008 04:52:05 5.8 C 6.16 g/m*3 5.8 C 0 km/h
923 20-09-2008 04:57:05 5.7 C 6.12 g/m*3 5.7 C 0 km/h
924 20-09-2008 05:02:05 5.7 C 6.19 g/m*3 5.7 C 0 km/h
925 20-09-2008 05:07:05 5.7 C 6.26 g/m*3 5.7 C 0 km/h
Sensor: Nr:Datum:Temp:Abs-Feuchte:Windchill:Wind:
Aussen-T/F 926 20-09-2008 05:12:05 5.6 C 6.22 g/m*3 5.6 C 0 km/h
927 20-09-2008 05:17:05 5.6 C 6.22 g/m*3 5.6 C 0 km/h
928 20-09-2008 05:22:06 5.5 C 6.18 g/m*3 5.5 C 0 km/h
929 20-09-2008 05:27:06 5.5 C 6.18 g/m*3 5.5 C 0 km/h
930 20-09-2008 05:32:06 5.5 C 6.18 g/m*3 5.5 C 0 km/h
931 20-09-2008 05:37:06 5.4 C 6.14 g/m*3 5.4 C 0 km/h
932 20-09-2008 05:42:06 5.4 C 6.14 g/m*3 5.4 C 0 km/h
933 20-09-2008 05:47:06 5.3 C 6.1 g/m*3 5.3 C 0 km/h
934 20-09-2008 05:52:06 5.3 C 6.1 g/m*3 5.3 C 0 km/h
935 20-09-2008 05:57:06 5.2 C 6.06 g/m*3 5.2 C 0 km/h
936 20-09-2008 06:02:06 5.2 C 6.06 g/m*3 5.2 C 0 km/h
937 20-09-2008 06:07:06 5.1 C 6.02 g/m*3 5.1 C 0 km/h
938 20-09-2008 06:12:06 5.1 C 6.02 g/m*3 5.1 C 0 km/h
939 20-09-2008 06:17:06 5.1 C 6.02 g/m*3 5.1 C 0 km/h
940 20-09-2008 06:22:06 5 C 5.98 g/m*3 5 C 0 km/h
941 20-09-2008 06:27:06 5.1 C 6.02 g/m*3 5.1 C 0 km/h
942 20-09-2008 06:32:06 5.1 C 6.02 g/m*3 5.1 C 0 km/h
943 20-09-2008 06:37:06 4.9 C 6.01 g/m*3 4.9 C 0 km/h
944 20-09-2008 06:42:06 4.8 C 5.97 g/m*3 4.8 C 0 km/h
945 20-09-2008 06:47:06 4.8 C 5.97 g/m*3 4.8 C 0 km/h
946 20-09-2008 06:52:06 4.8 C 5.97 g/m*3 4.8 C 0 km/h
947 20-09-2008 06:57:06 4.6 C 5.89 g/m*3 4.6 C 0 km/h
948 20-09-2008 07:02:06 4.6 C 5.89 g/m*3 4.6 C 0 km/h
949 20-09-2008 07:07:07 4.5 C 5.85 g/m*3 4.5 C 0 km/h
950 20-09-2008 07:12:07 4.6 C 5.89 g/m*3 4.6 C 0 km/h
Sensor: Nr:Datum:Temp:Abs-Feuchte:Windchill:Wind:
Aussen-T/F 951 20-09-2008 07:17:07 4.5 C 5.85 g/m*3 4.5 C 0 km/h
952 20-09-2008 07:22:07 4.5 C 5.85 g/m*3 4.5 C 0 km/h
953 20-09-2008 07:27:07 4.5 C 5.85 g/m*3 4.5 C 0 km/h
954 20-09-2008 07:32:07 4.5 C 5.85 g/m*3 4.5 C 0 km/h
955 20-09-2008 07:37:07 4.5 C 5.85 g/m*3 4.5 C 0 km/h
956 20-09-2008 07:42:07 4.6 C 5.89 g/m*3 4.6 C 0 km/h
957 20-09-2008 07:47:07 4.6 C 5.96 g/m*3 4.6 C 0 km/h
958 20-09-2008 07:52:07 4.6 C 5.96 g/m*3 4.6 C 0 km/h
959 20-09-2008 07:57:07 4.6 C 5.96 g/m*3 4.6 C 0 km/h
960 20-09-2008 08:02:02 4.6 C 5.96 g/m*3 4.6 C 0 km/h
961 20-09-2008 08:07:02 4.6 C 5.96 g/m*3 4.6 C 0 km/h
962 20-09-2008 08:12:02 4.7 C 6 g/m*3 4.7 C 0 km/h
963 20-09-2008 08:17:02 4.7 C 6 g/m*3 4.7 C 0 km/h
964 20-09-2008 08:22:02 4.7 C 6 g/m*3 4.7 C 0 km/h
965 20-09-2008 08:27:02 4.7 C 6 g/m*3 4.7 C 0 km/h
966 20-09-2008 08:32:02 4.8 C 6.04 g/m*3 4.8 C 0 km/h
967 20-09-2008 08:37:02 4.8 C 6.04 g/m*3 4.8 C 0 km/h
968 20-09-2008 08:42:02 4.8 C 6.04 g/m*3 4.8 C 0 km/h
969 20-09-2008 08:47:02 4.9 C 6.08 g/m*3 4.9 C 0 km/h
970 20-09-2008 08:52:02 4.9 C 6.14 g/m*3 4.9 C 0 km/h
971 20-09-2008 08:57:02 5 C 6.12 g/m*3 5 C 0 km/h
972 20-09-2008 09:02:03 5.1 C 6.16 g/m*3 5.1 C 0 km/h
973 20-09-2008 09:07:03 5.2 C 6.2 g/m*3 5.2 C 0 km/h
974 20-09-2008 09:12:03 5.2 C 6.27 g/m*3 5.2 C 0 km/h
975 20-09-2008 09:17:02 5.3 C 6.31 g/m*3 5.3 C 0 km/h
Sensor: Nr:Datum:Temp:Abs-Feuchte:Windchill:Wind:
Aussen-T/F 976 20-09-2008 09:22:02 5.4 C 6.35 g/m*3 5.4 C 0 km/h
977 20-09-2008 09:27:03 5.4 C 6.35 g/m*3 5.4 C 0 km/h
978 20-09-2008 09:32:02 5.5 C 6.46 g/m*3 5.5 C 0 km/h
979 20-09-2008 09:37:02 5.6 C 6.5 g/m*3 5.6 C 0 km/h
980 20-09-2008 09:42:02 5.8 C 6.59 g/m*3 5.8 C 0 km/h
981 20-09-2008 09:47:03 5.9 C 6.63 g/m*3 5.9 C 0 km/h
982 20-09-2008 09:52:03 6.2 C 6.69 g/m*3 6.2 C 0 km/h
983 20-09-2008 09:57:03 6.5 C 6.9 g/m*3 6.5 C 0 km/h
984 20-09-2008 10:02:02 6.8 C 7.04 g/m*3 6.8 C 0 km/h
985 20-09-2008 10:07:02 6.9 C 7.08 g/m*3 6.9 C 0 km/h
986 20-09-2008 10:12:02 7.3 C 7.27 g/m*3 7.3 C 0 km/h
987 20-09-2008 10:17:02 7.6 C 7.41 g/m*3 7.6 C 0 km/h
988 20-09-2008 10:22:02 7.9 C 7.56 g/m*3 7.9 C 0 km/h
989 20-09-2008 10:27:02 8.3 C 7.67 g/m*3 8.3 C 0 km/h
990 20-09-2008 10:32:02 8.7 C 7.7 g/m*3 8.7 C 0 km/h
991 20-09-2008 10:37:03 8.8 C 7.66 g/m*3 8.8 C 0 km/h
992 20-09-2008 10:42:03 9 C 7.49 g/m*3 9 C 0 km/h
993 20-09-2008 10:47:02 9 C 7.23 g/m*3 9 C 0 km/h
994 20-09-2008 10:52:02 9.2 C 7.23 g/m*3 9.2 C 0 km/h
995 20-09-2008 10:57:02 9.3 C 7.19 g/m*3 9.3 C 0 km/h
996 20-09-2008 11:02:02 9.8 C 7.33 g/m*3 9.8 C 0 km/h
997 20-09-2008 11:07:02 10 C 7.14 g/m*3 10 C 0 km/h
998 20-09-2008 11:12:02 10 C 7.14 g/m*3 10 C 0 km/h
999 20-09-2008 11:17:02 10.5 C 7.18 g/m*3 10.5 C 0 km/h
1000 20-09-2008 11:22:02 11 C 7.21 g/m*3 11 C 0 km/h
Sensor: Nr:Datum:Temp:Abs-Feuchte:Windchill:Wind:
Aussen-T/F 1001 20-09-2008 11:27:03 11.2 C 7.3 g/m*3 11.2 C 0 km/h
1002 20-09-2008 11:32:01 11.5 C 7.33 g/m*3 11.5 C 0 km/h
1003 20-09-2008 11:37:01 12.8 C 7.84 g/m*3 12.8 C 0 km/h
1004 20-09-2008 11:42:01 12.5 C 7.59 g/m*3 12.5 C 0 km/h
1005 20-09-2008 11:47:02 13.1 C 7.53 g/m*3 13.1 C 0 km/h
1006 20-09-2008 11:52:02 13.5 C 7.37 g/m*3 13.5 C 0 km/h
1007 20-09-2008 11:57:02 14 C 7.12 g/m*3 14 C 0 km/h
1008 20-09-2008 12:02:02 14.2 C 7.08 g/m*3 14.2 C 0 km/h
1009 20-09-2008 12:07:02 14.6 C 7.01 g/m*3 14.6 C 0 km/h
1010 20-09-2008 12:12:02 14.8 C 6.84 g/m*3 14.8 C 0 km/h
1011 20-09-2008 12:17:01 14.9 C 6.75 g/m*3 14.9 C 0 km/h
1012 20-09-2008 12:22:01 14.8 C 6.59 g/m*3 14.8 C 0 km/h
1013 20-09-2008 12:27:01 15.1 C 6.58 g/m*3 15.1 C 0 km/h
1014 20-09-2008 12:32:02 15.2 C 6.62 g/m*3 15.2 C 0 km/h
1015 20-09-2008 12:37:03 15.4 C 6.7 g/m*3 15.4 C 0 km/h
1016 20-09-2008 12:42:03 15.6 C 6.65 g/m*3 15.6 C 0 km/h
1017 20-09-2008 12:47:02 15.8 C 6.73 g/m*3 15.8 C 0 km/h
1018 20-09-2008 12:52:02 16 C 6.13 g/m*3 16 C 0 km/h
1019 20-09-2008 12:57:02 16.1 C 5.76 g/m*3 16.1 C 0 km/h
1020 20-09-2008 13:02:03 16.5 C 6.04 g/m*3 16.5 C 0 km/h
1021 20-09-2008 13:07:03 16.7 C 5.83 g/m*3 16.7 C 0 km/h
1022 20-09-2008 13:12:03 17 C 5.21 g/m*3 17 C 0 km/h
1023 20-09-2008 13:17:02 17.4 C 4.89 g/m*3 17.4 C 0 km/h
1024 20-09-2008 13:22:02 17.6 C 4.95 g/m*3 17.6 C 0 km/h
1025 20-09-2008 13:27:03 17.9 C 4.73 g/m*3 17.9 C 0 km/h
Sensor: Nr:Datum:Temp:Abs-Feuchte:Windchill:Wind:
Aussen-T/F 1026 20-09-2008 13:32:02 18 C 4.45 g/m*3 18 C 0 km/h
1027 20-09-2008 13:37:02 18 C 4.61 g/m*3 18 C 0 km/h
1028 20-09-2008 13:42:02 17.7 C 4.53 g/m*3 17.7 C 0 km/h
1029 20-09-2008 13:47:02 17.6 C 4.5 g/m*3 17.6 C 0 km/h
1030 20-09-2008 13:52:02 17.6 C 4.2 g/m*3 17.6 C 0 km/h
1031 20-09-2008 13:57:02 17.7 C 4.38 g/m*3 17.7 C 0 km/h
1032 20-09-2008 14:02:02 17.9 C 4.43 g/m*3 17.9 C 0 km/h
1033 20-09-2008 14:07:02 18.3 C 4.38 g/m*3 18.3 C 0 km/h
1034 20-09-2008 14:12:02 18.1 C 4.17 g/m*3 18.1 C 0 km/h
1035 20-09-2008 14:17:02 17.9 C 4.28 g/m*3 17.9 C 0 km/h
1036 20-09-2008 14:22:02 17.5 C 4.47 g/m*3 17.5 C 0 km/h
1037 20-09-2008 14:27:03 17.2 C 4.39 g/m*3 17.2 C 0 km/h
1038 20-09-2008 14:32:02 17 C 4.49 g/m*3 17 C 0 km/h
1039 20-09-2008 14:37:02 17 C 4.49 g/m*3 17 C 0 km/h
1040 20-09-2008 14:42:02 17 C 4.49 g/m*3 17 C 0 km/h
1041 20-09-2008 14:47:02 17.5 C 4.62 g/m*3 17.5 C 0 km/h
1042 20-09-2008 14:52:02 17.4 C 4.59 g/m*3 17.4 C 0 km/h
1043 20-09-2008 14:57:02 17.3 C 4.57 g/m*3 17.3 C 0 km/h
1044 20-09-2008 15:02:03 17.3 C 4.57 g/m*3 17.3 C 0 km/h
1045 20-09-2008 15:07:03 17.5 C 4.32 g/m*3 17.5 C 0 km/h
1046 20-09-2008 15:12:03 17.7 C 4.53 g/m*3 17.7 C 0 km/h
1047 20-09-2008 15:17:03 17.8 C 4.55 g/m*3 17.8 C 0 km/h
1048 20-09-2008 15:22:03 18.1 C 4.33 g/m*3 18.1 C 0 km/h
1049 20-09-2008 15:27:03 18.8 C 4.35 g/m*3 18.8 C 0 km/h
1050 20-09-2008 15:32:02 18.7 C 4.32 g/m*3 18.7 C 0 km/h
Sensor: Nr:Datum:Temp:Abs-Feuchte:Windchill:Wind:
Aussen-T/F 1051 20-09-2008 15:37:02 18.1 C 4.02 g/m*3 18.1 C 0 km/h
1052 20-09-2008 15:42:02 18 C 3.99 g/m*3 18 C 0 km/h
1053 20-09-2008 15:47:02 18.2 C 4.04 g/m*3 18.2 C 0 km/h
1054 20-09-2008 15:52:03 18.1 C 4.17 g/m*3 18.1 C 0 km/h
1055 20-09-2008 15:57:03 17.9 C 4.43 g/m*3 17.9 C 0 km/h
1056 20-09-2008 16:02:01 17.7 C 4.22 g/m*3 17.7 C 0 km/h
1057 20-09-2008 16:07:01 17.6 C 4.2 g/m*3 17.6 C 0 km/h
1058 20-09-2008 16:12:01 17 C 4.34 g/m*3 17 C 0 km/h
1059 20-09-2008 16:17:02 17.3 C 4.57 g/m*3 17.3 C 0 km/h
1060 20-09-2008 16:22:02 17.8 C 4.71 g/m*3 17.8 C 0 km/h
1061 20-09-2008 16:27:02 18.8 C 4.67 g/m*3 18.8 C 0 km/h
1062 20-09-2008 16:32:01 19.3 C 4.31 g/m*3 19.3 C 0 km/h
1063 20-09-2008 16:37:01 19.2 C 4.45 g/m*3 19.2 C 0 km/h
1064 20-09-2008 16:42:01 19 C 4.56 g/m*3 19 C 0 km/h
1065 20-09-2008 16:47:02 18.5 C 4.59 g/m*3 18.5 C 0 km/h
1066 20-09-2008 16:52:02 17.9 C 4.58 g/m*3 17.9 C 0 km/h
1067 20-09-2008 16:57:02 17.6 C 4.5 g/m*3 17.6 C 0 km/h
1068 20-09-2008 17:02:02 17.2 C 4.69 g/m*3 17.2 C 0 km/h
1069 20-09-2008 17:07:02 17.1 C 4.66 g/m*3 17.1 C 0 km/h
1070 20-09-2008 17:12:02 17.3 C 4.71 g/m*3 17.3 C 0 km/h
1071 20-09-2008 17:17:02 18.1 C 4.79 g/m*3 18.1 C 0 km/h
1072 20-09-2008 17:22:02 18.7 C 4.96 g/m*3 18.7 C 0 km/h
1073 20-09-2008 17:27:03 19.1 C 4.75 g/m*3 19.1 C 0 km/h
1074 20-09-2008 17:32:01 19.6 C 4.39 g/m*3 19.6 C 0 km/h
1075 20-09-2008 17:37:01 19.8 C 4.61 g/m*3 19.8 C 0 km/h
Sensor: Nr:Datum:Temp:Abs-Feuchte:Windchill:Wind:
Aussen-T/F 1076 20-09-2008 17:42:01 19.8 C 4.44 g/m*3 19.8 C 0 km/h
1077 20-09-2008 17:47:01 19.2 C 4.45 g/m*3 19.2 C 0 km/h
1078 20-09-2008 17:52:01 18.9 C 4.37 g/m*3 18.9 C 0 km/h
1079 20-09-2008 17:57:01 19.1 C 4.43 g/m*3 19.1 C 0 km/h
1080 20-09-2008 18:02:02 19 C 4.4 g/m*3 19 C 0 km/h
1081 20-09-2008 18:07:02 19 C 4.56 g/m*3 19 C 0 km/h
1082 20-09-2008 18:12:02 18.9 C 4.54 g/m*3 18.9 C 0 km/h
1083 20-09-2008 18:17:02 18.9 C 4.37 g/m*3 18.9 C 0 km/h
1084 20-09-2008 18:22:02 18.8 C 4.99 g/m*3 18.8 C 0 km/h
1085 20-09-2008 18:27:02 18.7 C 4.8 g/m*3 18.7 C 0 km/h
1086 20-09-2008 18:32:02 18.6 C 4.62 g/m*3 18.6 C 0 km/h
1087 20-09-2008 18:37:02 18.4 C 4.56 g/m*3 18.4 C 0 km/h
1088 20-09-2008 18:42:02 18.3 C 5 g/m*3 18.3 C 0 km/h
1089 20-09-2008 18:47:02 18.1 C 4.79 g/m*3 18.1 C 0 km/h
1090 20-09-2008 18:52:02 17.9 C 4.89 g/m*3 17.9 C 0 km/h
1091 20-09-2008 18:57:02 17.4 C 5.04 g/m*3 17.4 C 0 km/h
1092 20-09-2008 19:02:01 17 C 5.06 g/m*3 17 C 0 km/h
1093 20-09-2008 19:07:01 16.6 C 4.94 g/m*3 16.6 C 0 km/h
1094 20-09-2008 19:12:01 16.1 C 4.8 g/m*3 16.1 C 0 km/h
1095 20-09-2008 19:17:02 15.4 C 4.86 g/m*3 15.4 C 0 km/h
1096 20-09-2008 19:22:02 15 C 5 g/m*3 15 C 0 km/h
1097 20-09-2008 19:27:02 14.7 C 5.04 g/m*3 14.7 C 0 km/h
1098 20-09-2008 19:32:01 14 C 4.95 g/m*3 14 C 0 km/h
1099 20-09-2008 19:37:01 13.7 C 4.97 g/m*3 13.7 C 0 km/h
1100 20-09-2008 19:42:01 13.5 C 5.03 g/m*3 13.5 C 0 km/h
Sensor: Nr:Datum:Temp:Abs-Feuchte:Windchill:Wind:
Aussen-T/F 1101 20-09-2008 19:47:01 13.2 C 5.05 g/m*3 13.2 C 0 km/h
1102 20-09-2008 19:52:01 13.1 C 5.14 g/m*3 13.1 C 0 km/h
1103 20-09-2008 19:57:01 13.1 C 5.25 g/m*3 13.1 C 0 km/h
1104 20-09-2008 20:02:02 13.1 C 5.25 g/m*3 13.1 C 0 km/h
1105 20-09-2008 20:07:02 13 C 4.99 g/m*3 13 C 0 km/h
1106 20-09-2008 20:12:02 13 C 4.99 g/m*3 13 C 0 km/h
1107 20-09-2008 20:17:01 13 C 5.22 g/m*3 13 C 0 km/h
1108 20-09-2008 20:22:01 12.7 C 5.34 g/m*3 12.7 C 0 km/h
1109 20-09-2008 20:27:01 12.6 C 5.42 g/m*3 12.6 C 0 km/h
1110 20-09-2008 20:32:02 12.5 C 5.39 g/m*3 12.5 C 0 km/h
1111 20-09-2008 20:37:02 12.5 C 5.5 g/m*3 12.5 C 0 km/h
1112 20-09-2008 20:42:02 12.2 C 5.29 g/m*3 12.2 C 0 km/h
1113 20-09-2008 20:47:03 12.1 C 5.25 g/m*3 12.1 C 0 km/h
1114 20-09-2008 20:52:03 11.9 C 5.4 g/m*3 11.9 C 0 km/h
1115 20-09-2008 20:57:03 11.7 C 5.33 g/m*3 11.7 C 0 km/h
1116 20-09-2008 21:02:02 11.7 C 5.33 g/m*3 11.7 C 0 km/h
1117 20-09-2008 21:07:02 11.6 C 5.4 g/m*3 11.6 C 0 km/h
1118 20-09-2008 21:12:02 11.5 C 5.37 g/m*3 11.5 C 0 km/h
1119 20-09-2008 21:17:03 11.3 C 5.3 g/m*3 11.3 C 0 km/h
1120 20-09-2008 21:22:03 11.2 C 5.27 g/m*3 11.2 C 0 km/h
1121 20-09-2008 21:27:03 11.1 C 5.34 g/m*3 11.1 C 0 km/h
1122 20-09-2008 21:32:02 11 C 5.31 g/m*3 11 C 0 km/h
1123 20-09-2008 21:37:02 11 C 5.41 g/m*3 11 C 0 km/h
1124 20-09-2008 21:42:02 10.8 C 5.44 g/m*3 10.8 C 0 km/h
1125 20-09-2008 21:47:01 10.8 C 5.44 g/m*3 10.8 C 0 km/h
Sensor: Nr:Datum:Temp:Abs-Feuchte:Windchill:Wind:
Aussen-T/F 1126 20-09-2008 21:52:01 10.8 C 5.54 g/m*3 10.8 C 0 km/h
1127 20-09-2008 21:57:01 10.7 C 5.5 g/m*3 10.7 C 0 km/h
1128 20-09-2008 22:03:02 10.8 C 5.73 g/m*3 10.8 C 0 km/h
1129 20-09-2008 22:08:02 10.8 C 5.73 g/m*3 10.8 C 0 km/h
1130 20-09-2008 22:13:02 10.7 C 5.7 g/m*3 10.7 C 0 km/h
1131 20-09-2008 22:18:02 10.8 C 5.73 g/m*3 10.8 C 0 km/h
1132 20-09-2008 22:23:02 10.9 C 5.67 g/m*3 10.9 C 0 km/h
1133 20-09-2008 22:28:02 11 C 5.61 g/m*3 11 C 0 km/h
1134 20-09-2008 22:33:02 11 C 5.61 g/m*3 11 C 0 km/h
1135 20-09-2008 22:38:02 11 C 5.71 g/m*3 11 C 0 km/h
1136 20-09-2008 22:43:02 11 C 5.71 g/m*3 11 C 0 km/h
1137 20-09-2008 22:48:02 11 C 5.81 g/m*3 11 C 0 km/h
1138 20-09-2008 22:53:02 11 C 5.81 g/m*3 11 C 0 km/h
1139 20-09-2008 22:58:03 11.1 C 5.94 g/m*3 11.1 C 0 km/h
1140 20-09-2008 23:03:03 11.1 C 5.84 g/m*3 11.1 C 0 km/h
1141 20-09-2008 23:08:03 11 C 5.91 g/m*3 11 C 0 km/h
1142 20-09-2008 23:13:03 11 C 5.91 g/m*3 11 C 0 km/h
1143 20-09-2008 23:18:03 11 C 6.01 g/m*3 11 C 0 km/h
1144 20-09-2008 23:23:03 11 C 6.01 g/m*3 11 C 0 km/h
1145 20-09-2008 23:28:03 11 C 6.01 g/m*3 11 C 0 km/h
1146 20-09-2008 23:33:03 10.9 C 6.07 g/m*3 10.9 C 0 km/h
1147 20-09-2008 23:38:03 10.9 C 6.07 g/m*3 10.9 C 0 km/h
1148 20-09-2008 23:43:03 10.9 C 6.17 g/m*3 10.9 C 0 km/h
1149 20-09-2008 23:48:03 10.9 C 6.17 g/m*3 10.9 C 0 km/h
1150 20-09-2008 23:53:03 10.8 C 6.13 g/m*3 10.8 C 0 km/h
Sensor: Nr:Datum:Temp:Abs-Feuchte:Windchill:Wind:
Aussen-T/F 1151 20-09-2008 23:58:03 10.7 C 6.09 g/m*3 10.7 C 0 km/h
1152 21-09-2008 00:03:03 10.7 C 6.09 g/m*3 10.7 C 0 km/h
1153 21-09-2008 00:08:03 10.6 C 6.05 g/m*3 10.6 C 0 km/h
1154 21-09-2008 00:13:03 10.5 C 6.11 g/m*3 10.5 C 0 km/h
1155 21-09-2008 00:18:03 10.5 C 6.21 g/m*3 10.5 C 0 km/h
1156 21-09-2008 00:23:03 10.3 C 6.13 g/m*3 10.3 C 0 km/h
1157 21-09-2008 00:28:03 10.2 C 6.19 g/m*3 10.2 C 0 km/h
1158 21-09-2008 00:33:04 10.1 C 6.15 g/m*3 10.1 C 0 km/h
1159 21-09-2008 00:38:04 9.9 C 6.16 g/m*3 9.9 C 0 km/h
1160 21-09-2008 00:43:04 9.8 C 6.12 g/m*3 9.8 C 0 km/h
1161 21-09-2008 00:48:04 9.8 C 6.22 g/m*3 9.8 C 0 km/h
1162 21-09-2008 00:53:04 9.8 C 6.22 g/m*3 9.8 C 0 km/h
1163 21-09-2008 00:58:04 9.6 C 6.14 g/m*3 9.6 C 0 km/h
1164 21-09-2008 01:03:04 9.8 C 6.22 g/m*3 9.8 C 0 km/h
1165 21-09-2008 01:08:04 9.8 C 6.22 g/m*3 9.8 C 0 km/h
1166 21-09-2008 01:13:04 9.7 C 6.18 g/m*3 9.7 C 0 km/h
1167 21-09-2008 01:18:04 9.7 C 6.18 g/m*3 9.7 C 0 km/h
1168 21-09-2008 01:23:04 9.7 C 6.18 g/m*3 9.7 C 0 km/h
1169 21-09-2008 01:28:04 9.8 C 6.22 g/m*3 9.8 C 0 km/h
1170 21-09-2008 01:33:04 9.7 C 6.27 g/m*3 9.7 C 0 km/h
1171 21-09-2008 01:38:04 9.8 C 6.31 g/m*3 9.8 C 0 km/h
1172 21-09-2008 01:43:04 9.8 C 6.31 g/m*3 9.8 C 0 km/h
1173 21-09-2008 01:48:04 9.6 C 6.32 g/m*3 9.6 C 0 km/h
1174 21-09-2008 01:53:04 9.5 C 6.37 g/m*3 9.5 C 0 km/h
1175 21-09-2008 01:58:04 9.4 C 6.33 g/m*3 9.4 C 0 km/h
Sensor: Nr:Datum:Temp:Abs-Feuchte:Windchill:Wind:
Aussen-T/F 1176 21-09-2008 02:03:04 9.2 C 6.34 g/m*3 9.2 C 0 km/h
1177 21-09-2008 02:08:04 9.1 C 6.3 g/m*3 9.1 C 0 km/h
1178 21-09-2008 02:13:04 8.9 C 6.39 g/m*3 8.9 C 0 km/h
1179 21-09-2008 02:18:05 8.7 C 6.31 g/m*3 8.7 C 0 km/h
1180 21-09-2008 02:23:05 8.6 C 6.27 g/m*3 8.6 C 0 km/h
1181 21-09-2008 02:28:05 8.6 C 6.27 g/m*3 8.6 C 0 km/h
1182 21-09-2008 02:33:05 8.5 C 6.32 g/m*3 8.5 C 0 km/h
1183 21-09-2008 02:38:05 8.4 C 6.28 g/m*3 8.4 C 0 km/h
1184 21-09-2008 02:43:05 8.4 C 6.28 g/m*3 8.4 C 0 km/h
1185 21-09-2008 02:48:05 8.4 C 6.36 g/m*3 8.4 C 0 km/h
1186 21-09-2008 02:53:05 8.2 C 6.28 g/m*3 8.2 C 0 km/h
1187 21-09-2008 02:58:05 8.1 C 6.24 g/m*3 8.1 C 0 km/h
1188 21-09-2008 03:03:05 8.1 C 6.24 g/m*3 8.1 C 0 km/h
1189 21-09-2008 03:08:05 8 C 6.2 g/m*3 8 C 0 km/h
1190 21-09-2008 03:13:05 7.9 C 6.24 g/m*3 7.9 C 0 km/h
1191 21-09-2008 03:18:05 7.9 C 6.24 g/m*3 7.9 C 0 km/h
1192 21-09-2008 03:23:05 7.9 C 6.24 g/m*3 7.9 C 0 km/h
1193 21-09-2008 03:28:05 7.9 C 6.32 g/m*3 7.9 C 0 km/h
1194 21-09-2008 03:33:05 7.9 C 6.41 g/m*3 7.9 C 0 km/h
1195 21-09-2008 03:38:05 7.9 C 6.41 g/m*3 7.9 C 0 km/h
1196 21-09-2008 03:43:05 7.8 C 6.37 g/m*3 7.8 C 0 km/h
1197 21-09-2008 03:48:05 7.8 C 6.37 g/m*3 7.8 C 0 km/h
1198 21-09-2008 03:53:05 7.9 C 6.49 g/m*3 7.9 C 0 km/h
1199 21-09-2008 03:58:05 7.9 C 6.49 g/m*3 7.9 C 0 km/h
1200 21-09-2008 04:03:06 7.9 C 6.49 g/m*3 7.9 C 0 km/h
Sensor: Nr:Datum:Temp:Abs-Feuchte:Windchill:Wind:
Aussen-T/F 1201 21-09-2008 04:08:06 7.9 C 6.49 g/m*3 7.9 C 0 km/h
1202 21-09-2008 04:13:06 8 C 6.45 g/m*3 8 C 0 km/h
1203 21-09-2008 04:18:06 8 C 6.45 g/m*3 8 C 0 km/h
1204 21-09-2008 04:23:06 8 C 6.45 g/m*3 8 C 0 km/h
1205 21-09-2008 04:28:06 8 C 6.45 g/m*3 8 C 0 km/h
1206 21-09-2008 04:33:06 8 C 6.45 g/m*3 8 C 0 km/h
1207 21-09-2008 04:38:06 8 C 6.45 g/m*3 8 C 0 km/h
1208 21-09-2008 04:43:06 8 C 6.45 g/m*3 8 C 0 km/h
1209 21-09-2008 04:48:06 7.9 C 6.57 g/m*3 7.9 C 0 km/h
1210 21-09-2008 04:53:06 7.9 C 6.65 g/m*3 7.9 C 0 km/h
1211 21-09-2008 04:58:06 7.8 C 6.61 g/m*3 7.8 C 0 km/h
1212 21-09-2008 05:03:06 7.9 C 6.65 g/m*3 7.9 C 0 km/h
1213 21-09-2008 05:08:06 7.8 C 6.61 g/m*3 7.8 C 0 km/h
1214 21-09-2008 05:13:06 7.8 C 6.69 g/m*3 7.8 C 0 km/h
1215 21-09-2008 05:18:06 7.8 C 6.69 g/m*3 7.8 C 0 km/h
1216 21-09-2008 05:23:06 7.8 C 6.61 g/m*3 7.8 C 0 km/h
1217 21-09-2008 05:28:06 7.8 C 6.61 g/m*3 7.8 C 0 km/h
1218 21-09-2008 05:33:06 7.8 C 6.61 g/m*3 7.8 C 0 km/h
1219 21-09-2008 05:38:07 7.7 C 6.57 g/m*3 7.7 C 0 km/h
1220 21-09-2008 05:43:07 7.7 C 6.57 g/m*3 7.7 C 0 km/h
1221 21-09-2008 05:48:07 7.6 C 6.53 g/m*3 7.6 C 0 km/h
1222 21-09-2008 05:53:07 7.6 C 6.53 g/m*3 7.6 C 0 km/h
1223 21-09-2008 05:58:07 7.4 C 6.44 g/m*3 7.4 C 0 km/h
1224 21-09-2008 06:03:07 7.4 C 6.44 g/m*3 7.4 C 0 km/h
1225 21-09-2008 06:08:07 7.4 C 6.52 g/m*3 7.4 C 0 km/h
Sensor: Nr:Datum:Temp:Abs-Feuchte:Windchill:Wind:
Aussen-T/F 1226 21-09-2008 06:13:07 7.4 C 6.52 g/m*3 7.4 C 0 km/h
1227 21-09-2008 06:18:07 7.4 C 6.52 g/m*3 7.4 C 0 km/h
1228 21-09-2008 06:23:07 7.4 C 6.52 g/m*3 7.4 C 0 km/h
1229 21-09-2008 06:28:07 7.2 C 6.52 g/m*3 7.2 C 0 km/h
1230 21-09-2008 06:33:07 7.1 C 6.47 g/m*3 7.1 C 0 km/h
1231 21-09-2008 06:38:07 7.1 C 6.47 g/m*3 7.1 C 0 km/h
1232 21-09-2008 06:43:07 7.1 C 6.55 g/m*3 7.1 C 0 km/h
1233 21-09-2008 06:48:07 7 C 6.51 g/m*3 7 C 0 km/h
1234 21-09-2008 06:53:07 7 C 6.51 g/m*3 7 C 0 km/h
1235 21-09-2008 06:58:07 7 C 6.51 g/m*3 7 C 0 km/h
1236 21-09-2008 07:03:07 7 C 6.51 g/m*3 7 C 0 km/h
1237 21-09-2008 07:08:07 7.1 C 6.55 g/m*3 7.1 C 0 km/h
1238 21-09-2008 07:13:08 7 C 6.51 g/m*3 7 C 0 km/h
1239 21-09-2008 07:18:08 7 C 6.51 g/m*3 7 C 0 km/h
1240 21-09-2008 07:23:08 7 C 6.51 g/m*3 7 C 0 km/h
1241 21-09-2008 07:28:08 7.1 C 6.55 g/m*3 7.1 C 0 km/h
1242 21-09-2008 07:33:08 7.1 C 6.55 g/m*3 7.1 C 0 km/h
1243 21-09-2008 07:38:08 7.1 C 6.55 g/m*3 7.1 C 0 km/h
1244 21-09-2008 07:43:08 7.2 C 6.59 g/m*3 7.2 C 0 km/h
1245 21-09-2008 07:48:08 7.3 C 6.64 g/m*3 7.3 C 0 km/h
1246 21-09-2008 07:53:08 7.5 C 6.72 g/m*3 7.5 C 0 km/h
1247 21-09-2008 07:58:08 7.5 C 6.72 g/m*3 7.5 C 0 km/h
1248 21-09-2008 08:03:08 7.5 C 6.72 g/m*3 7.5 C 0 km/h
1249 21-09-2008 08:08:08 7.6 C 6.77 g/m*3 7.6 C 0 km/h
1250 21-09-2008 08:13:08 7.6 C 6.77 g/m*3 7.6 C 0 km/h
Sensor: Nr:Datum:Temp:Abs-Feuchte:Windchill:Wind:
Aussen-T/F 1251 21-09-2008 08:18:08 7.6 C 6.77 g/m*3 7.6 C 0 km/h
1252 21-09-2008 08:23:08 7.6 C 6.69 g/m*3 7.6 C 0 km/h
1253 21-09-2008 08:28:08 7.7 C 6.81 g/m*3 7.7 C 0 km/h
1254 21-09-2008 08:33:08 7.8 C 6.77 g/m*3 7.8 C 0 km/h
1255 21-09-2008 08:38:08 7.8 C 6.86 g/m*3 7.8 C 0 km/h
1256 21-09-2008 08:43:08 7.9 C 6.82 g/m*3 7.9 C 0 km/h
1257 21-09-2008 08:48:08 8 C 6.78 g/m*3 8 C 0 km/h
1258 21-09-2008 08:53:09 8.1 C 6.82 g/m*3 8.1 C 0 km/h
1259 21-09-2008 08:58:09 8.2 C 6.87 g/m*3 8.2 C 0 km/h
1260 21-09-2008 09:03:09 8.2 C 6.87 g/m*3 8.2 C 0 km/h
1261 21-09-2008 09:08:09 8.2 C 6.87 g/m*3 8.2 C 0 km/h
1262 21-09-2008 09:13:09 8.3 C 6.91 g/m*3 8.3 C 0 km/h
1263 21-09-2008 09:18:02 8.6 C 6.96 g/m*3 8.6 C 0 km/h
1264 21-09-2008 09:23:02 8.6 C 6.96 g/m*3 8.6 C 0 km/h
1265 21-09-2008 09:28:02 8.6 C 6.96 g/m*3 8.6 C 0 km/h
1266 21-09-2008 09:33:02 8.7 C 6.92 g/m*3 8.7 C 0 km/h
1267 21-09-2008 09:38:02 9 C 6.96 g/m*3 9 C 0 km/h
1268 21-09-2008 09:43:02 9.1 C 7.01 g/m*3 9.1 C 0 km/h
1269 21-09-2008 09:48:02 9.2 C 7.05 g/m*3 9.2 C 0 km/h
1270 21-09-2008 09:53:02 9.4 C 7.15 g/m*3 9.4 C 0 km/h
1271 21-09-2008 09:58:02 9.5 C 7.1 g/m*3 9.5 C 0 km/h
1272 21-09-2008 10:03:02 9.6 C 7.05 g/m*3 9.6 C 0 km/h
1273 21-09-2008 10:08:02 10 C 7.05 g/m*3 10 C 0 km/h
1274 21-09-2008 10:13:02 10.1 C 7 g/m*3 10.1 C 0 km/h
1275 21-09-2008 10:18:02 10.4 C 6.84 g/m*3 10.4 C 0 km/h
Sensor: Nr:Datum:Temp:Abs-Feuchte:Windchill:Wind:
Aussen-T/F 1276 21-09-2008 10:23:02 10.7 C 6.88 g/m*3 10.7 C 0 km/h
1277 21-09-2008 10:28:02 10.7 C 6.78 g/m*3 10.7 C 0 km/h
1278 21-09-2008 10:33:02 10.8 C 6.72 g/m*3 10.8 C 0 km/h
1279 21-09-2008 10:38:02 11 C 6.71 g/m*3 11 C 0 km/h
1280 21-09-2008 10:43:02 11.2 C 6.69 g/m*3 11.2 C 0 km/h
1281 21-09-2008 10:48:02 11.2 C 6.59 g/m*3 11.2 C 0 km/h
1282 21-09-2008 10:53:02 11.3 C 6.43 g/m*3 11.3 C 0 km/h
1283 21-09-2008 10:58:02 11.5 C 6.4 g/m*3 11.5 C 0 km/h
1284 21-09-2008 11:03:02 11.6 C 6.34 g/m*3 11.6 C 0 km/h
1285 21-09-2008 11:08:02 11.7 C 6.38 g/m*3 11.7 C 0 km/h
1286 21-09-2008 11:13:02 11.9 C 6.46 g/m*3 11.9 C 0 km/h
1287 21-09-2008 11:18:02 12 C 6.39 g/m*3 12 C 0 km/h
1288 21-09-2008 11:23:03 12.4 C 6.45 g/m*3 12.4 C 0 km/h
1289 21-09-2008 11:28:03 12.6 C 6.31 g/m*3 12.6 C 0 km/h
1290 21-09-2008 11:33:02 12.7 C 6.35 g/m*3 12.7 C 0 km/h
1291 21-09-2008 11:38:02 12.8 C 6.27 g/m*3 12.8 C 0 km/h
1292 21-09-2008 11:43:02 13 C 6.24 g/m*3 13 C 0 km/h
1293 21-09-2008 11:48:02 13.2 C 6.2 g/m*3 13.2 C 0 km/h
1294 21-09-2008 11:53:02 13.2 C 6.2 g/m*3 13.2 C 0 km/h
1295 21-09-2008 11:58:02 13.4 C 6.16 g/m*3 13.4 C 0 km/h
1296 21-09-2008 12:03:02 13.5 C 6.08 g/m*3 13.5 C 0 km/h
1297 21-09-2008 12:08:02 13.7 C 6.16 g/m*3 13.7 C 0 km/h
1298 21-09-2008 12:13:02 13.9 C 6.23 g/m*3 13.9 C 0 km/h
1299 21-09-2008 12:18:02 14 C 6.03 g/m*3 14 C 0 km/h
1300 21-09-2008 12:23:02 14.1 C 6.07 g/m*3 14.1 C 0 km/h
Sensor: Nr:Datum:Temp:Abs-Feuchte:Windchill:Wind:
Aussen-T/F 1301 21-09-2008 12:28:02 14 C 5.79 g/m*3 14 C 0 km/h
1302 21-09-2008 12:33:03 14 C 5.79 g/m*3 14 C 0 km/h
1303 21-09-2008 12:38:03 14.2 C 5.98 g/m*3 14.2 C 0 km/h
1304 21-09-2008 12:43:03 14.4 C 6.06 g/m*3 14.4 C 0 km/h
1305 21-09-2008 12:48:02 14.5 C 5.97 g/m*3 14.5 C 0 km/h
1306 21-09-2008 12:53:02 14.7 C 6.04 g/m*3 14.7 C 0 km/h
1307 21-09-2008 12:58:02 14.8 C 6.08 g/m*3 14.8 C 0 km/h
1308 21-09-2008 13:03:02 14.9 C 6.12 g/m*3 14.9 C 0 km/h
1309 21-09-2008 13:08:02 15.1 C 6.06 g/m*3 15.1 C 0 km/h
1310 21-09-2008 13:13:02 15.2 C 6.23 g/m*3 15.2 C 0 km/h
1311 21-09-2008 13:18:02 15.4 C 6.18 g/m*3 15.4 C 0 km/h
1312 21-09-2008 13:23:02 15.5 C 6.08 g/m*3 15.5 C 0 km/h
1313 21-09-2008 13:28:02 15.6 C 5.98 g/m*3 15.6 C 0 km/h
1314 21-09-2008 13:33:02 15.7 C 5.89 g/m*3 15.7 C 0 km/h
1315 21-09-2008 13:38:02 15.8 C 5.92 g/m*3 15.8 C 0 km/h
1316 21-09-2008 13:43:02 15.8 C 5.79 g/m*3 15.8 C 0 km/h
1317 21-09-2008 13:48:02 16 C 5.86 g/m*3 16 C 0 km/h
1318 21-09-2008 13:53:02 16.2 C 6.21 g/m*3 16.2 C 0 km/h
1319 21-09-2008 13:58:02 16.2 C 5.93 g/m*3 16.2 C 0 km/h
1320 21-09-2008 14:03:03 16.2 C 5.93 g/m*3 16.2 C 0 km/h
1321 21-09-2008 14:08:03 16.3 C 5.83 g/m*3 16.3 C 0 km/h
1322 21-09-2008 14:13:03 16.3 C 5.83 g/m*3 16.3 C 0 km/h
1323 21-09-2008 14:18:02 16.4 C 6 g/m*3 16.4 C 0 km/h
1324 21-09-2008 14:23:02 16.4 C 5.86 g/m*3 16.4 C 0 km/h
1325 21-09-2008 14:28:02 16.1 C 5.89 g/m*3 16.1 C 0 km/h
Sensor: Nr:Datum:Temp:Abs-Feuchte:Windchill:Wind:
Aussen-T/F 1326 21-09-2008 14:33:03 15.8 C 6.06 g/m*3 15.8 C 0 km/h
1327 21-09-2008 14:38:03 15.6 C 5.98 g/m*3 15.6 C 0 km/h
1328 21-09-2008 14:43:03 15.6 C 6.12 g/m*3 15.6 C 0 km/h
1329 21-09-2008 14:48:02 15.7 C 6.15 g/m*3 15.7 C 0 km/h
1330 21-09-2008 14:53:02 16 C 6.13 g/m*3 16 C 0 km/h
1331 21-09-2008 14:58:02 16.3 C 6.24 g/m*3 16.3 C 0 km/h
1332 21-09-2008 15:03:02 16.6 C 6.22 g/m*3 16.6 C 0 km/h
1333 21-09-2008 15:08:02 16.7 C 6.11 g/m*3 16.7 C 0 km/h
1334 21-09-2008 15:13:02 16.7 C 5.97 g/m*3 16.7 C 0 km/h
1335 21-09-2008 15:18:03 16.7 C 6.11 g/m*3 16.7 C 0 km/h
1336 21-09-2008 15:23:03 16.6 C 6.22 g/m*3 16.6 C 0 km/h
1337 21-09-2008 15:28:03 16.5 C 6.32 g/m*3 16.5 C 0 km/h
1338 21-09-2008 15:33:02 16.7 C 6.54 g/m*3 16.7 C 0 km/h
1339 21-09-2008 15:38:02 17.5 C 6.71 g/m*3 17.5 C 0 km/h
1340 21-09-2008 15:43:02 17.7 C 6.49 g/m*3 17.7 C 0 km/h
1341 21-09-2008 15:48:01 17.9 C 6.41 g/m*3 17.9 C 0 km/h
1342 21-09-2008 15:53:01 18.1 C 6.18 g/m*3 18.1 C 0 km/h
1343 21-09-2008 15:58:01 18.3 C 6.41 g/m*3 18.3 C 0 km/h
1344 21-09-2008 16:03:02 18.6 C 6.21 g/m*3 18.6 C 0 km/h
1345 21-09-2008 16:08:02 18.7 C 6.08 g/m*3 18.7 C 0 km/h
1346 21-09-2008 16:13:02 18.9 C 6.16 g/m*3 18.9 C 0 km/h
1347 21-09-2008 16:18:01 18.5 C 5.85 g/m*3 18.5 C 0 km/h
1348 21-09-2008 16:23:01 18.2 C 5.91 g/m*3 18.2 C 0 km/h
1349 21-09-2008 16:28:01 17.9 C 6.11 g/m*3 17.9 C 0 km/h
1350 21-09-2008 16:33:01 17.9 C 6.11 g/m*3 17.9 C 0 km/h
Sensor: Nr:Datum:Temp:Abs-Feuchte:Windchill:Wind:
Aussen-T/F 1351 21-09-2008 16:38:01 17.6 C 6.15 g/m*3 17.6 C 0 km/h
1352 21-09-2008 16:43:01 17.2 C 6.15 g/m*3 17.2 C 0 km/h
1353 21-09-2008 16:48:03 17.1 C 6.26 g/m*3 17.1 C 0 km/h
1354 21-09-2008 16:53:03 17 C 6.37 g/m*3 17 C 0 km/h
1355 21-09-2008 16:58:03 16.8 C 6.43 g/m*3 16.8 C 0 km/h
1356 21-09-2008 17:03:02 16.6 C 6.5 g/m*3 16.6 C 0 km/h
1357 21-09-2008 17:08:02 16.6 C 6.5 g/m*3 16.6 C 0 km/h
1358 21-09-2008 17:13:02 16 C 6.4 g/m*3 16 C 0 km/h
1359 21-09-2008 17:18:02 16.1 C 6.44 g/m*3 16.1 C 0 km/h
1360 21-09-2008 17:23:02 16.2 C 6.34 g/m*3 16.2 C 0 km/h
1361 21-09-2008 17:28:02 16.1 C 6.31 g/m*3 16.1 C 0 km/h
1362 21-09-2008 17:33:03 15.8 C 6.46 g/m*3 15.8 C 0 km/h
1363 21-09-2008 17:38:03 15.9 C 6.64 g/m*3 15.9 C 0 km/h
1364 21-09-2008 17:43:03 16.3 C 6.52 g/m*3 16.3 C 0 km/h
1365 21-09-2008 17:48:02 16.6 C 6.64 g/m*3 16.6 C 0 km/h
1366 21-09-2008 17:53:02 16.8 C 6.58 g/m*3 16.8 C 0 km/h
1367 21-09-2008 17:58:03 17.2 C 6.59 g/m*3 17.2 C 0 km/h
1368 21-09-2008 18:03:01 17.2 C 6.44 g/m*3 17.2 C 0 km/h
1369 21-09-2008 18:08:01 16.9 C 6.47 g/m*3 16.9 C 0 km/h
1370 21-09-2008 18:13:01 16.5 C 6.46 g/m*3 16.5 C 0 km/h
1371 21-09-2008 18:18:02 16.5 C 6.6 g/m*3 16.5 C 0 km/h
1372 21-09-2008 18:23:02 16.5 C 6.6 g/m*3 16.5 C 0 km/h
1373 21-09-2008 18:28:02 16.5 C 6.6 g/m*3 16.5 C 0 km/h
1374 21-09-2008 18:33:02 16.4 C 6.56 g/m*3 16.4 C 0 km/h
1375 21-09-2008 18:38:02 16.5 C 6.74 g/m*3 16.5 C 0 km/h
Sensor: Nr:Datum:Temp:Abs-Feuchte:Windchill:Wind:
Aussen-T/F 1376 21-09-2008 18:43:02 16.4 C 6.7 g/m*3 16.4 C 0 km/h
1377 21-09-2008 18:48:02 16.3 C 6.8 g/m*3 16.3 C 0 km/h
1378 21-09-2008 18:53:02 16.2 C 6.76 g/m*3 16.2 C 0 km/h
1379 21-09-2008 18:58:02 16.2 C 6.76 g/m*3 16.2 C 0 km/h
1380 21-09-2008 19:03:02 15.7 C 6.82 g/m*3 15.7 C 0 km/h
1381 21-09-2008 19:08:02 15.4 C 6.96 g/m*3 15.4 C 0 km/h
1382 21-09-2008 19:13:02 15.1 C 6.84 g/m*3 15.1 C 0 km/h
1383 21-09-2008 19:18:02 14.7 C 7.05 g/m*3 14.7 C 0 km/h
1384 21-09-2008 19:23:02 14.2 C 7.08 g/m*3 14.2 C 0 km/h
1385 21-09-2008 19:28:02 13.9 C 7.19 g/m*3 13.9 C 0 km/h
1386 21-09-2008 19:33:02 13.8 C 7.27 g/m*3 13.8 C 0 km/h
1387 21-09-2008 19:38:02 13.7 C 7.34 g/m*3 13.7 C 0 km/h
1388 21-09-2008 19:43:02 13.5 C 7.37 g/m*3 13.5 C 0 km/h
1389 21-09-2008 19:48:02 13.4 C 7.44 g/m*3 13.4 C 0 km/h
1390 21-09-2008 19:53:02 13.1 C 7.42 g/m*3 13.1 C 0 km/h
1391 21-09-2008 19:58:02 12.9 C 7.55 g/m*3 12.9 C 0 km/h
1392 21-09-2008 20:03:01 12.8 C 7.62 g/m*3 12.8 C 0 km/h
1393 21-09-2008 20:08:01 12.7 C 7.68 g/m*3 12.7 C 0 km/h
1394 21-09-2008 20:13:01 12.6 C 7.74 g/m*3 12.6 C 0 km/h
1395 21-09-2008 20:18:02 12.5 C 7.7 g/m*3 12.5 C 0 km/h
1396 21-09-2008 20:23:02 12.3 C 7.6 g/m*3 12.3 C 0 km/h
1397 21-09-2008 20:28:02 12.2 C 7.77 g/m*3 12.2 C 0 km/h
1398 21-09-2008 20:33:02 12.1 C 7.72 g/m*3 12.1 C 0 km/h
1399 21-09-2008 20:38:02 12.1 C 7.83 g/m*3 12.1 C 0 km/h
1400 21-09-2008 20:43:02 12.1 C 7.83 g/m*3 12.1 C 0 km/h
Sensor: Nr:Datum:Temp:Abs-Feuchte:Windchill:Wind:
Aussen-T/F 1401 21-09-2008 20:48:02 12.1 C 7.83 g/m*3 12.1 C 0 km/h
1402 21-09-2008 20:53:02 12.1 C 7.83 g/m*3 12.1 C 0 km/h
1403 21-09-2008 20:58:02 12.2 C 7.88 g/m*3 12.2 C 0 km/h
1404 21-09-2008 21:03:02 11.9 C 7.84 g/m*3 11.9 C 0 km/h
1405 21-09-2008 21:08:02 11.8 C 7.89 g/m*3 11.8 C 0 km/h
1406 21-09-2008 21:13:02 11.9 C 7.94 g/m*3 11.9 C 0 km/h
1407 21-09-2008 21:18:02 11.8 C 8 g/m*3 11.8 C 0 km/h
1408 21-09-2008 21:23:02 11.7 C 7.95 g/m*3 11.7 C 0 km/h
1409 21-09-2008 21:28:02 11.6 C 7.9 g/m*3 11.6 C 0 km/h
1410 21-09-2008 21:33:02 11.5 C 7.95 g/m*3 11.5 C 0 km/h
1411 21-09-2008 21:38:02 11.5 C 7.95 g/m*3 11.5 C 0 km/h
1412 21-09-2008 21:43:02 11.5 C 7.95 g/m*3 11.5 C 0 km/h
1413 21-09-2008 21:48:02 11.5 C 7.95 g/m*3 11.5 C 0 km/h
1414 21-09-2008 21:53:02 11.3 C 7.85 g/m*3 11.3 C 0 km/h
1415 21-09-2008 21:58:02 11.2 C 7.91 g/m*3 11.2 C 0 km/h
1416 21-09-2008 22:03:01 11.2 C 7.91 g/m*3 11.2 C 0 km/h
1417 21-09-2008 22:08:01 11.1 C 7.96 g/m*3 11.1 C 0 km/h
1418 21-09-2008 22:13:01 11.1 C 7.96 g/m*3 11.1 C 0 km/h
1419 21-09-2008 22:19:02 11.1 C 8.06 g/m*3 11.1 C 0 km/h
1420 21-09-2008 22:24:02 11.1 C 8.06 g/m*3 11.1 C 0 km/h
1421 21-09-2008 22:29:02 11.1 C 8.06 g/m*3 11.1 C 0 km/h
1422 21-09-2008 22:34:02 11.2 C 8.11 g/m*3 11.2 C 0 km/h
1423 21-09-2008 22:39:02 11.2 C 8.11 g/m*3 11.2 C 0 km/h
1424 21-09-2008 22:44:02 11.1 C 8.06 g/m*3 11.1 C 0 km/h
1425 21-09-2008 22:49:02 11.1 C 8.06 g/m*3 11.1 C 0 km/h
Sensor: Nr:Datum:Temp:Abs-Feuchte:Windchill:Wind:
Aussen-T/F 1426 21-09-2008 22:54:02 11 C 8.01 g/m*3 11 C 0 km/h
1427 21-09-2008 22:59:02 11 C 8.11 g/m*3 11 C 0 km/h
1428 21-09-2008 23:04:02 10.9 C 8.06 g/m*3 10.9 C 0 km/h
1429 21-09-2008 23:09:02 10.8 C 8.01 g/m*3 10.8 C 0 km/h
1430 21-09-2008 23:14:02 10.7 C 8.05 g/m*3 10.7 C 0 km/h
1431 21-09-2008 23:19:02 10.8 C 8.11 g/m*3 10.8 C 0 km/h
1432 21-09-2008 23:24:02 10.8 C 8.2 g/m*3 10.8 C 0 km/h
1433 21-09-2008 23:29:03 11 C 8.31 g/m*3 11 C 0 km/h
1434 21-09-2008 23:34:03 11.1 C 8.36 g/m*3 11.1 C 0 km/h
1435 21-09-2008 23:39:03 11.2 C 8.41 g/m*3 11.2 C 0 km/h
1436 21-09-2008 23:44:03 11.3 C 8.36 g/m*3 11.3 C 0 km/h
1437 21-09-2008 23:49:03 11.4 C 8.42 g/m*3 11.4 C 0 km/h
1438 21-09-2008 23:54:03 11.5 C 8.47 g/m*3 11.5 C 0 km/h
1439 21-09-2008 23:59:03 11.4 C 8.31 g/m*3 11.4 C 0 km/h
1440 22-09-2008 00:04:03 11.3 C 8.16 g/m*3 11.3 C 0 km/h
1441 22-09-2008 00:09:03 11.2 C 8.11 g/m*3 11.2 C 0 km/h
1442 22-09-2008 00:14:03 11.2 C 8.11 g/m*3 11.2 C 0 km/h
1443 22-09-2008 00:19:03 11 C 8.01 g/m*3 11 C 0 km/h
1444 22-09-2008 00:24:03 10.8 C 8.01 g/m*3 10.8 C 0 km/h
1445 22-09-2008 00:29:03 10.7 C 7.96 g/m*3 10.7 C 0 km/h
1446 22-09-2008 00:34:03 10.5 C 7.86 g/m*3 10.5 C 0 km/h
1447 22-09-2008 00:39:03 10.4 C 7.9 g/m*3 10.4 C 0 km/h
1448 22-09-2008 00:44:03 10.4 C 7.9 g/m*3 10.4 C 0 km/h
1449 22-09-2008 00:49:03 10.2 C 7.8 g/m*3 10.2 C 0 km/h
1450 22-09-2008 00:54:03 10.1 C 7.75 g/m*3 10.1 C 0 km/h
Sensor: Nr:Datum:Temp:Abs-Feuchte:Windchill:Wind:
Aussen-T/F 1451 22-09-2008 00:59:03 10 C 7.71 g/m*3 10 C 0 km/h
1452 22-09-2008 01:04:04 10 C 7.8 g/m*3 10 C 0 km/h
1453 22-09-2008 01:09:04 10 C 7.8 g/m*3 10 C 0 km/h
1454 22-09-2008 01:14:04 9.8 C 7.89 g/m*3 9.8 C 0 km/h
1455 22-09-2008 01:19:04 9.7 C 7.84 g/m*3 9.7 C 0 km/h
1456 22-09-2008 01:24:04 9.7 C 7.93 g/m*3 9.7 C 0 km/h
1457 22-09-2008 01:29:04 9.7 C 7.93 g/m*3 9.7 C 0 km/h
1458 22-09-2008 01:34:04 9.7 C 7.93 g/m*3 9.7 C 0 km/h
1459 22-09-2008 01:39:04 9.8 C 8.07 g/m*3 9.8 C 0 km/h
1460 22-09-2008 01:44:04 10 C 8.08 g/m*3 10 C 0 km/h
1461 22-09-2008 01:49:04 10 C 8.08 g/m*3 10 C 0 km/h
1462 22-09-2008 01:54:04 10.2 C 8.18 g/m*3 10.2 C 0 km/h
1463 22-09-2008 01:59:04 10.3 C 8.33 g/m*3 10.3 C 0 km/h
1464 22-09-2008 02:04:04 10.4 C 8.38 g/m*3 10.4 C 0 km/h
1465 22-09-2008 02:09:04 10.5 C 8.44 g/m*3 10.5 C 0 km/h
1466 22-09-2008 02:14:04 10.5 C 8.34 g/m*3 10.5 C 0 km/h
1467 22-09-2008 02:19:04 10.6 C 8.39 g/m*3 10.6 C 0 km/h
1468 22-09-2008 02:24:04 10.6 C 8.39 g/m*3 10.6 C 0 km/h
1469 22-09-2008 02:29:04 10.7 C 8.45 g/m*3 10.7 C 0 km/h
1470 22-09-2008 02:34:04 10.7 C 8.45 g/m*3 10.7 C 0 km/h
1471 22-09-2008 02:39:04 10.7 C 8.45 g/m*3 10.7 C 0 km/h
1472 22-09-2008 02:44:05 10.6 C 8.39 g/m*3 10.6 C 0 km/h
1473 22-09-2008 02:49:05 10.6 C 8.39 g/m*3 10.6 C 0 km/h
1474 22-09-2008 02:54:05 10.7 C 8.45 g/m*3 10.7 C 0 km/h
1475 22-09-2008 02:59:05 10.7 C 8.45 g/m*3 10.7 C 0 km/h
Sensor: Nr:Datum:Temp:Abs-Feuchte:Windchill:Wind:
Aussen-T/F 1476 22-09-2008 03:04:05 10.7 C 8.45 g/m*3 10.7 C 0 km/h
1477 22-09-2008 03:09:05 10.7 C 8.45 g/m*3 10.7 C 0 km/h
1478 22-09-2008 03:14:05 10.8 C 8.5 g/m*3 10.8 C 0 km/h
1479 22-09-2008 03:19:05 10.8 C 8.5 g/m*3 10.8 C 0 km/h
1480 22-09-2008 03:24:05 10.9 C 8.55 g/m*3 10.9 C 0 km/h
1481 22-09-2008 03:29:05 10.9 C 8.55 g/m*3 10.9 C 0 km/h
1482 22-09-2008 03:34:05 10.9 C 8.45 g/m*3 10.9 C 0 km/h
1483 22-09-2008 03:39:05 10.9 C 8.45 g/m*3 10.9 C 0 km/h
1484 22-09-2008 03:44:05 10.9 C 8.45 g/m*3 10.9 C 0 km/h
1485 22-09-2008 03:49:05 10.9 C 8.45 g/m*3 10.9 C 0 km/h
1486 22-09-2008 03:54:05 10.8 C 8.4 g/m*3 10.8 C 0 km/h
1487 22-09-2008 03:59:05 10.8 C 8.4 g/m*3 10.8 C 0 km/h
1488 22-09-2008 04:04:05 10.9 C 8.45 g/m*3 10.9 C 0 km/h
1489 22-09-2008 04:09:05 10.8 C 8.4 g/m*3 10.8 C 0 km/h
1490 22-09-2008 04:14:05 10.9 C 8.36 g/m*3 10.9 C 0 km/h
1491 22-09-2008 04:19:06 10.9 C 8.36 g/m*3 10.9 C 0 km/h
1492 22-09-2008 04:24:06 10.9 C 8.36 g/m*3 10.9 C 0 km/h
1493 22-09-2008 04:29:06 10.9 C 8.36 g/m*3 10.9 C 0 km/h
1494 22-09-2008 04:34:06 10.8 C 8.3 g/m*3 10.8 C 0 km/h
1495 22-09-2008 04:39:06 10.8 C 8.3 g/m*3 10.8 C 0 km/h
1496 22-09-2008 04:44:06 10.8 C 8.3 g/m*3 10.8 C 0 km/h
1497 22-09-2008 04:49:06 10.7 C 8.25 g/m*3 10.7 C 0 km/h
1498 22-09-2008 04:54:06 10.7 C 8.25 g/m*3 10.7 C 0 km/h
1499 22-09-2008 04:59:06 10.7 C 8.25 g/m*3 10.7 C 0 km/h
1500 22-09-2008 05:04:06 10.6 C 8.1 g/m*3 10.6 C 0 km/h
Sensor: Nr:Datum:Temp:Abs-Feuchte:Windchill:Wind:
Aussen-T/F 1501 22-09-2008 05:09:06 10.6 C 8.1 g/m*3 10.6 C 0 km/h
1502 22-09-2008 05:14:06 10.6 C 8.1 g/m*3 10.6 C 0 km/h
1503 22-09-2008 05:19:06 10.6 C 8.1 g/m*3 10.6 C 0 km/h
1504 22-09-2008 05:24:06 10.6 C 8.1 g/m*3 10.6 C 0 km/h
1505 22-09-2008 05:29:06 10.4 C 8 g/m*3 10.4 C 0 km/h
1506 22-09-2008 05:34:06 10.3 C 7.95 g/m*3 10.3 C 0 km/h
1507 22-09-2008 05:39:06 10.2 C 7.9 g/m*3 10.2 C 0 km/h
1508 22-09-2008 05:44:06 10.3 C 7.95 g/m*3 10.3 C 0 km/h
1509 22-09-2008 05:49:06 10.4 C 8.1 g/m*3 10.4 C 0 km/h
1510 22-09-2008 05:54:07 10.5 C 8.15 g/m*3 10.5 C 0 km/h
1511 22-09-2008 05:59:07 10.5 C 8.05 g/m*3 10.5 C 0 km/h
1512 22-09-2008 06:04:07 10.6 C 8.1 g/m*3 10.6 C 0 km/h
1513 22-09-2008 06:09:07 10.6 C 8.1 g/m*3 10.6 C 0 km/h
1514 22-09-2008 06:14:07 10.6 C 8.1 g/m*3 10.6 C 0 km/h
1515 22-09-2008 06:19:07 10.6 C 8.1 g/m*3 10.6 C 0 km/h
1516 22-09-2008 06:24:07 10.6 C 8.1 g/m*3 10.6 C 0 km/h
1517 22-09-2008 06:29:07 10.6 C 8.1 g/m*3 10.6 C 0 km/h
1518 22-09-2008 06:34:07 10.6 C 8.1 g/m*3 10.6 C 0 km/h
1519 22-09-2008 06:39:07 10.6 C 8.1 g/m*3 10.6 C 0 km/h
1520 22-09-2008 06:44:07 10.6 C 8.1 g/m*3 10.6 C 0 km/h
1521 22-09-2008 06:49:07 10.6 C 8.1 g/m*3 10.6 C 0 km/h
1522 22-09-2008 06:54:07 10.6 C 8.1 g/m*3 10.6 C 0 km/h
1523 22-09-2008 06:59:07 10.6 C 8 g/m*3 10.6 C 0 km/h
1524 22-09-2008 07:04:02 10.5 C 7.95 g/m*3 10.5 C 0 km/h
1525 22-09-2008 07:09:02 10.6 C 8 g/m*3 10.6 C 0 km/h
Sensor: Nr:Datum:Temp:Abs-Feuchte:Windchill:Wind:
Aussen-T/F 1526 22-09-2008 07:14:02 10.6 C 8 g/m*3 10.6 C 0 km/h
1527 22-09-2008 07:19:02 10.5 C 7.95 g/m*3 10.5 C 0 km/h
1528 22-09-2008 07:24:02 10.6 C 8 g/m*3 10.6 C 0 km/h
1529 22-09-2008 07:29:02 10.6 C 8 g/m*3 10.6 C 0 km/h
1530 22-09-2008 07:34:02 10.6 C 8 g/m*3 10.6 C 0 km/h
1531 22-09-2008 07:39:02 10.7 C 8.05 g/m*3 10.7 C 0 km/h
1532 22-09-2008 07:44:02 10.6 C 8 g/m*3 10.6 C 0 km/h
1533 22-09-2008 07:49:02 10.7 C 8.05 g/m*3 10.7 C 0 km/h
1534 22-09-2008 07:54:02 10.7 C 8.05 g/m*3 10.7 C 0 km/h
1535 22-09-2008 07:59:02 10.7 C 8.05 g/m*3 10.7 C 0 km/h
1536 22-09-2008 08:04:02 10.7 C 8.05 g/m*3 10.7 C 0 km/h
1537 22-09-2008 08:09:02 10.7 C 8.05 g/m*3 10.7 C 0 km/h
1538 22-09-2008 08:14:02 10.7 C 8.05 g/m*3 10.7 C 0 km/h
1539 22-09-2008 08:19:02 10.7 C 8.05 g/m*3 10.7 C 0 km/h
1540 22-09-2008 08:24:02 10.8 C 8.11 g/m*3 10.8 C 0 km/h
1541 22-09-2008 08:29:02 10.8 C 8.11 g/m*3 10.8 C 0 km/h
1542 22-09-2008 08:34:02 10.9 C 8.06 g/m*3 10.9 C 0 km/h
1543 22-09-2008 08:39:02 11 C 8.11 g/m*3 11 C 0 km/h
1544 22-09-2008 08:44:02 11.1 C 8.16 g/m*3 11.1 C 0 km/h
1545 22-09-2008 08:49:02 11.3 C 8.16 g/m*3 11.3 C 0 km/h
1546 22-09-2008 08:54:02 11.3 C 8.06 g/m*3 11.3 C 0 km/h
1547 22-09-2008 08:59:02 11.3 C 7.96 g/m*3 11.3 C 0 km/h
1548 22-09-2008 09:04:02 11.4 C 8.01 g/m*3 11.4 C 0 km/h
1549 22-09-2008 09:09:02 11.5 C 8.06 g/m*3 11.5 C 0 km/h
1550 22-09-2008 09:14:02 11.5 C 7.95 g/m*3 11.5 C 0 km/h
Sensor: Nr:Datum:Temp:Abs-Feuchte:Windchill:Wind:
Aussen-T/F 1551 22-09-2008 09:19:02 11.5 C 7.95 g/m*3 11.5 C 0 km/h
1552 22-09-2008 09:24:02 11.7 C 8.05 g/m*3 11.7 C 0 km/h
1553 22-09-2008 09:29:02 11.9 C 8.05 g/m*3 11.9 C 0 km/h
1554 22-09-2008 09:34:02 12 C 7.99 g/m*3 12 C 0 km/h
1555 22-09-2008 09:39:02 11.9 C 7.84 g/m*3 11.9 C 0 km/h
1556 22-09-2008 09:44:02 12 C 7.89 g/m*3 12 C 0 km/h
1557 22-09-2008 09:49:02 12.1 C 7.94 g/m*3 12.1 C 0 km/h
1558 22-09-2008 09:54:02 12.5 C 8.03 g/m*3 12.5 C 0 km/h
1559 22-09-2008 09:59:02 12.7 C 7.9 g/m*3 12.7 C 0 km/h
1560 22-09-2008 10:04:01 12.7 C 7.9 g/m*3 12.7 C 0 km/h
1561 22-09-2008 10:09:01 12.9 C 7.89 g/m*3 12.9 C 0 km/h
1562 22-09-2008 10:14:01 13.1 C 7.65 g/m*3 13.1 C 0 km/h
1563 22-09-2008 10:19:02 13.1 C 7.65 g/m*3 13.1 C 0 km/h
1564 22-09-2008 10:24:02 13.1 C 7.53 g/m*3 13.1 C 0 km/h
1565 22-09-2008 10:29:02 12.8 C 7.39 g/m*3 12.8 C 0 km/h
1566 22-09-2008 10:34:01 13 C 7.48 g/m*3 13 C 0 km/h
1567 22-09-2008 10:39:01 13.1 C 7.53 g/m*3 13.1 C 0 km/h
1568 22-09-2008 10:44:01 13.2 C 7.46 g/m*3 13.2 C 0 km/h
1569 22-09-2008 10:49:02 13.2 C 7.35 g/m*3 13.2 C 0 km/h
1570 22-09-2008 10:54:02 13.2 C 7.35 g/m*3 13.2 C 0 km/h
1571 22-09-2008 10:59:02 13.4 C 7.44 g/m*3 13.4 C 0 km/h
1572 22-09-2008 11:04:02 13.6 C 7.41 g/m*3 13.6 C 0 km/h
1573 22-09-2008 11:09:02 13.4 C 7.32 g/m*3 13.4 C 0 km/h
1574 22-09-2008 11:14:02 13.2 C 7.23 g/m*3 13.2 C 0 km/h
1575 22-09-2008 11:19:02 13 C 7.26 g/m*3 13 C 0 km/h
Sensor: Nr:Datum:Temp:Abs-Feuchte:Windchill:Wind:
Aussen-T/F 1576 22-09-2008 11:24:02 13.2 C 7.46 g/m*3 13.2 C 0 km/h
1577 22-09-2008 11:29:02 13.5 C 7.6 g/m*3 13.5 C 0 km/h
1578 22-09-2008 11:34:01 14 C 7.6 g/m*3 14 C 0 km/h
1579 22-09-2008 11:39:01 14 C 7.48 g/m*3 14 C 0 km/h
1580 22-09-2008 11:44:01 13.9 C 7.43 g/m*3 13.9 C 0 km/h
1581 22-09-2008 11:49:02 14 C 7.48 g/m*3 14 C 0 km/h
1582 22-09-2008 11:54:02 14.4 C 7.54 g/m*3 14.4 C 0 km/h
1583 22-09-2008 11:59:02 14.5 C 7.46 g/m*3 14.5 C 0 km/h
1584 22-09-2008 12:04:01 14.7 C 7.3 g/m*3 14.7 C 0 km/h
1585 22-09-2008 12:09:01 14.7 C 6.8 g/m*3 14.7 C 0 km/h
1586 22-09-2008 12:14:01 15.2 C 7.01 g/m*3 15.2 C 0 km/h
1587 22-09-2008 12:19:01 15.6 C 7.18 g/m*3 15.6 C 0 km/h
1588 22-09-2008 12:24:01 16 C 6.81 g/m*3 16 C 0 km/h
1589 22-09-2008 12:29:01 16.2 C 6.62 g/m*3 16.2 C 0 km/h
1590 22-09-2008 12:34:02 16.3 C 6.66 g/m*3 16.3 C 0 km/h
1591 22-09-2008 12:39:02 15.7 C 6.56 g/m*3 15.7 C 0 km/h
1592 22-09-2008 12:44:03 15.5 C 6.61 g/m*3 15.5 C 0 km/h
1593 22-09-2008 12:49:02 15.4 C 6.44 g/m*3 15.4 C 0 km/h
1594 22-09-2008 12:54:02 15.5 C 6.48 g/m*3 15.5 C 0 km/h
1595 22-09-2008 12:59:02 15.4 C 6.18 g/m*3 15.4 C 0 km/h
1596 22-09-2008 13:04:02 15.5 C 6.34 g/m*3 15.5 C 0 km/h
1597 22-09-2008 13:09:02 16.2 C 6.48 g/m*3 16.2 C 0 km/h
1598 22-09-2008 13:14:02 16.8 C 6.15 g/m*3 16.8 C 0 km/h
1599 22-09-2008 13:19:02 16.9 C 6.04 g/m*3 16.9 C 0 km/h
1600 22-09-2008 13:24:02 17 C 6.08 g/m*3 17 C 0 km/h
Sensor: Nr:Datum:Temp:Abs-Feuchte:Windchill:Wind:
Aussen-T/F 1601 22-09-2008 13:29:03 16.6 C 5.93 g/m*3 16.6 C 0 km/h
1602 22-09-2008 13:34:01 16.4 C 6.14 g/m*3 16.4 C 0 km/h
1603 22-09-2008 13:39:01 16.5 C 6.32 g/m*3 16.5 C 0 km/h
1604 22-09-2008 13:44:01 16.9 C 6.33 g/m*3 16.9 C 0 km/h
1605 22-09-2008 13:49:02 16.9 C 6.18 g/m*3 16.9 C 0 km/h
1606 22-09-2008 13:54:02 16.9 C 6.18 g/m*3 16.9 C 0 km/h
1607 22-09-2008 13:59:02 16.5 C 6.04 g/m*3 16.5 C 0 km/h
1608 22-09-2008 14:04:02 16.2 C 6.07 g/m*3 16.2 C 0 km/h
1609 22-09-2008 14:09:02 16 C 5.99 g/m*3 16 C 0 km/h
1610 22-09-2008 14:14:02 15.8 C 6.19 g/m*3 15.8 C 0 km/h
1611 22-09-2008 14:19:01 15.6 C 6.12 g/m*3 15.6 C 0 km/h
1612 22-09-2008 14:24:01 15.4 C 6.18 g/m*3 15.4 C 0 km/h
1613 22-09-2008 14:29:01 15.3 C 6.14 g/m*3 15.3 C 0 km/h
1614 22-09-2008 14:34:02 15.4 C 6.44 g/m*3 15.4 C 0 km/h
1615 22-09-2008 14:39:02 15.5 C 6.34 g/m*3 15.5 C 0 km/h
1616 22-09-2008 14:44:02 15.5 C 6.34 g/m*3 15.5 C 0 km/h
1617 22-09-2008 14:49:02 15.8 C 6.46 g/m*3 15.8 C 0 km/h
1618 22-09-2008 14:54:03 15.7 C 6.29 g/m*3 15.7 C 0 km/h
1619 22-09-2008 14:59:03 15.7 C 6.42 g/m*3 15.7 C 0 km/h
1620 22-09-2008 15:04:02 15.6 C 6.52 g/m*3 15.6 C 0 km/h
1621 22-09-2008 15:09:02 15.5 C 6.34 g/m*3 15.5 C 0 km/h
1622 22-09-2008 15:14:02 15.2 C 6.36 g/m*3 15.2 C 0 km/h
1623 22-09-2008 15:19:02 15 C 6.41 g/m*3 15 C 0 km/h
1624 22-09-2008 15:24:02 14.8 C 6.71 g/m*3 14.8 C 0 km/h
1625 22-09-2008 15:29:02 14.5 C 6.72 g/m*3 14.5 C 0 km/h
Sensor: Nr:Datum:Temp:Abs-Feuchte:Windchill:Wind:
Aussen-T/F 1626 22-09-2008 15:34:02 14.4 C 6.68 g/m*3 14.4 C 0 km/h
1627 22-09-2008 15:39:02 14.1 C 6.67 g/m*3 14.1 C 0 km/h
1628 22-09-2008 15:44:02 13.9 C 6.83 g/m*3 13.9 C 0 km/h
1629 22-09-2008 15:49:02 14.2 C 6.84 g/m*3 14.2 C 0 km/h
1630 22-09-2008 15:54:02 14.3 C 7 g/m*3 14.3 C 0 km/h
1631 22-09-2008 15:59:02 14.5 C 6.96 g/m*3 14.5 C 0 km/h
1632 22-09-2008 16:04:03 14.6 C 7.01 g/m*3 14.6 C 0 km/h
1633 22-09-2008 16:09:03 14.7 C 6.92 g/m*3 14.7 C 0 km/h
1634 22-09-2008 16:14:03 14.7 C 6.92 g/m*3 14.7 C 0 km/h
1635 22-09-2008 16:19:02 14.9 C 7.01 g/m*3 14.9 C 0 km/h
1636 22-09-2008 16:24:02 15 C 6.8 g/m*3 15 C 0 km/h
1637 22-09-2008 16:29:02 15 C 6.8 g/m*3 15 C 0 km/h
1638 22-09-2008 16:34:03 14.9 C 6.88 g/m*3 14.9 C 0 km/h
1639 22-09-2008 16:39:03 14.8 C 6.97 g/m*3 14.8 C 0 km/h
1640 22-09-2008 16:44:03 14.7 C 6.92 g/m*3 14.7 C 0 km/h
1641 22-09-2008 16:49:02 14.6 C 6.88 g/m*3 14.6 C 0 km/h
1642 22-09-2008 16:54:02 14.7 C 6.92 g/m*3 14.7 C 0 km/h
1643 22-09-2008 16:59:02 14.7 C 6.92 g/m*3 14.7 C 0 km/h
1644 22-09-2008 17:04:02 14.8 C 6.84 g/m*3 14.8 C 0 km/h
1645 22-09-2008 17:09:02 15 C 6.67 g/m*3 15 C 0 km/h
1646 22-09-2008 17:14:03 15.2 C 6.75 g/m*3 15.2 C 0 km/h
1647 22-09-2008 17:19:03 15.3 C 6.53 g/m*3 15.3 C 0 km/h
1648 22-09-2008 17:24:03 15.4 C 6.57 g/m*3 15.4 C 0 km/h
1649 22-09-2008 17:29:03 15.7 C 6.69 g/m*3 15.7 C 0 km/h
1650 22-09-2008 17:34:02 15.9 C 6.5 g/m*3 15.9 C 0 km/h
Sensor: Nr:Datum:Temp:Abs-Feuchte:Windchill:Wind:
Aussen-T/F 1651 22-09-2008 17:39:02 15.8 C 6.6 g/m*3 15.8 C 0 km/h
1652 22-09-2008 17:44:02 15.9 C 6.64 g/m*3 15.9 C 0 km/h
1653 22-09-2008 17:49:02 16 C 6.68 g/m*3 16 C 0 km/h
1654 22-09-2008 17:54:03 16.4 C 6.56 g/m*3 16.4 C 0 km/h
1655 22-09-2008 17:59:03 16.1 C 6.44 g/m*3 16.1 C 0 km/h
1656 22-09-2008 18:04:01 15.7 C 6.56 g/m*3 15.7 C 0 km/h
1657 22-09-2008 18:09:01 15.4 C 6.57 g/m*3 15.4 C 0 km/h
1658 22-09-2008 18:14:01 15.4 C 6.7 g/m*3 15.4 C 0 km/h
1659 22-09-2008 18:19:02 15.3 C 6.53 g/m*3 15.3 C 0 km/h
1660 22-09-2008 18:24:02 15.3 C 6.53 g/m*3 15.3 C 0 km/h
1661 22-09-2008 18:29:02 15 C 6.41 g/m*3 15 C 0 km/h
1662 22-09-2008 18:34:01 14.8 C 6.46 g/m*3 14.8 C 0 km/h
1663 22-09-2008 18:39:01 14.7 C 6.42 g/m*3 14.7 C 0 km/h
1664 22-09-2008 18:44:01 14.7 C 6.42 g/m*3 14.7 C 0 km/h
1665 22-09-2008 18:49:01 14.6 C 6.51 g/m*3 14.6 C 0 km/h
1666 22-09-2008 18:54:01 14.5 C 6.47 g/m*3 14.5 C 0 km/h
1667 22-09-2008 18:59:01 14.3 C 6.39 g/m*3 14.3 C 0 km/h
1668 22-09-2008 19:04:02 13.9 C 6.47 g/m*3 13.9 C 0 km/h
1669 22-09-2008 19:09:02 13.7 C 6.51 g/m*3 13.7 C 0 km/h
1670 22-09-2008 19:14:02 13.7 C 6.63 g/m*3 13.7 C 0 km/h
1671 22-09-2008 19:19:01 13.5 C 6.67 g/m*3 13.5 C 0 km/h
1672 22-09-2008 19:24:01 13.4 C 6.74 g/m*3 13.4 C 0 km/h
1673 22-09-2008 19:29:01 13.1 C 6.73 g/m*3 13.1 C 0 km/h
1674 22-09-2008 19:34:02 13.1 C 6.73 g/m*3 13.1 C 0 km/h
1675 22-09-2008 19:39:02 12.9 C 6.76 g/m*3 12.9 C 0 km/h
Sensor: Nr:Datum:Temp:Abs-Feuchte:Windchill:Wind:
Aussen-T/F 1676 22-09-2008 19:44:02 12.8 C 6.83 g/m*3 12.8 C 0 km/h
1677 22-09-2008 19:49:02 12.7 C 6.79 g/m*3 12.7 C 0 km/h
1678 22-09-2008 19:54:02 12.8 C 6.83 g/m*3 12.8 C 0 km/h
1679 22-09-2008 19:59:02 12.7 C 6.79 g/m*3 12.7 C 0 km/h
1680 22-09-2008 20:04:02 12.7 C 6.79 g/m*3 12.7 C 0 km/h
1681 22-09-2008 20:09:02 12.7 C 6.9 g/m*3 12.7 C 0 km/h
1682 22-09-2008 20:14:02 12.7 C 6.9 g/m*3 12.7 C 0 km/h
1683 22-09-2008 20:19:03 12.6 C 6.86 g/m*3 12.6 C 0 km/h
1684 22-09-2008 20:24:03 12.4 C 6.99 g/m*3 12.4 C 0 km/h
1685 22-09-2008 20:29:03 12.3 C 6.95 g/m*3 12.3 C 0 km/h
1686 22-09-2008 20:34:02 12.1 C 6.97 g/m*3 12.1 C 0 km/h
1687 22-09-2008 20:39:02 12.1 C 7.08 g/m*3 12.1 C 0 km/h
1688 22-09-2008 20:44:02 12 C 7.03 g/m*3 12 C 0 km/h
1689 22-09-2008 20:49:02 12 C 7.03 g/m*3 12 C 0 km/h
1690 22-09-2008 20:54:02 12.2 C 7.01 g/m*3 12.2 C 0 km/h
1691 22-09-2008 20:59:02 12.2 C 7.01 g/m*3 12.2 C 0 km/h
1692 22-09-2008 21:04:02 12.2 C 7.01 g/m*3 12.2 C 0 km/h
1693 22-09-2008 21:09:02 12.2 C 7.01 g/m*3 12.2 C 0 km/h
1694 22-09-2008 21:14:02 12.2 C 7.01 g/m*3 12.2 C 0 km/h
1695 22-09-2008 21:19:02 12.2 C 7.01 g/m*3 12.2 C 0 km/h
1696 22-09-2008 21:24:02 12.2 C 7.01 g/m*3 12.2 C 0 km/h
1697 22-09-2008 21:29:02 11.9 C 7.1 g/m*3 11.9 C 0 km/h
1698 22-09-2008 21:35:02 11.9 C 7.1 g/m*3 11.9 C 0 km/h
1699 22-09-2008 21:40:03 11.7 C 7.11 g/m*3 11.7 C 0 km/h
1700 22-09-2008 21:45:03 11.5 C 7.02 g/m*3 11.5 C 0 km/h
Sensor: Nr:Datum:Temp:Abs-Feuchte:Windchill:Wind:
Aussen-T/F 1701 22-09-2008 21:50:03 11.5 C 7.02 g/m*3 11.5 C 0 km/h
1702 22-09-2008 21:55:03 11.4 C 7.08 g/m*3 11.4 C 0 km/h
1703 22-09-2008 22:00:03 11.2 C 6.99 g/m*3 11.2 C 0 km/h
1704 22-09-2008 22:05:03 11.1 C 7.05 g/m*3 11.1 C 0 km/h
1705 22-09-2008 22:10:03 11.1 C 7.05 g/m*3 11.1 C 0 km/h
1706 22-09-2008 22:15:03 11.1 C 7.05 g/m*3 11.1 C 0 km/h
1707 22-09-2008 22:20:03 11.2 C 7.2 g/m*3 11.2 C 0 km/h
1708 22-09-2008 22:25:03 11.3 C 7.24 g/m*3 11.3 C 0 km/h
1709 22-09-2008 22:30:03 11.3 C 7.24 g/m*3 11.3 C 0 km/h
1710 22-09-2008 22:35:03 11.4 C 7.29 g/m*3 11.4 C 0 km/h
1711 22-09-2008 22:40:03 11.5 C 7.33 g/m*3 11.5 C 0 km/h
1712 22-09-2008 22:45:03 11.5 C 7.33 g/m*3 11.5 C 0 km/h
1713 22-09-2008 22:50:03 11.4 C 7.29 g/m*3 11.4 C 0 km/h
1714 22-09-2008 22:55:03 11.4 C 7.29 g/m*3 11.4 C 0 km/h
1715 22-09-2008 23:00:03 11.3 C 7.34 g/m*3 11.3 C 0 km/h
1716 22-09-2008 23:05:03 11.2 C 7.3 g/m*3 11.2 C 0 km/h
1717 22-09-2008 23:10:03 11.2 C 7.4 g/m*3 11.2 C 0 km/h
1718 22-09-2008 23:15:03 11.1 C 7.35 g/m*3 11.1 C 0 km/h
1719 22-09-2008 23:20:04 11 C 7.21 g/m*3 11 C 0 km/h
1720 22-09-2008 23:25:04 10.9 C 7.26 g/m*3 10.9 C 0 km/h
1721 22-09-2008 23:30:04 10.9 C 7.26 g/m*3 10.9 C 0 km/h
1722 22-09-2008 23:35:04 10.9 C 7.26 g/m*3 10.9 C 0 km/h
1723 22-09-2008 23:40:04 10.9 C 7.26 g/m*3 10.9 C 0 km/h
1724 22-09-2008 23:45:04 10.9 C 7.26 g/m*3 10.9 C 0 km/h
1725 22-09-2008 23:50:04 10.9 C 7.26 g/m*3 10.9 C 0 km/h
Sensor: Nr:Datum:Temp:Abs-Feuchte:Windchill:Wind:
Aussen-T/F 1726 22-09-2008 23:55:04 10.8 C 7.31 g/m*3 10.8 C 0 km/h
1727 23-09-2008 00:00:04 10.8 C 7.31 g/m*3 10.8 C 0 km/h
1728 23-09-2008 00:05:04 10.8 C 7.31 g/m*3 10.8 C 0 km/h
1729 23-09-2008 00:10:04 10.8 C 7.31 g/m*3 10.8 C 0 km/h
1730 23-09-2008 00:15:04 10.6 C 7.32 g/m*3 10.6 C 0 km/h
1731 23-09-2008 00:20:04 10.6 C 7.42 g/m*3 10.6 C 0 km/h
1732 23-09-2008 00:25:04 10.5 C 7.37 g/m*3 10.5 C 0 km/h
1733 23-09-2008 00:30:04 10.5 C 7.37 g/m*3 10.5 C 0 km/h
1734 23-09-2008 00:35:04 10.5 C 7.37 g/m*3 10.5 C 0 km/h
1735 23-09-2008 00:40:04 10.4 C 7.32 g/m*3 10.4 C 0 km/h
1736 23-09-2008 00:45:04 10.4 C 7.32 g/m*3 10.4 C 0 km/h
1737 23-09-2008 00:50:04 10.4 C 7.42 g/m*3 10.4 C 0 km/h
1738 23-09-2008 00:55:04 10.4 C 7.42 g/m*3 10.4 C 0 km/h
1739 23-09-2008 01:00:05 10.4 C 7.42 g/m*3 10.4 C 0 km/h
1740 23-09-2008 01:05:05 10.4 C 7.42 g/m*3 10.4 C 0 km/h
1741 23-09-2008 01:10:05 10.4 C 7.42 g/m*3 10.4 C 0 km/h
1742 23-09-2008 01:15:05 10.4 C 7.42 g/m*3 10.4 C 0 km/h
1743 23-09-2008 01:20:05 10.4 C 7.52 g/m*3 10.4 C 0 km/h
1744 23-09-2008 01:25:05 10.4 C 7.52 g/m*3 10.4 C 0 km/h
1745 23-09-2008 01:30:05 10.3 C 7.57 g/m*3 10.3 C 0 km/h
1746 23-09-2008 01:35:05 10.2 C 7.52 g/m*3 10.2 C 0 km/h
1747 23-09-2008 01:40:05 10.3 C 7.57 g/m*3 10.3 C 0 km/h
1748 23-09-2008 01:45:05 10.3 C 7.57 g/m*3 10.3 C 0 km/h
1749 23-09-2008 01:50:05 10.2 C 7.61 g/m*3 10.2 C 0 km/h
1750 23-09-2008 01:55:05 10.1 C 7.56 g/m*3 10.1 C 0 km/h
Sensor: Nr:Datum:Temp:Abs-Feuchte:Windchill:Wind:
Aussen-T/F 1751 23-09-2008 02:00:05 10.1 C 7.56 g/m*3 10.1 C 0 km/h
1752 23-09-2008 02:05:05 10 C 7.61 g/m*3 10 C 0 km/h
1753 23-09-2008 02:10:05 10 C 7.71 g/m*3 10 C 0 km/h
1754 23-09-2008 02:15:05 10 C 7.71 g/m*3 10 C 0 km/h
1755 23-09-2008 02:20:05 10 C 7.8 g/m*3 10 C 0 km/h
1756 23-09-2008 02:25:05 9.9 C 7.84 g/m*3 9.9 C 0 km/h
1757 23-09-2008 02:30:05 9.9 C 7.84 g/m*3 9.9 C 0 km/h
1758 23-09-2008 02:35:05 9.9 C 7.94 g/m*3 9.9 C 0 km/h
1759 23-09-2008 02:40:06 9.8 C 7.89 g/m*3 9.8 C 0 km/h
1760 23-09-2008 02:45:06 9.8 C 7.98 g/m*3 9.8 C 0 km/h
1761 23-09-2008 02:50:06 9.7 C 7.93 g/m*3 9.7 C 0 km/h
1762 23-09-2008 02:55:06 9.7 C 7.93 g/m*3 9.7 C 0 km/h
1763 23-09-2008 03:00:06 9.7 C 8.02 g/m*3 9.7 C 0 km/h
1764 23-09-2008 03:05:06 9.8 C 8.07 g/m*3 9.8 C 0 km/h
1765 23-09-2008 03:10:06 9.9 C 8.12 g/m*3 9.9 C 0 km/h
1766 23-09-2008 03:15:06 10 C 8.08 g/m*3 10 C 0 km/h
1767 23-09-2008 03:20:06 10 C 8.17 g/m*3 10 C 0 km/h
1768 23-09-2008 03:25:06 10 C 8.17 g/m*3 10 C 0 km/h
1769 23-09-2008 03:30:06 10.1 C 8.23 g/m*3 10.1 C 0 km/h
1770 23-09-2008 03:35:06 10.1 C 8.23 g/m*3 10.1 C 0 km/h
1771 23-09-2008 03:40:06 10.1 C 8.23 g/m*3 10.1 C 0 km/h
1772 23-09-2008 03:45:06 10.1 C 8.23 g/m*3 10.1 C 0 km/h
1773 23-09-2008 03:50:06 10.2 C 8.28 g/m*3 10.2 C 0 km/h
1774 23-09-2008 03:55:06 10.3 C 8.33 g/m*3 10.3 C 0 km/h
1775 23-09-2008 04:00:06 10.4 C 8.38 g/m*3 10.4 C 0 km/h
Sensor: Nr:Datum:Temp:Abs-Feuchte:Windchill:Wind:
Aussen-T/F 1776 23-09-2008 04:05:06 10.4 C 8.38 g/m*3 10.4 C 0 km/h
1777 23-09-2008 04:10:06 10.4 C 8.38 g/m*3 10.4 C 0 km/h
1778 23-09-2008 04:15:06 10.3 C 8.33 g/m*3 10.3 C 0 km/h
1779 23-09-2008 04:20:07 10.4 C 8.38 g/m*3 10.4 C 0 km/h
1780 23-09-2008 04:25:07 10.5 C 8.44 g/m*3 10.5 C 0 km/h
1781 23-09-2008 04:30:07 10.5 C 8.44 g/m*3 10.5 C 0 km/h
1782 23-09-2008 04:35:07 10.4 C 8.38 g/m*3 10.4 C 0 km/h
1783 23-09-2008 04:40:07 10.4 C 8.29 g/m*3 10.4 C 0 km/h
1784 23-09-2008 04:45:07 10.5 C 8.34 g/m*3 10.5 C 0 km/h
1785 23-09-2008 04:50:07 10.5 C 8.34 g/m*3 10.5 C 0 km/h
1786 23-09-2008 04:55:07 10.5 C 8.34 g/m*3 10.5 C 0 km/h
1787 23-09-2008 05:00:07 10.6 C 8.39 g/m*3 10.6 C 0 km/h
1788 23-09-2008 05:05:07 10.6 C 8.49 g/m*3 10.6 C 0 km/h
1789 23-09-2008 05:10:07 10.7 C 8.55 g/m*3 10.7 C 0 km/h
1790 23-09-2008 05:15:07 10.7 C 8.45 g/m*3 10.7 C 0 km/h
1791 23-09-2008 05:20:07 10.8 C 8.5 g/m*3 10.8 C 0 km/h
1792 23-09-2008 05:25:07 10.8 C 8.5 g/m*3 10.8 C 0 km/h
1793 23-09-2008 05:30:07 10.8 C 8.5 g/m*3 10.8 C 0 km/h
1794 23-09-2008 05:35:07 10.7 C 8.45 g/m*3 10.7 C 0 km/h
1795 23-09-2008 05:40:07 10.7 C 8.45 g/m*3 10.7 C 0 km/h
1796 23-09-2008 05:45:07 10.5 C 8.34 g/m*3 10.5 C 0 km/h
1797 23-09-2008 05:50:07 10.5 C 8.34 g/m*3 10.5 C 0 km/h
1798 23-09-2008 05:55:08 10.5 C 8.34 g/m*3 10.5 C 0 km/h
1799 23-09-2008 06:00:08 10.5 C 8.34 g/m*3 10.5 C 0 km/h
1800 23-09-2008 06:05:08 10.4 C 8.29 g/m*3 10.4 C 0 km/h
Sensor: Nr:Datum:Temp:Abs-Feuchte:Windchill:Wind:
Aussen-T/F 1801 23-09-2008 06:10:08 10.4 C 8.29 g/m*3 10.4 C 0 km/h
1802 23-09-2008 06:15:08 10.5 C 8.44 g/m*3 10.5 C 0 km/h
1803 23-09-2008 06:20:08 10.5 C 8.44 g/m*3 10.5 C 0 km/h
1804 23-09-2008 06:25:08 10.5 C 8.44 g/m*3 10.5 C 0 km/h
1805 23-09-2008 06:30:08 10.4 C 8.29 g/m*3 10.4 C 0 km/h
1806 23-09-2008 06:35:08 10.3 C 8.24 g/m*3 10.3 C 0 km/h
1807 23-09-2008 06:40:08 10.4 C 8.29 g/m*3 10.4 C 0 km/h
1808 23-09-2008 06:45:08 10.4 C 8.38 g/m*3 10.4 C 0 km/h
1809 23-09-2008 06:50:08 10.5 C 8.44 g/m*3 10.5 C 0 km/h
1810 23-09-2008 06:55:08 10.5 C 8.44 g/m*3 10.5 C 0 km/h
1811 23-09-2008 07:00:08 10.6 C 8.49 g/m*3 10.6 C 0 km/h
1812 23-09-2008 07:05:01 10.6 C 8.49 g/m*3 10.6 C 0 km/h
1813 23-09-2008 07:10:01 10.6 C 8.49 g/m*3 10.6 C 0 km/h
1814 23-09-2008 07:15:02 10.6 C 8.49 g/m*3 10.6 C 0 km/h
1815 23-09-2008 07:20:02 10.7 C 8.55 g/m*3 10.7 C 0 km/h
1816 23-09-2008 07:25:02 10.7 C 8.55 g/m*3 10.7 C 0 km/h
1817 23-09-2008 07:30:02 10.7 C 8.55 g/m*3 10.7 C 0 km/h
1818 23-09-2008 07:35:01 10.7 C 8.55 g/m*3 10.7 C 0 km/h
1819 23-09-2008 07:40:01 10.7 C 8.45 g/m*3 10.7 C 0 km/h
1820 23-09-2008 07:45:01 10.7 C 8.55 g/m*3 10.7 C 0 km/h
1821 23-09-2008 07:50:01 10.8 C 8.6 g/m*3 10.8 C 0 km/h
1822 23-09-2008 07:55:01 10.9 C 8.55 g/m*3 10.9 C 0 km/h
1823 23-09-2008 08:00:01 11 C 8.51 g/m*3 11 C 0 km/h
1824 23-09-2008 08:05:02 11 C 8.51 g/m*3 11 C 0 km/h
1825 23-09-2008 08:10:02 11.1 C 8.56 g/m*3 11.1 C 0 km/h
Sensor: Nr:Datum:Temp:Abs-Feuchte:Windchill:Wind:
Aussen-T/F 1826 23-09-2008 08:15:02 11.3 C 8.57 g/m*3 11.3 C 0 km/h
1827 23-09-2008 08:20:02 11.4 C 8.62 g/m*3 11.4 C 0 km/h
1828 23-09-2008 08:25:02 11.5 C 8.68 g/m*3 11.5 C 0 km/h
1829 23-09-2008 08:30:02 11.7 C 8.79 g/m*3 11.7 C 0 km/h
1830 23-09-2008 08:35:02 11.8 C 8.74 g/m*3 11.8 C 0 km/h
1831 23-09-2008 08:40:02 12 C 8.74 g/m*3 12 C 0 km/h
1832 23-09-2008 08:45:02 12.1 C 8.69 g/m*3 12.1 C 0 km/h
1833 23-09-2008 08:50:02 12 C 8.53 g/m*3 12 C 0 km/h
1834 23-09-2008 08:55:02 12.1 C 8.47 g/m*3 12.1 C 0 km/h
1835 23-09-2008 09:00:02 12.2 C 8.52 g/m*3 12.2 C 0 km/h
1836 23-09-2008 09:05:01 12.3 C 8.47 g/m*3 12.3 C 0 km/h
1837 23-09-2008 09:10:01 12.3 C 8.25 g/m*3 12.3 C 0 km/h
1838 23-09-2008 09:15:02 12.4 C 8.19 g/m*3 12.4 C 0 km/h
1839 23-09-2008 09:20:02 12.5 C 8.25 g/m*3 12.5 C 0 km/h
1840 23-09-2008 09:25:02 12.6 C 8.3 g/m*3 12.6 C 0 km/h
1841 23-09-2008 09:30:02 12.7 C 8.24 g/m*3 12.7 C 0 km/h
1842 23-09-2008 09:35:02 12.8 C 8.18 g/m*3 12.8 C 0 km/h
1843 23-09-2008 09:40:02 12.8 C 8.18 g/m*3 12.8 C 0 km/h
1844 23-09-2008 09:45:02 12.6 C 7.97 g/m*3 12.6 C 0 km/h
1845 23-09-2008 09:50:02 12.4 C 7.87 g/m*3 12.4 C 0 km/h
1846 23-09-2008 09:55:02 12.6 C 8.08 g/m*3 12.6 C 0 km/h
1847 23-09-2008 10:00:02 12.7 C 8.13 g/m*3 12.7 C 0 km/h
1848 23-09-2008 10:05:02 13 C 8.17 g/m*3 13 C 0 km/h
1849 23-09-2008 10:10:02 13.1 C 8.22 g/m*3 13.1 C 0 km/h
1850 23-09-2008 10:15:03 13.1 C 8.1 g/m*3 13.1 C 0 km/h
Sensor: Nr:Datum:Temp:Abs-Feuchte:Windchill:Wind:
Aussen-T/F 1851 23-09-2008 10:20:03 13.2 C 8.04 g/m*3 13.2 C 0 km/h
1852 23-09-2008 10:25:03 13 C 7.94 g/m*3 13 C 0 km/h
1853 23-09-2008 10:30:03 13 C 7.94 g/m*3 13 C 0 km/h
1854 23-09-2008 10:35:02 13 C 7.94 g/m*3 13 C 0 km/h
1855 23-09-2008 10:40:02 13.1 C 7.76 g/m*3 13.1 C 0 km/h
1856 23-09-2008 10:45:01 13.2 C 7.81 g/m*3 13.2 C 0 km/h
1857 23-09-2008 10:50:01 13.5 C 7.84 g/m*3 13.5 C 0 km/h
1858 23-09-2008 10:55:01 13.8 C 7.86 g/m*3 13.8 C 0 km/h
1859 23-09-2008 11:00:01 13.5 C 7.72 g/m*3 13.5 C 0 km/h
1860 23-09-2008 11:05:02 13.5 C 7.84 g/m*3 13.5 C 0 km/h
1861 23-09-2008 11:10:02 13.3 C 7.86 g/m*3 13.3 C 0 km/h
1862 23-09-2008 11:15:01 13.2 C 7.81 g/m*3 13.2 C 0 km/h
1863 23-09-2008 11:20:01 13.2 C 7.92 g/m*3 13.2 C 0 km/h
1864 23-09-2008 11:25:01 13.2 C 7.92 g/m*3 13.2 C 0 km/h
1865 23-09-2008 11:30:01 13.4 C 8.02 g/m*3 13.4 C 0 km/h
1866 23-09-2008 11:35:01 13.4 C 8.02 g/m*3 13.4 C 0 km/h
1867 23-09-2008 11:40:01 13.5 C 8.07 g/m*3 13.5 C 0 km/h
1868 23-09-2008 11:45:03 13.4 C 7.9 g/m*3 13.4 C 0 km/h
1869 23-09-2008 11:50:03 13.4 C 7.9 g/m*3 13.4 C 0 km/h
1870 23-09-2008 11:55:03 13.4 C 7.9 g/m*3 13.4 C 0 km/h
1871 23-09-2008 12:00:03 13.6 C 8 g/m*3 13.6 C 0 km/h
1872 23-09-2008 12:05:02 13.9 C 8.15 g/m*3 13.9 C 0 km/h
1873 23-09-2008 12:10:02 14.1 C 8.01 g/m*3 14.1 C 0 km/h
1874 23-09-2008 12:15:03 14.4 C 8.03 g/m*3 14.4 C 0 km/h
1875 23-09-2008 12:20:03 14.6 C 8.13 g/m*3 14.6 C 0 km/h
Sensor: Nr:Datum:Temp:Abs-Feuchte:Windchill:Wind:
Aussen-T/F 1876 23-09-2008 12:25:03 14.5 C 7.84 g/m*3 14.5 C 0 km/h
1877 23-09-2008 12:30:03 14.3 C 7.49 g/m*3 14.3 C 0 km/h
1878 23-09-2008 12:35:02 14.4 C 7.54 g/m*3 14.4 C 0 km/h
1879 23-09-2008 12:40:02 14.3 C 7.49 g/m*3 14.3 C 0 km/h
1880 23-09-2008 12:45:02 14.3 C 7.37 g/m*3 14.3 C 0 km/h
1881 23-09-2008 12:50:02 14.7 C 7.68 g/m*3 14.7 C 0 km/h
1882 23-09-2008 12:55:02 14.8 C 7.6 g/m*3 14.8 C 0 km/h
1883 23-09-2008 13:00:02 14.8 C 7.47 g/m*3 14.8 C 0 km/h
1884 23-09-2008 13:05:02 14.7 C 7.3 g/m*3 14.7 C 0 km/h
1885 23-09-2008 13:10:02 14.2 C 7.33 g/m*3 14.2 C 0 km/h
1886 23-09-2008 13:15:02 14 C 7.36 g/m*3 14 C 0 km/h
1887 23-09-2008 13:20:02 14.4 C 7.66 g/m*3 14.4 C 0 km/h
1888 23-09-2008 13:25:03 14.4 C 7.29 g/m*3 14.4 C 0 km/h
1889 23-09-2008 13:30:03 14.7 C 7.3 g/m*3 14.7 C 0 km/h
1890 23-09-2008 13:35:01 15 C 7.31 g/m*3 15 C 0 km/h
1891 23-09-2008 13:40:01 15.2 C 7.4 g/m*3 15.2 C 0 km/h
1892 23-09-2008 13:45:02 15.5 C 7.27 g/m*3 15.5 C 0 km/h
1893 23-09-2008 13:50:02 15.6 C 7.31 g/m*3 15.6 C 0 km/h
1894 23-09-2008 13:55:02 15.9 C 7.18 g/m*3 15.9 C 0 km/h
1895 23-09-2008 14:00:02 15.9 C 6.91 g/m*3 15.9 C 0 km/h
1896 23-09-2008 14:05:02 16 C 6.95 g/m*3 16 C 0 km/h
1897 23-09-2008 14:10:03 15.9 C 7.04 g/m*3 15.9 C 0 km/h
1898 23-09-2008 14:15:01 15.6 C 7.05 g/m*3 15.6 C 0 km/h
1899 23-09-2008 14:20:01 15.6 C 7.05 g/m*3 15.6 C 0 km/h
1900 23-09-2008 14:25:01 15.5 C 6.87 g/m*3 15.5 C 0 km/h
Sensor: Nr:Datum:Temp:Abs-Feuchte:Windchill:Wind:
Aussen-T/F 1901 23-09-2008 14:30:01 15.7 C 6.69 g/m*3 15.7 C 0 km/h
1902 23-09-2008 14:35:02 15.6 C 6.65 g/m*3 15.6 C 0 km/h
1903 23-09-2008 14:40:02 15.6 C 6.78 g/m*3 15.6 C 0 km/h
1904 23-09-2008 14:45:02 15.4 C 6.57 g/m*3 15.4 C 0 km/h
1905 23-09-2008 14:50:02 15.5 C 6.74 g/m*3 15.5 C 0 km/h
1906 23-09-2008 14:55:03 15.6 C 6.78 g/m*3 15.6 C 0 km/h
1907 23-09-2008 15:00:03 15.6 C 6.78 g/m*3 15.6 C 0 km/h
1908 23-09-2008 15:05:02 15.8 C 7 g/m*3 15.8 C 0 km/h
1909 23-09-2008 15:10:02 15.9 C 6.91 g/m*3 15.9 C 0 km/h
1910 23-09-2008 15:15:02 16 C 6.54 g/m*3 16 C 0 km/h
1911 23-09-2008 15:20:02 15.8 C 6.73 g/m*3 15.8 C 0 km/h
1912 23-09-2008 15:25:02 15.5 C 6.61 g/m*3 15.5 C 0 km/h
1913 23-09-2008 15:30:02 15.4 C 6.7 g/m*3 15.4 C 0 km/h
1914 23-09-2008 15:35:02 15.4 C 6.83 g/m*3 15.4 C 0 km/h
1915 23-09-2008 15:40:02 15.5 C 6.74 g/m*3 15.5 C 0 km/h
1916 23-09-2008 15:45:02 15.4 C 6.7 g/m*3 15.4 C 0 km/h
1917 23-09-2008 15:50:02 15.3 C 6.79 g/m*3 15.3 C 0 km/h
1918 23-09-2008 15:55:02 15.3 C 6.92 g/m*3 15.3 C 0 km/h
1919 23-09-2008 16:00:02 15.2 C 7.01 g/m*3 15.2 C 0 km/h
1920 23-09-2008 16:05:02 15.2 C 6.88 g/m*3 15.2 C 0 km/h
1921 23-09-2008 16:10:02 15.1 C 6.97 g/m*3 15.1 C 0 km/h
1922 23-09-2008 16:15:02 15.1 C 6.97 g/m*3 15.1 C 0 km/h
1923 23-09-2008 16:20:02 15.1 C 7.1 g/m*3 15.1 C 0 km/h
1924 23-09-2008 16:25:02 15 C 7.05 g/m*3 15 C 0 km/h
1925 23-09-2008 16:30:02 15 C 7.05 g/m*3 15 C 0 km/h
Sensor: Nr:Datum:Temp:Abs-Feuchte:Windchill:Wind:
Aussen-T/F 1926 23-09-2008 16:35:02 14.9 C 7.14 g/m*3 14.9 C 0 km/h
1927 23-09-2008 16:40:02 14.7 C 7.3 g/m*3 14.7 C 0 km/h
1928 23-09-2008 16:45:02 14.5 C 7.59 g/m*3 14.5 C 0 km/h
1929 23-09-2008 16:50:03 14 C 7.6 g/m*3 14 C 0 km/h
1930 23-09-2008 16:55:03 13.5 C 7.72 g/m*3 13.5 C 0 km/h
1931 23-09-2008 17:00:03 13.5 C 7.95 g/m*3 13.5 C 0 km/h
1932 23-09-2008 17:05:01 13.4 C 7.9 g/m*3 13.4 C 0 km/h
1933 23-09-2008 17:10:01 13.4 C 8.14 g/m*3 13.4 C 0 km/h
1934 23-09-2008 17:15:02 13.3 C 8.09 g/m*3 13.3 C 0 km/h
1935 23-09-2008 17:20:02 13.4 C 8.25 g/m*3 13.4 C 0 km/h
1936 23-09-2008 17:25:02 13.4 C 8.37 g/m*3 13.4 C 0 km/h
1937 23-09-2008 17:30:02 13.2 C 8.38 g/m*3 13.2 C 0 km/h
1938 23-09-2008 17:35:02 13.2 C 8.38 g/m*3 13.2 C 0 km/h
1939 23-09-2008 17:40:02 13.1 C 8.44 g/m*3 13.1 C 0 km/h
1940 23-09-2008 17:45:02 13 C 8.51 g/m*3 13 C 0 km/h
1941 23-09-2008 17:50:02 13 C 8.62 g/m*3 13 C 0 km/h
1942 23-09-2008 17:55:02 13 C 8.73 g/m*3 13 C 0 km/h
1943 23-09-2008 18:00:02 13 C 8.85 g/m*3 13 C 0 km/h
1944 23-09-2008 18:05:02 12.8 C 8.85 g/m*3 12.8 C 0 km/h
1945 23-09-2008 18:10:02 12.8 C 8.85 g/m*3 12.8 C 0 km/h
1946 23-09-2008 18:15:02 12.7 C 8.91 g/m*3 12.7 C 0 km/h
1947 23-09-2008 18:20:02 12.6 C 8.96 g/m*3 12.6 C 0 km/h
1948 23-09-2008 18:25:02 12.6 C 8.96 g/m*3 12.6 C 0 km/h
1949 23-09-2008 18:30:02 12.6 C 9.07 g/m*3 12.6 C 0 km/h
1950 23-09-2008 18:35:02 12.5 C 9.02 g/m*3 12.5 C 0 km/h
Sensor: Nr:Datum:Temp:Abs-Feuchte:Windchill:Wind:
Aussen-T/F 1951 23-09-2008 18:40:02 12.4 C 9.07 g/m*3 12.4 C 0 km/h
1952 23-09-2008 18:45:02 12.3 C 9.12 g/m*3 12.3 C 0 km/h
1953 23-09-2008 18:50:02 12.3 C 9.23 g/m*3 12.3 C 0 km/h
1954 23-09-2008 18:55:02 12.4 C 9.29 g/m*3 12.4 C 0 km/h
1955 23-09-2008 19:00:02 12.2 C 9.17 g/m*3 12.2 C 0 km/h
1956 23-09-2008 19:05:02 12.2 C 9.28 g/m*3 12.2 C 0 km/h
1957 23-09-2008 19:10:02 12.2 C 9.28 g/m*3 12.2 C 0 km/h
1958 23-09-2008 19:15:02 12.2 C 9.39 g/m*3 12.2 C 0 km/h
1959 23-09-2008 19:20:02 12.1 C 9.33 g/m*3 12.1 C 0 km/h
1960 23-09-2008 19:25:02 12.1 C 9.44 g/m*3 12.1 C 0 km/h
1961 23-09-2008 19:30:02 12 C 9.38 g/m*3 12 C 0 km/h
1962 23-09-2008 19:35:02 12 C 9.38 g/m*3 12 C 0 km/h
1963 23-09-2008 19:40:02 11.9 C 9.43 g/m*3 11.9 C 0 km/h
1964 23-09-2008 19:45:02 11.8 C 9.37 g/m*3 11.8 C 0 km/h
1965 23-09-2008 19:50:02 11.8 C 9.37 g/m*3 11.8 C 0 km/h
1966 23-09-2008 19:55:02 11.8 C 9.47 g/m*3 11.8 C 0 km/h
1967 23-09-2008 20:00:02 11.8 C 9.47 g/m*3 11.8 C 0 km/h
1968 23-09-2008 20:05:02 11.8 C 9.47 g/m*3 11.8 C 0 km/h
1969 23-09-2008 20:10:02 11.8 C 9.47 g/m*3 11.8 C 0 km/h
1970 23-09-2008 20:15:02 11.7 C 9.41 g/m*3 11.7 C 0 km/h
1971 23-09-2008 20:20:02 11.7 C 9.41 g/m*3 11.7 C 0 km/h
1972 23-09-2008 20:25:03 11.7 C 9.41 g/m*3 11.7 C 0 km/h
1973 23-09-2008 20:30:03 11.8 C 9.58 g/m*3 11.8 C 0 km/h
1974 23-09-2008 20:35:02 11.7 C 9.52 g/m*3 11.7 C 0 km/h
1975 23-09-2008 20:40:02 11.7 C 9.52 g/m*3 11.7 C 0 km/h
Sensor: Nr:Datum:Temp:Abs-Feuchte:Windchill:Wind:
Aussen-T/F 1976 23-09-2008 20:45:01 11.6 C 9.46 g/m*3 11.6 C 0 km/h
1977 23-09-2008 20:50:01 11.7 C 9.52 g/m*3 11.7 C 0 km/h
1978 23-09-2008 20:55:01 11.6 C 9.46 g/m*3 11.6 C 0 km/h
1979 23-09-2008 21:00:01 11.6 C 9.46 g/m*3 11.6 C 0 km/h
1980 23-09-2008 21:05:02 11.7 C 9.62 g/m*3 11.7 C 0 km/h
1981 23-09-2008 21:10:03 11.7 C 9.62 g/m*3 11.7 C 0 km/h
1982 23-09-2008 21:15:02 11.7 C 9.62 g/m*3 11.7 C 0 km/h
1983 23-09-2008 21:20:02 11.7 C 9.62 g/m*3 11.7 C 0 km/h
1984 23-09-2008 21:25:02 11.7 C 9.62 g/m*3 11.7 C 0 km/h
1985 23-09-2008 21:30:02 11.7 C 9.62 g/m*3 11.7 C 0 km/h
1986 23-09-2008 21:35:02 11.7 C 9.62 g/m*3 11.7 C 0 km/h
1987 23-09-2008 21:40:02 11.7 C 9.62 g/m*3 11.7 C 0 km/h
1988 23-09-2008 21:45:02 11.7 C 9.62 g/m*3 11.7 C 0 km/h
1989 23-09-2008 21:50:03 11.6 C 9.56 g/m*3 11.6 C 0 km/h
1990 23-09-2008 21:55:03 11.6 C 9.56 g/m*3 11.6 C 0 km/h
1991 23-09-2008 22:00:03 11.5 C 9.5 g/m*3 11.5 C 0 km/h
1992 23-09-2008 22:05:01 11.6 C 9.56 g/m*3 11.6 C 0 km/h
1993 23-09-2008 22:10:01 11.7 C 9.62 g/m*3 11.7 C 0 km/h
1994 23-09-2008 22:15:02 11.6 C 9.56 g/m*3 11.6 C 0 km/h
1995 23-09-2008 22:20:02 11.5 C 9.5 g/m*3 11.5 C 0 km/h
1996 23-09-2008 22:25:02 11.5 C 9.5 g/m*3 11.5 C 0 km/h
1997 23-09-2008 22:30:02 11.5 C 9.5 g/m*3 11.5 C 0 km/h
1998 23-09-2008 22:36:03 11.5 C 9.5 g/m*3 11.5 C 0 km/h
1999 23-09-2008 22:41:03 11.5 C 9.5 g/m*3 11.5 C 0 km/h
2000 23-09-2008 22:46:03 11.4 C 9.44 g/m*3 11.4 C 0 km/h
Sensor: Nr:Datum:Temp:Abs-Feuchte:Windchill:Wind:
Aussen-T/F 2001 23-09-2008 22:51:03 11.5 C 9.61 g/m*3 11.5 C 0 km/h
2002 23-09-2008 22:56:03 11.5 C 9.61 g/m*3 11.5 C 0 km/h
2003 23-09-2008 23:01:03 11.5 C 9.61 g/m*3 11.5 C 0 km/h
2004 23-09-2008 23:06:03 11.6 C 9.67 g/m*3 11.6 C 0 km/h
2005 23-09-2008 23:11:03 11.6 C 9.67 g/m*3 11.6 C 0 km/h
2006 23-09-2008 23:16:03 11.6 C 9.67 g/m*3 11.6 C 0 km/h
2007 23-09-2008 23:21:03 11.6 C 9.67 g/m*3 11.6 C 0 km/h
2008 23-09-2008 23:26:03 11.5 C 9.61 g/m*3 11.5 C 0 km/h
2009 23-09-2008 23:31:03 11.4 C 9.55 g/m*3 11.4 C 0 km/h
2010 23-09-2008 23:36:03 11.4 C 9.55 g/m*3 11.4 C 0 km/h
2011 23-09-2008 23:41:03 11.4 C 9.55 g/m*3 11.4 C 0 km/h
2012 23-09-2008 23:46:03 11.4 C 9.55 g/m*3 11.4 C 0 km/h
2013 23-09-2008 23:51:03 11.3 C 9.49 g/m*3 11.3 C 0 km/h
2014 23-09-2008 23:56:03 11.3 C 9.49 g/m*3 11.3 C 0 km/h
2015 24-09-2008 00:01:03 11.3 C 9.49 g/m*3 11.3 C 0 km/h
2016 24-09-2008 00:06:03 11.2 C 9.43 g/m*3 11.2 C 0 km/h
2017 24-09-2008 00:11:04 11.2 C 9.43 g/m*3 11.2 C 0 km/h
2018 24-09-2008 00:16:04 11.2 C 9.43 g/m*3 11.2 C 0 km/h
2019 24-09-2008 00:21:04 11.2 C 9.43 g/m*3 11.2 C 0 km/h
2020 24-09-2008 00:26:04 11.2 C 9.43 g/m*3 11.2 C 0 km/h
2021 24-09-2008 00:31:04 11.2 C 9.43 g/m*3 11.2 C 0 km/h
2022 24-09-2008 00:36:04 11.2 C 9.43 g/m*3 11.2 C 0 km/h
2023 24-09-2008 00:41:04 11.2 C 9.43 g/m*3 11.2 C 0 km/h
2024 24-09-2008 00:46:04 11.2 C 9.43 g/m*3 11.2 C 0 km/h
2025 24-09-2008 00:51:04 11.3 C 9.59 g/m*3 11.3 C 0 km/h
Sensor: Nr:Datum:Temp:Abs-Feuchte:Windchill:Wind:
Aussen-T/F 2026 24-09-2008 00:56:04 11.3 C 9.59 g/m*3 11.3 C 0 km/h
2027 24-09-2008 01:01:04 11.4 C 9.65 g/m*3 11.4 C 0 km/h
2028 24-09-2008 01:06:04 11.4 C 9.65 g/m*3 11.4 C 0 km/h
2029 24-09-2008 01:11:04 11.4 C 9.65 g/m*3 11.4 C 0 km/h
2030 24-09-2008 01:16:04 11.4 C 9.65 g/m*3 11.4 C 0 km/h
2031 24-09-2008 01:21:04 11.5 C 9.71 g/m*3 11.5 C 0 km/h
2032 24-09-2008 01:26:04 11.5 C 9.71 g/m*3 11.5 C 0 km/h
2033 24-09-2008 01:31:04 11.4 C 9.65 g/m*3 11.4 C 0 km/h
2034 24-09-2008 01:36:04 11.5 C 9.71 g/m*3 11.5 C 0 km/h
2035 24-09-2008 01:41:04 11.4 C 9.65 g/m*3 11.4 C 0 km/h
2036 24-09-2008 01:46:05 11.5 C 9.71 g/m*3 11.5 C 0 km/h
2037 24-09-2008 01:51:05 11.5 C 9.71 g/m*3 11.5 C 0 km/h
2038 24-09-2008 01:56:05 11.5 C 9.71 g/m*3 11.5 C 0 km/h
2039 24-09-2008 02:01:05 11.5 C 9.71 g/m*3 11.5 C 0 km/h
2040 24-09-2008 02:06:05 11.5 C 9.71 g/m*3 11.5 C 0 km/h
2041 24-09-2008 02:11:05 11.4 C 9.65 g/m*3 11.4 C 0 km/h
2042 24-09-2008 02:16:05 11.4 C 9.65 g/m*3 11.4 C 0 km/h
2043 24-09-2008 02:21:05 11.4 C 9.65 g/m*3 11.4 C 0 km/h
2044 24-09-2008 02:26:05 11.4 C 9.65 g/m*3 11.4 C 0 km/h
2045 24-09-2008 02:31:05 11.3 C 9.59 g/m*3 11.3 C 0 km/h
2046 24-09-2008 02:36:05 11.3 C 9.59 g/m*3 11.3 C 0 km/h
2047 24-09-2008 02:41:05 11.3 C 9.59 g/m*3 11.3 C 0 km/h
2048 24-09-2008 02:46:05 11.3 C 9.59 g/m*3 11.3 C 0 km/h
2049 24-09-2008 02:51:05 11.3 C 9.59 g/m*3 11.3 C 0 km/h
2050 24-09-2008 02:56:05 11.3 C 9.59 g/m*3 11.3 C 0 km/h
Sensor: Nr:Datum:Temp:Abs-Feuchte:Windchill:Wind:
Aussen-T/F 2051 24-09-2008 03:01:05 11.3 C 9.59 g/m*3 11.3 C 0 km/h
2052 24-09-2008 03:06:05 11.2 C 9.53 g/m*3 11.2 C 0 km/h
2053 24-09-2008 03:11:05 11.2 C 9.53 g/m*3 11.2 C 0 km/h
2054 24-09-2008 03:16:05 11.2 C 9.53 g/m*3 11.2 C 0 km/h
2055 24-09-2008 03:21:05 11.2 C 9.53 g/m*3 11.2 C 0 km/h
2056 24-09-2008 03:26:06 11.1 C 9.47 g/m*3 11.1 C 0 km/h
2057 24-09-2008 03:31:06 11.1 C 9.47 g/m*3 11.1 C 0 km/h
2058 24-09-2008 03:36:06 11 C 9.41 g/m*3 11 C 0 km/h
2059 24-09-2008 03:41:06 11 C 9.41 g/m*3 11 C 0 km/h
2060 24-09-2008 03:46:06 10.8 C 9.29 g/m*3 10.8 C 0 km/h
2061 24-09-2008 03:51:06 10.7 C 9.23 g/m*3 10.7 C 0 km/h
2062 24-09-2008 03:56:06 10.7 C 9.23 g/m*3 10.7 C 0 km/h
2063 24-09-2008 04:01:06 10.7 C 9.23 g/m*3 10.7 C 0 km/h
2064 24-09-2008 04:06:06 10.8 C 9.29 g/m*3 10.8 C 0 km/h
2065 24-09-2008 04:11:06 10.8 C 9.29 g/m*3 10.8 C 0 km/h
2066 24-09-2008 04:16:06 10.8 C 9.29 g/m*3 10.8 C 0 km/h
2067 24-09-2008 04:21:06 10.9 C 9.35 g/m*3 10.9 C 0 km/h
2068 24-09-2008 04:26:06 10.9 C 9.45 g/m*3 10.9 C 0 km/h
2069 24-09-2008 04:31:06 11 C 9.41 g/m*3 11 C 0 km/h
2070 24-09-2008 04:36:06 11 C 9.41 g/m*3 11 C 0 km/h
2071 24-09-2008 04:41:06 11 C 9.41 g/m*3 11 C 0 km/h
2072 24-09-2008 04:46:06 11 C 9.41 g/m*3 11 C 0 km/h
2073 24-09-2008 04:51:06 11 C 9.41 g/m*3 11 C 0 km/h
2074 24-09-2008 04:56:06 11 C 9.41 g/m*3 11 C 0 km/h
2075 24-09-2008 05:01:07 10.9 C 9.45 g/m*3 10.9 C 0 km/h
Sensor: Nr:Datum:Temp:Abs-Feuchte:Windchill:Wind:
Aussen-T/F 2076 24-09-2008 05:06:07 10.8 C 9.39 g/m*3 10.8 C 0 km/h
2077 24-09-2008 05:11:07 10.8 C 9.39 g/m*3 10.8 C 0 km/h
2078 24-09-2008 05:16:07 10.8 C 9.39 g/m*3 10.8 C 0 km/h
2079 24-09-2008 05:21:07 10.7 C 9.33 g/m*3 10.7 C 0 km/h
2080 24-09-2008 05:26:07 10.7 C 9.33 g/m*3 10.7 C 0 km/h
2081 24-09-2008 05:31:07 10.7 C 9.33 g/m*3 10.7 C 0 km/h
2082 24-09-2008 05:36:07 10.8 C 9.39 g/m*3 10.8 C 0 km/h
2083 24-09-2008 05:41:07 10.8 C 9.39 g/m*3 10.8 C 0 km/h
2084 24-09-2008 05:46:07 10.8 C 9.39 g/m*3 10.8 C 0 km/h
2085 24-09-2008 05:51:07 10.8 C 9.39 g/m*3 10.8 C 0 km/h
2086 24-09-2008 05:56:07 10.8 C 9.39 g/m*3 10.8 C 0 km/h
2087 24-09-2008 06:01:07 10.8 C 9.39 g/m*3 10.8 C 0 km/h
2088 24-09-2008 06:06:07 10.8 C 9.39 g/m*3 10.8 C 0 km/h
2089 24-09-2008 06:11:07 10.8 C 9.39 g/m*3 10.8 C 0 km/h
2090 24-09-2008 06:16:07 10.8 C 9.39 g/m*3 10.8 C 0 km/h
2091 24-09-2008 06:21:07 10.8 C 9.39 g/m*3 10.8 C 0 km/h
2092 24-09-2008 06:26:07 10.8 C 9.39 g/m*3 10.8 C 0 km/h
2093 24-09-2008 06:31:07 10.8 C 9.39 g/m*3 10.8 C 0 km/h
2094 24-09-2008 06:36:07 10.8 C 9.39 g/m*3 10.8 C 0 km/h
2095 24-09-2008 06:41:08 10.8 C 9.39 g/m*3 10.8 C 0 km/h
2096 24-09-2008 06:46:08 10.8 C 9.39 g/m*3 10.8 C 0 km/h
2097 24-09-2008 06:51:08 10.9 C 9.45 g/m*3 10.9 C 0 km/h
2098 24-09-2008 06:56:08 10.9 C 9.45 g/m*3 10.9 C 0 km/h
2099 24-09-2008 07:01:03 10.9 C 9.45 g/m*3 10.9 C 0 km/h
2100 24-09-2008 07:06:03 10.9 C 9.45 g/m*3 10.9 C 0 km/h
Sensor: Nr:Datum:Temp:Abs-Feuchte:Windchill:Wind:
Aussen-T/F 2101 24-09-2008 07:11:03 10.9 C 9.45 g/m*3 10.9 C 0 km/h
2102 24-09-2008 07:16:02 10.9 C 9.45 g/m*3 10.9 C 0 km/h
2103 24-09-2008 07:21:02 10.9 C 9.45 g/m*3 10.9 C 0 km/h
2104 24-09-2008 07:26:02 10.9 C 9.45 g/m*3 10.9 C 0 km/h
2105 24-09-2008 07:31:03 10.9 C 9.45 g/m*3 10.9 C 0 km/h
2106 24-09-2008 07:36:03 11 C 9.51 g/m*3 11 C 0 km/h
2107 24-09-2008 07:41:03 11 C 9.51 g/m*3 11 C 0 km/h
2108 24-09-2008 07:46:02 11 C 9.51 g/m*3 11 C 0 km/h
2109 24-09-2008 07:51:02 11 C 9.51 g/m*3 11 C 0 km/h
2110 24-09-2008 07:56:02 11 C 9.51 g/m*3 11 C 0 km/h
2111 24-09-2008 08:01:02 11 C 9.51 g/m*3 11 C 0 km/h
2112 24-09-2008 08:06:02 11.1 C 9.57 g/m*3 11.1 C 0 km/h
2113 24-09-2008 08:11:02 11.1 C 9.57 g/m*3 11.1 C 0 km/h
2114 24-09-2008 08:16:03 11.1 C 9.57 g/m*3 11.1 C 0 km/h
2115 24-09-2008 08:21:03 11.1 C 9.57 g/m*3 11.1 C 0 km/h
2116 24-09-2008 08:26:03 11.2 C 9.63 g/m*3 11.2 C 0 km/h
2117 24-09-2008 08:31:02 11.2 C 9.63 g/m*3 11.2 C 0 km/h
2118 24-09-2008 08:36:02 11.3 C 9.69 g/m*3 11.3 C 0 km/h
2119 24-09-2008 08:41:02 11.4 C 9.75 g/m*3 11.4 C 0 km/h
2120 24-09-2008 08:46:01 11.4 C 9.75 g/m*3 11.4 C 0 km/h
2121 24-09-2008 08:51:01 11.5 C 9.81 g/m*3 11.5 C 0 km/h
2122 24-09-2008 08:56:01 11.6 C 9.87 g/m*3 11.6 C 0 km/h
2123 24-09-2008 09:01:02 11.6 C 9.87 g/m*3 11.6 C 0 km/h
2124 24-09-2008 09:06:02 11.6 C 9.87 g/m*3 11.6 C 0 km/h
2125 24-09-2008 09:11:02 11.7 C 9.94 g/m*3 11.7 C 0 km/h
Sensor: Nr:Datum:Temp:Abs-Feuchte:Windchill:Wind:
Aussen-T/F 2126 24-09-2008 09:16:01 11.8 C 10 g/m*3 11.8 C 0 km/h
2127 24-09-2008 09:21:01 12 C 10.02 g/m*3 12 C 0 km/h
2128 24-09-2008 09:26:01 12.2 C 10.14 g/m*3 12.2 C 0 km/h
2129 24-09-2008 09:31:01 12.3 C 10.21 g/m*3 12.3 C 0 km/h
2130 24-09-2008 09:36:01 12.4 C 10.27 g/m*3 12.4 C 0 km/h
2131 24-09-2008 09:41:01 12.4 C 10.27 g/m*3 12.4 C 0 km/h
2132 24-09-2008 09:46:01 12.4 C 10.16 g/m*3 12.4 C 0 km/h
2133 24-09-2008 09:51:01 12.4 C 10.16 g/m*3 12.4 C 0 km/h
2134 24-09-2008 09:56:01 12.5 C 10.22 g/m*3 12.5 C 0 km/h
2135 24-09-2008 10:01:02 12.7 C 10.35 g/m*3 12.7 C 0 km/h
2136 24-09-2008 10:06:03 12.8 C 10.42 g/m*3 12.8 C 0 km/h
2137 24-09-2008 10:11:03 13 C 10.43 g/m*3 13 C 0 km/h
2138 24-09-2008 10:16:01 13.1 C 10.5 g/m*3 13.1 C 0 km/h
2139 24-09-2008 10:21:01 13.2 C 10.56 g/m*3 13.2 C 0 km/h
2140 24-09-2008 10:26:01 13.3 C 10.51 g/m*3 13.3 C 0 km/h
2141 24-09-2008 10:31:02 13.6 C 10.71 g/m*3 13.6 C 0 km/h
2142 24-09-2008 10:36:02 13.6 C 10.59 g/m*3 13.6 C 0 km/h
2143 24-09-2008 10:41:02 13.7 C 10.66 g/m*3 13.7 C 0 km/h
2144 24-09-2008 10:46:02 13.8 C 10.6 g/m*3 13.8 C 0 km/h
2145 24-09-2008 10:51:03 14 C 10.61 g/m*3 14 C 0 km/h
2146 24-09-2008 10:56:03 14 C 10.61 g/m*3 14 C 0 km/h
2147 24-09-2008 11:01:02 13.9 C 10.55 g/m*3 13.9 C 0 km/h
2148 24-09-2008 11:06:02 13.9 C 10.55 g/m*3 13.9 C 0 km/h
2149 24-09-2008 11:11:02 13.8 C 10.37 g/m*3 13.8 C 0 km/h
2150 24-09-2008 11:16:02 13.9 C 10.31 g/m*3 13.9 C 0 km/h
Sensor: Nr:Datum:Temp:Abs-Feuchte:Windchill:Wind:
Aussen-T/F 2151 24-09-2008 11:21:02 14.1 C 10.32 g/m*3 14.1 C 0 km/h
2152 24-09-2008 11:26:02 14.2 C 10.26 g/m*3 14.2 C 0 km/h
2153 24-09-2008 11:31:02 14.4 C 10.38 g/m*3 14.4 C 0 km/h
2154 24-09-2008 11:36:02 14.4 C 10.26 g/m*3 14.4 C 0 km/h
2155 24-09-2008 11:41:02 14.5 C 10.07 g/m*3 14.5 C 0 km/h
2156 24-09-2008 11:46:02 14.5 C 9.95 g/m*3 14.5 C 0 km/h
2157 24-09-2008 11:51:02 14.8 C 10.13 g/m*3 14.8 C 0 km/h
2158 24-09-2008 11:56:02 15.2 C 10.12 g/m*3 15.2 C 0 km/h
2159 24-09-2008 12:01:02 15.2 C 9.86 g/m*3 15.2 C 0 km/h
2160 24-09-2008 12:06:02 15.1 C 9.16 g/m*3 15.1 C 0 km/h
2161 24-09-2008 12:11:02 15.5 C 9.12 g/m*3 15.5 C 0 km/h
2162 24-09-2008 12:16:02 15.6 C 9.18 g/m*3 15.6 C 0 km/h
2163 24-09-2008 12:21:02 15.8 C 9.29 g/m*3 15.8 C 0 km/h
2164 24-09-2008 12:26:02 16 C 8.99 g/m*3 16 C 0 km/h
2165 24-09-2008 12:31:02 16.2 C 8.69 g/m*3 16.2 C 0 km/h
2166 24-09-2008 12:36:02 16.1 C 8.64 g/m*3 16.1 C 0 km/h
2167 24-09-2008 12:41:02 16.4 C 8.65 g/m*3 16.4 C 0 km/h
2168 24-09-2008 12:46:02 16.3 C 8.05 g/m*3 16.3 C 0 km/h
2169 24-09-2008 12:51:02 16.3 C 8.05 g/m*3 16.3 C 0 km/h
2170 24-09-2008 12:56:02 16.4 C 8.51 g/m*3 16.4 C 0 km/h
2171 24-09-2008 13:01:01 16.7 C 8.67 g/m*3 16.7 C 0 km/h
2172 24-09-2008 13:06:01 16.7 C 8.53 g/m*3 16.7 C 0 km/h
2173 24-09-2008 13:11:01 17 C 8.54 g/m*3 17 C 0 km/h
2174 24-09-2008 13:16:02 17.4 C 8.45 g/m*3 17.4 C 0 km/h
2175 24-09-2008 13:21:02 17.4 C 7.85 g/m*3 17.4 C 0 km/h
Sensor: Nr:Datum:Temp:Abs-Feuchte:Windchill:Wind:
Aussen-T/F 2176 24-09-2008 13:26:02 17.5 C 8.2 g/m*3 17.5 C 0 km/h
2177 24-09-2008 13:31:01 17.5 C 7.75 g/m*3 17.5 C 0 km/h
2178 24-09-2008 13:36:01 17.3 C 7.81 g/m*3 17.3 C 0 km/h
2179 24-09-2008 13:41:01 17.4 C 8 g/m*3 17.4 C 0 km/h
2180 24-09-2008 13:46:01 17.6 C 8.1 g/m*3 17.6 C 0 km/h
2181 24-09-2008 13:51:01 17.9 C 8.09 g/m*3 17.9 C 0 km/h
2182 24-09-2008 13:56:01 18.1 C 8.03 g/m*3 18.1 C 0 km/h
2183 24-09-2008 14:01:02 18.2 C 7.77 g/m*3 18.2 C 0 km/h
2184 24-09-2008 14:06:02 18.4 C 7.71 g/m*3 18.4 C 0 km/h
2185 24-09-2008 14:11:02 18.6 C 7.8 g/m*3 18.6 C 0 km/h
2186 24-09-2008 14:16:01 18.7 C 7.52 g/m*3 18.7 C 0 km/h
2187 24-09-2008 14:21:01 18.8 C 7.73 g/m*3 18.8 C 0 km/h
2188 24-09-2008 14:26:01 18.7 C 7.52 g/m*3 18.7 C 0 km/h
2189 24-09-2008 14:31:02 18.7 C 7.68 g/m*3 18.7 C 0 km/h
2190 24-09-2008 14:36:02 18.6 C 7.8 g/m*3 18.6 C 0 km/h
2191 24-09-2008 14:41:02 18.5 C 7.44 g/m*3 18.5 C 0 km/h
2192 24-09-2008 14:46:02 18.4 C 7.39 g/m*3 18.4 C 0 km/h
2193 24-09-2008 14:51:02 18.1 C 7.57 g/m*3 18.1 C 0 km/h
2194 24-09-2008 14:56:02 17.7 C 7.69 g/m*3 17.7 C 0 km/h
2195 24-09-2008 15:01:02 17.6 C 7.65 g/m*3 17.6 C 0 km/h
2196 24-09-2008 15:06:02 17.3 C 7.66 g/m*3 17.3 C 0 km/h
2197 24-09-2008 15:11:02 16.9 C 7.77 g/m*3 16.9 C 0 km/h
2198 24-09-2008 15:16:02 16.6 C 7.77 g/m*3 16.6 C 0 km/h
2199 24-09-2008 15:21:02 16.2 C 8 g/m*3 16.2 C 0 km/h
2200 24-09-2008 15:26:02 16 C 8.04 g/m*3 16 C 0 km/h
Sensor: Nr:Datum:Temp:Abs-Feuchte:Windchill:Wind:
Aussen-T/F 2201 24-09-2008 15:31:02 16 C 8.31 g/m*3 16 C 0 km/h
2202 24-09-2008 15:36:02 16 C 8.31 g/m*3 16 C 0 km/h
2203 24-09-2008 15:41:02 16.2 C 8.27 g/m*3 16.2 C 0 km/h
2204 24-09-2008 15:46:01 16.3 C 8.19 g/m*3 16.3 C 0 km/h
2205 24-09-2008 15:51:01 16.3 C 8.19 g/m*3 16.3 C 0 km/h
2206 24-09-2008 15:56:01 16.4 C 8.23 g/m*3 16.4 C 0 km/h
2207 24-09-2008 16:01:02 16.4 C 8.1 g/m*3 16.4 C 0 km/h
2208 24-09-2008 16:06:02 16.4 C 8.1 g/m*3 16.4 C 0 km/h
2209 24-09-2008 16:11:02 16.4 C 8.23 g/m*3 16.4 C 0 km/h
2210 24-09-2008 16:16:01 16.3 C 8.05 g/m*3 16.3 C 0 km/h
2211 24-09-2008 16:21:01 16.3 C 8.32 g/m*3 16.3 C 0 km/h
2212 24-09-2008 16:26:01 16.2 C 8.14 g/m*3 16.2 C 0 km/h
2213 24-09-2008 16:31:02 16.2 C 8.14 g/m*3 16.2 C 0 km/h
2214 24-09-2008 16:36:02 16 C 8.04 g/m*3 16 C 0 km/h
2215 24-09-2008 16:41:02 16 C 8.04 g/m*3 16 C 0 km/h
2216 24-09-2008 16:46:02 15.9 C 8.26 g/m*3 15.9 C 0 km/h
2217 24-09-2008 16:51:02 15.8 C 8.35 g/m*3 15.8 C 0 km/h
2218 24-09-2008 16:56:02 15.8 C 8.35 g/m*3 15.8 C 0 km/h
2219 24-09-2008 17:01:02 15.7 C 8.43 g/m*3 15.7 C 0 km/h
2220 24-09-2008 17:06:02 15.7 C 8.43 g/m*3 15.7 C 0 km/h
2221 24-09-2008 17:11:02 15.8 C 8.48 g/m*3 15.8 C 0 km/h
2222 24-09-2008 17:16:02 15.8 C 8.62 g/m*3 15.8 C 0 km/h
2223 24-09-2008 17:21:02 15.8 C 8.75 g/m*3 15.8 C 0 km/h
2224 24-09-2008 17:26:02 15.8 C 9.02 g/m*3 15.8 C 0 km/h
2225 24-09-2008 17:31:02 15.8 C 9.02 g/m*3 15.8 C 0 km/h
Sensor: Nr:Datum:Temp:Abs-Feuchte:Windchill:Wind:
Aussen-T/F 2226 24-09-2008 17:36:02 15.7 C 8.96 g/m*3 15.7 C 0 km/h
2227 24-09-2008 17:41:03 15.6 C 9.04 g/m*3 15.6 C 0 km/h
2228 24-09-2008 17:46:02 15.6 C 9.04 g/m*3 15.6 C 0 km/h
2229 24-09-2008 17:51:02 15.6 C 9.04 g/m*3 15.6 C 0 km/h
2230 24-09-2008 17:56:02 15.6 C 9.04 g/m*3 15.6 C 0 km/h
2231 24-09-2008 18:01:02 15.5 C 8.99 g/m*3 15.5 C 0 km/h
2232 24-09-2008 18:06:02 15.4 C 9.07 g/m*3 15.4 C 0 km/h
2233 24-09-2008 18:11:02 15.2 C 8.96 g/m*3 15.2 C 0 km/h
2234 24-09-2008 18:16:02 15 C 8.85 g/m*3 15 C 0 km/h
2235 24-09-2008 18:21:02 14.8 C 9.12 g/m*3 14.8 C 0 km/h
2236 24-09-2008 18:26:02 14.8 C 8.74 g/m*3 14.8 C 0 km/h
2237 24-09-2008 18:31:02 14.7 C 8.81 g/m*3 14.7 C 0 km/h
2238 24-09-2008 18:36:02 14.7 C 8.81 g/m*3 14.7 C 0 km/h
2239 24-09-2008 18:41:02 14.6 C 8.76 g/m*3 14.6 C 0 km/h
2240 24-09-2008 18:46:02 14.7 C 8.81 g/m*3 14.7 C 0 km/h
2241 24-09-2008 18:51:02 14.5 C 8.71 g/m*3 14.5 C 0 km/h
2242 24-09-2008 18:56:02 14.3 C 8.6 g/m*3 14.3 C 0 km/h
2243 24-09-2008 19:01:02 14.2 C 8.67 g/m*3 14.2 C 0 km/h
2244 24-09-2008 19:06:02 14.1 C 8.74 g/m*3 14.1 C 0 km/h
2245 24-09-2008 19:11:02 14.2 C 8.79 g/m*3 14.2 C 0 km/h
2246 24-09-2008 19:16:02 14.1 C 8.74 g/m*3 14.1 C 0 km/h
2247 24-09-2008 19:21:02 14 C 8.81 g/m*3 14 C 0 km/h
2248 24-09-2008 19:26:02 13.9 C 8.87 g/m*3 13.9 C 0 km/h
2249 24-09-2008 19:31:03 13.4 C 8.95 g/m*3 13.4 C 0 km/h
2250 24-09-2008 19:36:03 13 C 8.85 g/m*3 13 C 0 km/h
Sensor: Nr:Datum:Temp:Abs-Feuchte:Windchill:Wind:
Aussen-T/F 2251 24-09-2008 19:41:03 13 C 8.96 g/m*3 13 C 0 km/h
2252 24-09-2008 19:46:03 12.8 C 9.07 g/m*3 12.8 C 0 km/h
2253 24-09-2008 19:51:03 12.8 C 9.18 g/m*3 12.8 C 0 km/h
2254 24-09-2008 19:56:03 12.8 C 9.18 g/m*3 12.8 C 0 km/h
2255 24-09-2008 20:01:02 12.8 C 9.18 g/m*3 12.8 C 0 km/h
2256 24-09-2008 20:06:02 12.8 C 9.18 g/m*3 12.8 C 0 km/h
2257 24-09-2008 20:11:02 12.8 C 9.18 g/m*3 12.8 C 0 km/h
2258 24-09-2008 20:16:02 12.8 C 9.18 g/m*3 12.8 C 0 km/h
2259 24-09-2008 20:21:02 12.9 C 9.24 g/m*3 12.9 C 0 km/h
2260 24-09-2008 20:26:02 12.9 C 9.24 g/m*3 12.9 C 0 km/h
2261 24-09-2008 20:31:03 12.9 C 9.24 g/m*3 12.9 C 0 km/h
2262 24-09-2008 20:36:03 13 C 9.19 g/m*3 13 C 0 km/h
2263 24-09-2008 20:41:03 13 C 9.19 g/m*3 13 C 0 km/h
2264 24-09-2008 20:46:02 13 C 9.19 g/m*3 13 C 0 km/h
2265 24-09-2008 20:51:02 13 C 9.19 g/m*3 13 C 0 km/h
2266 24-09-2008 20:56:02 13.1 C 9.24 g/m*3 13.1 C 0 km/h
2267 24-09-2008 21:01:03 13 C 9.19 g/m*3 13 C 0 km/h
2268 24-09-2008 21:06:03 13 C 9.19 g/m*3 13 C 0 km/h
2269 24-09-2008 21:11:03 13 C 9.19 g/m*3 13 C 0 km/h
2270 24-09-2008 21:16:02 12.9 C 9.13 g/m*3 12.9 C 0 km/h
2271 24-09-2008 21:21:02 12.9 C 9.13 g/m*3 12.9 C 0 km/h
2272 24-09-2008 21:26:02 12.9 C 9.13 g/m*3 12.9 C 0 km/h
2273 24-09-2008 21:31:03 12.9 C 9.13 g/m*3 12.9 C 0 km/h
2274 24-09-2008 21:36:03 12.9 C 9.13 g/m*3 12.9 C 0 km/h
2275 24-09-2008 21:41:03 13 C 9.07 g/m*3 13 C 0 km/h
Sensor: Nr:Datum:Temp:Abs-Feuchte:Windchill:Wind:
Aussen-T/F 2276 24-09-2008 21:47:02 12.9 C 9.02 g/m*3 12.9 C 0 km/h
2277 24-09-2008 21:52:03 12.9 C 9.02 g/m*3 12.9 C 0 km/h
2278 24-09-2008 21:57:03 12.9 C 9.02 g/m*3 12.9 C 0 km/h
2279 24-09-2008 22:02:03 12.8 C 8.85 g/m*3 12.8 C 0 km/h
2280 24-09-2008 22:07:03 12.8 C 8.85 g/m*3 12.8 C 0 km/h
2281 24-09-2008 22:12:03 12.8 C 8.74 g/m*3 12.8 C 0 km/h
2282 24-09-2008 22:17:03 12.8 C 8.74 g/m*3 12.8 C 0 km/h
2283 24-09-2008 22:22:03 12.8 C 8.74 g/m*3 12.8 C 0 km/h
2284 24-09-2008 22:27:03 12.8 C 8.74 g/m*3 12.8 C 0 km/h
2285 24-09-2008 22:32:03 12.8 C 8.74 g/m*3 12.8 C 0 km/h
2286 24-09-2008 22:37:03 12.8 C 8.74 g/m*3 12.8 C 0 km/h
2287 24-09-2008 22:42:03 12.8 C 8.74 g/m*3 12.8 C 0 km/h
2288 24-09-2008 22:47:03 12.8 C 8.74 g/m*3 12.8 C 0 km/h
2289 24-09-2008 22:52:03 12.8 C 8.74 g/m*3 12.8 C 0 km/h
2290 24-09-2008 22:57:03 12.8 C 8.74 g/m*3 12.8 C 0 km/h
2291 24-09-2008 23:02:03 12.8 C 8.74 g/m*3 12.8 C 0 km/h
2292 24-09-2008 23:07:03 12.8 C 8.74 g/m*3 12.8 C 0 km/h
2293 24-09-2008 23:12:03 12.8 C 8.74 g/m*3 12.8 C 0 km/h
2294 24-09-2008 23:17:03 12.7 C 8.68 g/m*3 12.7 C 0 km/h
2295 24-09-2008 23:22:03 12.7 C 8.79 g/m*3 12.7 C 0 km/h
2296 24-09-2008 23:27:03 12.7 C 8.79 g/m*3 12.7 C 0 km/h
2297 24-09-2008 23:32:04 12.7 C 8.79 g/m*3 12.7 C 0 km/h
2298 24-09-2008 23:37:04 12.7 C 8.79 g/m*3 12.7 C 0 km/h
2299 24-09-2008 23:42:04 12.7 C 8.79 g/m*3 12.7 C 0 km/h
2300 24-09-2008 23:47:04 12.7 C 8.68 g/m*3 12.7 C 0 km/h
Sensor: Nr:Datum:Temp:Abs-Feuchte:Windchill:Wind:
Aussen-T/F 2301 24-09-2008 23:52:04 12.6 C 8.74 g/m*3 12.6 C 0 km/h
2302 24-09-2008 23:57:04 12.6 C 8.74 g/m*3 12.6 C 0 km/h
2303 25-09-2008 00:02:04 12.5 C 8.69 g/m*3 12.5 C 0 km/h
2304 25-09-2008 00:07:04 12.5 C 8.69 g/m*3 12.5 C 0 km/h
2305 25-09-2008 00:12:04 12.4 C 8.63 g/m*3 12.4 C 0 km/h
2306 25-09-2008 00:17:04 12.2 C 8.52 g/m*3 12.2 C 0 km/h
2307 25-09-2008 00:22:04 12.2 C 8.52 g/m*3 12.2 C 0 km/h
2308 25-09-2008 00:27:04 12.2 C 8.52 g/m*3 12.2 C 0 km/h
2309 25-09-2008 00:32:04 12.2 C 8.52 g/m*3 12.2 C 0 km/h
2310 25-09-2008 00:37:04 12.2 C 8.52 g/m*3 12.2 C 0 km/h
2311 25-09-2008 00:42:04 12.2 C 8.52 g/m*3 12.2 C 0 km/h
2312 25-09-2008 00:47:04 12.2 C 8.52 g/m*3 12.2 C 0 km/h
2313 25-09-2008 00:52:04 12.2 C 8.52 g/m*3 12.2 C 0 km/h
2314 25-09-2008 00:57:04 12.2 C 8.52 g/m*3 12.2 C 0 km/h
2315 25-09-2008 01:02:04 12.2 C 8.52 g/m*3 12.2 C 0 km/h
2316 25-09-2008 01:07:05 12.2 C 8.52 g/m*3 12.2 C 0 km/h
2317 25-09-2008 01:12:05 12 C 8.31 g/m*3 12 C 0 km/h
2318 25-09-2008 01:17:05 11.8 C 8.31 g/m*3 11.8 C 0 km/h
2319 25-09-2008 01:22:05 11.7 C 8.37 g/m*3 11.7 C 0 km/h
2320 25-09-2008 01:27:05 11.6 C 8.32 g/m*3 11.6 C 0 km/h
2321 25-09-2008 01:32:05 11.5 C 8.26 g/m*3 11.5 C 0 km/h
2322 25-09-2008 01:37:05 11.3 C 8.16 g/m*3 11.3 C 0 km/h
2323 25-09-2008 01:42:05 11.2 C 8.11 g/m*3 11.2 C 0 km/h
2324 25-09-2008 01:47:05 11.2 C 8.21 g/m*3 11.2 C 0 km/h
2325 25-09-2008 01:52:05 11.2 C 8.31 g/m*3 11.2 C 0 km/h
Sensor: Nr:Datum:Temp:Abs-Feuchte:Windchill:Wind:
Aussen-T/F 2326 25-09-2008 01:57:05 11.2 C 8.31 g/m*3 11.2 C 0 km/h
2327 25-09-2008 02:02:05 11.3 C 8.36 g/m*3 11.3 C 0 km/h
2328 25-09-2008 02:07:05 11.3 C 8.36 g/m*3 11.3 C 0 km/h
2329 25-09-2008 02:12:05 11.3 C 8.36 g/m*3 11.3 C 0 km/h
2330 25-09-2008 02:17:05 11.3 C 8.36 g/m*3 11.3 C 0 km/h
2331 25-09-2008 02:22:05 11.3 C 8.36 g/m*3 11.3 C 0 km/h
2332 25-09-2008 02:27:05 11.3 C 8.36 g/m*3 11.3 C 0 km/h
2333 25-09-2008 02:32:05 11.2 C 8.31 g/m*3 11.2 C 0 km/h
2334 25-09-2008 02:37:05 11.1 C 8.26 g/m*3 11.1 C 0 km/h
2335 25-09-2008 02:42:06 11 C 8.21 g/m*3 11 C 0 km/h
2336 25-09-2008 02:47:06 11 C 8.21 g/m*3 11 C 0 km/h
2337 25-09-2008 02:52:06 10.8 C 8.2 g/m*3 10.8 C 0 km/h
2338 25-09-2008 02:57:06 10.6 C 8.1 g/m*3 10.6 C 0 km/h
2339 25-09-2008 03:02:06 10.6 C 8.2 g/m*3 10.6 C 0 km/h
2340 25-09-2008 03:07:06 10.4 C 8.1 g/m*3 10.4 C 0 km/h
2341 25-09-2008 03:12:06 10.3 C 8.04 g/m*3 10.3 C 0 km/h
2342 25-09-2008 03:17:06 10.1 C 7.94 g/m*3 10.1 C 0 km/h
2343 25-09-2008 03:22:06 10 C 7.99 g/m*3 10 C 0 km/h
2344 25-09-2008 03:27:06 9.9 C 8.03 g/m*3 9.9 C 0 km/h
2345 25-09-2008 03:32:06 9.9 C 8.03 g/m*3 9.9 C 0 km/h
2346 25-09-2008 03:37:06 9.8 C 8.07 g/m*3 9.8 C 0 km/h
2347 25-09-2008 03:42:06 9.8 C 8.07 g/m*3 9.8 C 0 km/h
2348 25-09-2008 03:47:06 9.7 C 8.02 g/m*3 9.7 C 0 km/h
2349 25-09-2008 03:52:06 9.7 C 8.02 g/m*3 9.7 C 0 km/h
2350 25-09-2008 03:57:06 9.6 C 7.97 g/m*3 9.6 C 0 km/h
Sensor: Nr:Datum:Temp:Abs-Feuchte:Windchill:Wind:
Aussen-T/F 2351 25-09-2008 04:02:06 9.5 C 8.01 g/m*3 9.5 C 0 km/h
2352 25-09-2008 04:07:06 9.4 C 7.96 g/m*3 9.4 C 0 km/h
2353 25-09-2008 04:12:06 9.4 C 7.96 g/m*3 9.4 C 0 km/h
2354 25-09-2008 04:17:06 9.3 C 7.91 g/m*3 9.3 C 0 km/h
2355 25-09-2008 04:22:07 9.3 C 7.91 g/m*3 9.3 C 0 km/h
2356 25-09-2008 04:27:07 9.1 C 7.81 g/m*3 9.1 C 0 km/h
2357 25-09-2008 04:32:07 9.1 C 7.81 g/m*3 9.1 C 0 km/h
2358 25-09-2008 04:37:07 9.1 C 7.81 g/m*3 9.1 C 0 km/h
2359 25-09-2008 04:42:07 9.1 C 7.9 g/m*3 9.1 C 0 km/h
2360 25-09-2008 04:47:07 9.1 C 7.9 g/m*3 9.1 C 0 km/h
2361 25-09-2008 04:52:07 9 C 7.85 g/m*3 9 C 0 km/h
2362 25-09-2008 04:57:07 8.9 C 7.88 g/m*3 8.9 C 0 km/h
2363 25-09-2008 05:02:07 8.8 C 7.75 g/m*3 8.8 C 0 km/h
2364 25-09-2008 05:07:07 8.8 C 7.83 g/m*3 8.8 C 0 km/h
2365 25-09-2008 05:12:07 8.7 C 7.78 g/m*3 8.7 C 0 km/h
2366 25-09-2008 05:17:07 8.7 C 7.78 g/m*3 8.7 C 0 km/h
2367 25-09-2008 05:22:07 8.6 C 7.73 g/m*3 8.6 C 0 km/h
2368 25-09-2008 05:27:07 8.6 C 7.73 g/m*3 8.6 C 0 km/h
2369 25-09-2008 05:32:07 8.6 C 7.73 g/m*3 8.6 C 0 km/h
2370 25-09-2008 05:37:07 8.6 C 7.73 g/m*3 8.6 C 0 km/h
2371 25-09-2008 05:42:07 8.7 C 7.87 g/m*3 8.7 C 0 km/h
2372 25-09-2008 05:47:07 8.7 C 7.87 g/m*3 8.7 C 0 km/h
2373 25-09-2008 05:52:07 8.7 C 7.87 g/m*3 8.7 C 0 km/h
2374 25-09-2008 05:57:08 8.7 C 7.87 g/m*3 8.7 C 0 km/h
2375 25-09-2008 06:02:08 8.8 C 7.92 g/m*3 8.8 C 0 km/h
Sensor: Nr:Datum:Temp:Abs-Feuchte:Windchill:Wind:
Aussen-T/F 2376 25-09-2008 06:07:08 8.8 C 7.92 g/m*3 8.8 C 0 km/h
2377 25-09-2008 06:12:08 8.8 C 7.92 g/m*3 8.8 C 0 km/h
2378 25-09-2008 06:17:08 8.8 C 8.01 g/m*3 8.8 C 0 km/h
2379 25-09-2008 06:22:08 8.8 C 8.01 g/m*3 8.8 C 0 km/h
2380 25-09-2008 06:27:08 8.7 C 7.87 g/m*3 8.7 C 0 km/h
2381 25-09-2008 06:32:08 8.7 C 7.87 g/m*3 8.7 C 0 km/h
2382 25-09-2008 06:37:08 8.6 C 7.82 g/m*3 8.6 C 0 km/h
2383 25-09-2008 06:42:08 8.6 C 7.82 g/m*3 8.6 C 0 km/h
2384 25-09-2008 06:47:08 8.5 C 7.77 g/m*3 8.5 C 0 km/h
2385 25-09-2008 06:52:08 8.5 C 7.77 g/m*3 8.5 C 0 km/h
2386 25-09-2008 06:57:08 8.4 C 7.72 g/m*3 8.4 C 0 km/h
2387 25-09-2008 07:02:02 8.4 C 7.72 g/m*3 8.4 C 0 km/h
2388 25-09-2008 07:07:02 8.2 C 7.62 g/m*3 8.2 C 0 km/h
2389 25-09-2008 07:12:02 8.2 C 7.62 g/m*3 8.2 C 0 km/h
2390 25-09-2008 07:17:02 8.1 C 7.57 g/m*3 8.1 C 0 km/h
2391 25-09-2008 07:22:02 8 C 7.52 g/m*3 8 C 0 km/h
2392 25-09-2008 07:27:02 8 C 7.52 g/m*3 8 C 0 km/h
2393 25-09-2008 07:32:02 8 C 7.52 g/m*3 8 C 0 km/h
2394 25-09-2008 07:37:02 8.1 C 7.57 g/m*3 8.1 C 0 km/h
2395 25-09-2008 07:42:02 8 C 7.52 g/m*3 8 C 0 km/h
2396 25-09-2008 07:47:02 8 C 7.52 g/m*3 8 C 0 km/h
2397 25-09-2008 07:52:02 8 C 7.52 g/m*3 8 C 0 km/h
2398 25-09-2008 07:57:02 8 C 7.52 g/m*3 8 C 0 km/h
2399 25-09-2008 08:02:01 8 C 7.52 g/m*3 8 C 0 km/h
2400 25-09-2008 08:07:01 8 C 7.52 g/m*3 8 C 0 km/h
Sensor: Nr:Datum:Temp:Abs-Feuchte:Windchill:Wind:
Aussen-T/F 2401 25-09-2008 08:12:01 8.1 C 7.66 g/m*3 8.1 C 0 km/h
2402 25-09-2008 08:17:02 8.2 C 7.7 g/m*3 8.2 C 0 km/h
2403 25-09-2008 08:22:02 8.3 C 7.75 g/m*3 8.3 C 0 km/h
2404 25-09-2008 08:27:02 8.4 C 7.8 g/m*3 8.4 C 0 km/h
2405 25-09-2008 08:32:01 8.6 C 7.91 g/m*3 8.6 C 0 km/h
2406 25-09-2008 08:37:01 8.7 C 7.96 g/m*3 8.7 C 0 km/h
2407 25-09-2008 08:42:01 9 C 8.11 g/m*3 9 C 0 km/h
2408 25-09-2008 08:47:01 9.1 C 8.16 g/m*3 9.1 C 0 km/h
2409 25-09-2008 08:52:01 9.1 C 8.16 g/m*3 9.1 C 0 km/h
2410 25-09-2008 08:57:01 9.3 C 8.27 g/m*3 9.3 C 0 km/h
2411 25-09-2008 09:02:02 9.3 C 8.27 g/m*3 9.3 C 0 km/h
2412 25-09-2008 09:07:02 9.3 C 8.27 g/m*3 9.3 C 0 km/h
2413 25-09-2008 09:12:02 9.4 C 8.32 g/m*3 9.4 C 0 km/h
2414 25-09-2008 09:17:02 10 C 8.55 g/m*3 10 C 0 km/h
2415 25-09-2008 09:22:02 9.9 C 8.59 g/m*3 9.9 C 0 km/h
2416 25-09-2008 09:27:02 9.8 C 8.54 g/m*3 9.8 C 0 km/h
2417 25-09-2008 09:32:02 10 C 8.55 g/m*3 10 C 0 km/h
2418 25-09-2008 09:37:02 10.4 C 8.77 g/m*3 10.4 C 0 km/h
2419 25-09-2008 09:42:02 10.5 C 8.83 g/m*3 10.5 C 0 km/h
2420 25-09-2008 09:47:02 10.5 C 8.83 g/m*3 10.5 C 0 km/h
2421 25-09-2008 09:52:02 10.4 C 8.67 g/m*3 10.4 C 0 km/h
2422 25-09-2008 09:57:02 10.4 C 8.67 g/m*3 10.4 C 0 km/h
2423 25-09-2008 10:02:01 10.4 C 8.58 g/m*3 10.4 C 0 km/h
2424 25-09-2008 10:07:01 10.4 C 8.48 g/m*3 10.4 C 0 km/h
2425 25-09-2008 10:12:01 10.5 C 8.53 g/m*3 10.5 C 0 km/h
Sensor: Nr:Datum:Temp:Abs-Feuchte:Windchill:Wind:
Aussen-T/F 2426 25-09-2008 10:17:02 10.6 C 8.49 g/m*3 10.6 C 0 km/h
2427 25-09-2008 10:22:02 10.8 C 8.6 g/m*3 10.8 C 0 km/h
2428 25-09-2008 10:27:02 11 C 8.61 g/m*3 11 C 0 km/h
2429 25-09-2008 10:32:01 11.1 C 8.66 g/m*3 11.1 C 0 km/h
2430 25-09-2008 10:37:01 11.4 C 8.83 g/m*3 11.4 C 0 km/h
2431 25-09-2008 10:42:02 11.5 C 8.78 g/m*3 11.5 C 0 km/h
2432 25-09-2008 10:47:02 11.8 C 8.84 g/m*3 11.8 C 0 km/h
2433 25-09-2008 10:52:02 11.9 C 8.9 g/m*3 11.9 C 0 km/h
2434 25-09-2008 10:57:02 12.4 C 9.07 g/m*3 12.4 C 0 km/h
2435 25-09-2008 11:02:02 12.4 C 8.96 g/m*3 12.4 C 0 km/h
2436 25-09-2008 11:07:02 12.5 C 8.91 g/m*3 12.5 C 0 km/h
2437 25-09-2008 11:12:02 12.7 C 8.91 g/m*3 12.7 C 0 km/h
2438 25-09-2008 11:17:02 12.9 C 8.9 g/m*3 12.9 C 0 km/h
2439 25-09-2008 11:22:02 13 C 8.85 g/m*3 13 C 0 km/h
2440 25-09-2008 11:27:02 13.2 C 8.84 g/m*3 13.2 C 0 km/h
2441 25-09-2008 11:32:01 13.4 C 8.83 g/m*3 13.4 C 0 km/h
2442 25-09-2008 11:37:01 13.6 C 8.83 g/m*3 13.6 C 0 km/h
2443 25-09-2008 11:42:01 13.9 C 8.63 g/m*3 13.9 C 0 km/h
2444 25-09-2008 11:47:02 14.3 C 8.48 g/m*3 14.3 C 0 km/h
2445 25-09-2008 11:52:02 14.4 C 8.41 g/m*3 14.4 C 0 km/h
2446 25-09-2008 11:57:02 14.7 C 8.44 g/m*3 14.7 C 0 km/h
2447 25-09-2008 12:02:01 15 C 8.33 g/m*3 15 C 0 km/h
2448 25-09-2008 12:07:01 15.5 C 8.59 g/m*3 15.5 C 0 km/h
2449 25-09-2008 12:12:01 15.7 C 8.56 g/m*3 15.7 C 0 km/h
2450 25-09-2008 12:17:01 16 C 8.04 g/m*3 16 C 0 km/h
Sensor: Nr:Datum:Temp:Abs-Feuchte:Windchill:Wind:
Aussen-T/F 2451 25-09-2008 12:22:01 16.5 C 7.86 g/m*3 16.5 C 0 km/h
2452 25-09-2008 12:27:01 16.7 C 7.67 g/m*3 16.7 C 0 km/h
2453 25-09-2008 12:32:02 16.8 C 7.58 g/m*3 16.8 C 0 km/h
2454 25-09-2008 12:37:02 16.5 C 7.02 g/m*3 16.5 C 0 km/h
2455 25-09-2008 12:42:03 16.6 C 6.92 g/m*3 16.6 C 0 km/h
2456 25-09-2008 12:47:02 16.4 C 6.98 g/m*3 16.4 C 0 km/h
2457 25-09-2008 12:52:02 16.6 C 7.06 g/m*3 16.6 C 0 km/h
2458 25-09-2008 12:57:02 16.6 C 6.92 g/m*3 16.6 C 0 km/h
2459 25-09-2008 13:02:02 16.6 C 6.64 g/m*3 16.6 C 0 km/h
2460 25-09-2008 13:07:02 16.8 C 6.72 g/m*3 16.8 C 0 km/h
2461 25-09-2008 13:12:02 17 C 6.66 g/m*3 17 C 0 km/h
2462 25-09-2008 13:17:02 17.1 C 6.7 g/m*3 17.1 C 0 km/h
2463 25-09-2008 13:22:03 16.9 C 6.62 g/m*3 16.9 C 0 km/h
2464 25-09-2008 13:27:03 16.8 C 6.58 g/m*3 16.8 C 0 km/h
2465 25-09-2008 13:32:02 16.7 C 6.54 g/m*3 16.7 C 0 km/h
2466 25-09-2008 13:37:02 16.9 C 6.62 g/m*3 16.9 C 0 km/h
2467 25-09-2008 13:42:02 16.9 C 6.62 g/m*3 16.9 C 0 km/h
2468 25-09-2008 13:47:01 17 C 6.51 g/m*3 17 C 0 km/h
2469 25-09-2008 13:52:01 17.6 C 6.75 g/m*3 17.6 C 0 km/h
2470 25-09-2008 13:57:01 17.2 C 6.59 g/m*3 17.2 C 0 km/h
2471 25-09-2008 14:02:02 17.4 C 6.67 g/m*3 17.4 C 0 km/h
2472 25-09-2008 14:07:02 17.5 C 6.86 g/m*3 17.5 C 0 km/h
2473 25-09-2008 14:12:03 17.7 C 6.79 g/m*3 17.7 C 0 km/h
2474 25-09-2008 14:17:01 18 C 6.76 g/m*3 18 C 0 km/h
2475 25-09-2008 14:22:01 18 C 6.76 g/m*3 18 C 0 km/h
Sensor: Nr:Datum:Temp:Abs-Feuchte:Windchill:Wind:
Aussen-T/F 2476 25-09-2008 14:27:01 18 C 6.6 g/m*3 18 C 0 km/h
2477 25-09-2008 14:32:02 17.9 C 6.57 g/m*3 17.9 C 0 km/h
2478 25-09-2008 14:37:02 18.3 C 6.88 g/m*3 18.3 C 0 km/h
2479 25-09-2008 14:42:02 19 C 6.52 g/m*3 19 C 0 km/h
2480 25-09-2008 14:47:02 18.7 C 6.4 g/m*3 18.7 C 0 km/h
2481 25-09-2008 14:52:02 18.5 C 6.33 g/m*3 18.5 C 0 km/h
2482 25-09-2008 14:57:02 18 C 6.45 g/m*3 18 C 0 km/h
2483 25-09-2008 15:02:02 17.6 C 6.75 g/m*3 17.6 C 0 km/h
2484 25-09-2008 15:07:02 17.2 C 6.74 g/m*3 17.2 C 0 km/h
2485 25-09-2008 15:12:02 16.9 C 6.62 g/m*3 16.9 C 0 km/h
2486 25-09-2008 15:17:02 17.5 C 6.86 g/m*3 17.5 C 0 km/h
2487 25-09-2008 15:22:03 18 C 6.6 g/m*3 18 C 0 km/h
2488 25-09-2008 15:27:03 18.1 C 6.49 g/m*3 18.1 C 0 km/h
2489 25-09-2008 15:32:02 18.3 C 6.72 g/m*3 18.3 C 0 km/h
2490 25-09-2008 15:37:02 18.8 C 6.6 g/m*3 18.8 C 0 km/h
2491 25-09-2008 15:42:02 18.8 C 6.6 g/m*3 18.8 C 0 km/h
2492 25-09-2008 15:47:02 18.5 C 6.49 g/m*3 18.5 C 0 km/h
2493 25-09-2008 15:52:02 18.5 C 6.65 g/m*3 18.5 C 0 km/h
2494 25-09-2008 15:57:02 18.7 C 6.72 g/m*3 18.7 C 0 km/h
2495 25-09-2008 16:02:02 18.6 C 6.68 g/m*3 18.6 C 0 km/h
2496 25-09-2008 16:07:02 18.3 C 6.57 g/m*3 18.3 C 0 km/h
2497 25-09-2008 16:12:03 18.9 C 6.48 g/m*3 18.9 C 0 km/h
2498 25-09-2008 16:17:02 18.5 C 6.17 g/m*3 18.5 C 0 km/h
2499 25-09-2008 16:22:02 18 C 6.14 g/m*3 18 C 0 km/h
2500 25-09-2008 16:27:02 18.3 C 6.41 g/m*3 18.3 C 0 km/h
Sensor: Nr:Datum:Temp:Abs-Feuchte:Windchill:Wind:
Aussen-T/F 2501 25-09-2008 16:32:02 18.5 C 6.33 g/m*3 18.5 C 0 km/h
2502 25-09-2008 16:37:02 18.7 C 6.4 g/m*3 18.7 C 0 km/h
2503 25-09-2008 16:42:02 18.9 C 6.16 g/m*3 18.9 C 0 km/h
2504 25-09-2008 16:47:02 18.9 C 6.16 g/m*3 18.9 C 0 km/h
2505 25-09-2008 16:52:03 18.5 C 6.33 g/m*3 18.5 C 0 km/h
2506 25-09-2008 16:57:03 18.1 C 6.18 g/m*3 18.1 C 0 km/h
2507 25-09-2008 17:02:01 17.8 C 6.37 g/m*3 17.8 C 0 km/h
2508 25-09-2008 17:07:01 17.7 C 6.34 g/m*3 17.7 C 0 km/h
2509 25-09-2008 17:12:01 17.3 C 6.19 g/m*3 17.3 C 0 km/h
2510 25-09-2008 17:17:02 16.8 C 6.29 g/m*3 16.8 C 0 km/h
2511 25-09-2008 17:22:02 17.1 C 6.4 g/m*3 17.1 C 0 km/h
2512 25-09-2008 17:27:02 16.8 C 6.43 g/m*3 16.8 C 0 km/h
2513 25-09-2008 17:32:01 17.1 C 6.4 g/m*3 17.1 C 0 km/h
2514 25-09-2008 17:37:01 17.4 C 6.52 g/m*3 17.4 C 0 km/h
2515 25-09-2008 17:42:01 18 C 6.6 g/m*3 18 C 0 km/h
2516 25-09-2008 17:47:01 18.2 C 6.22 g/m*3 18.2 C 0 km/h
2517 25-09-2008 17:52:01 18.4 C 6.29 g/m*3 18.4 C 0 km/h
2518 25-09-2008 17:57:01 18.5 C 6.17 g/m*3 18.5 C 0 km/h
2519 25-09-2008 18:02:02 18.1 C 6.18 g/m*3 18.1 C 0 km/h
2520 25-09-2008 18:07:02 17.6 C 6.3 g/m*3 17.6 C 0 km/h
2521 25-09-2008 18:12:02 17.3 C 6.33 g/m*3 17.3 C 0 km/h
2522 25-09-2008 18:17:02 16.8 C 6.43 g/m*3 16.8 C 0 km/h
2523 25-09-2008 18:22:02 16.4 C 6.7 g/m*3 16.4 C 0 km/h
2524 25-09-2008 18:27:02 16.1 C 6.44 g/m*3 16.1 C 0 km/h
2525 25-09-2008 18:32:02 15.7 C 6.69 g/m*3 15.7 C 0 km/h
Sensor: Nr:Datum:Temp:Abs-Feuchte:Windchill:Wind:
Aussen-T/F 2526 25-09-2008 18:37:02 15.3 C 6.66 g/m*3 15.3 C 0 km/h
2527 25-09-2008 18:42:02 15.2 C 6.75 g/m*3 15.2 C 0 km/h
2528 25-09-2008 18:47:02 15 C 6.8 g/m*3 15 C 0 km/h
2529 25-09-2008 18:52:02 14.9 C 7.14 g/m*3 14.9 C 0 km/h
2530 25-09-2008 18:57:02 14.7 C 7.18 g/m*3 14.7 C 0 km/h
2531 25-09-2008 19:02:01 14.6 C 7.13 g/m*3 14.6 C 0 km/h
2532 25-09-2008 19:07:01 14.3 C 7.25 g/m*3 14.3 C 0 km/h
2533 25-09-2008 19:12:01 13.8 C 7.27 g/m*3 13.8 C 0 km/h
2534 25-09-2008 19:17:02 13.7 C 7.22 g/m*3 13.7 C 0 km/h
2535 25-09-2008 19:22:02 13.5 C 7.13 g/m*3 13.5 C 0 km/h
2536 25-09-2008 19:27:02 13.2 C 7.12 g/m*3 13.2 C 0 km/h
2537 25-09-2008 19:32:01 13.2 C 7.12 g/m*3 13.2 C 0 km/h
2538 25-09-2008 19:37:01 12.9 C 7.1 g/m*3 12.9 C 0 km/h
2539 25-09-2008 19:42:01 12.7 C 7.12 g/m*3 12.7 C 0 km/h
2540 25-09-2008 19:47:02 12.7 C 7.24 g/m*3 12.7 C 0 km/h
2541 25-09-2008 19:52:02 12.5 C 7.15 g/m*3 12.5 C 0 km/h
2542 25-09-2008 19:57:02 12.4 C 7.1 g/m*3 12.4 C 0 km/h
2543 25-09-2008 20:02:02 12.3 C 7.06 g/m*3 12.3 C 0 km/h
2544 25-09-2008 20:07:02 12.2 C 7.12 g/m*3 12.2 C 0 km/h
2545 25-09-2008 20:12:02 12.1 C 6.97 g/m*3 12.1 C 0 km/h
2546 25-09-2008 20:17:02 12.1 C 6.86 g/m*3 12.1 C 0 km/h
2547 25-09-2008 20:22:02 11.9 C 6.78 g/m*3 11.9 C 0 km/h
2548 25-09-2008 20:27:02 11.9 C 6.78 g/m*3 11.9 C 0 km/h
2549 25-09-2008 20:32:02 11.8 C 6.74 g/m*3 11.8 C 0 km/h
2550 25-09-2008 20:37:02 11.8 C 6.74 g/m*3 11.8 C 0 km/h
Sensor: Nr:Datum:Temp:Abs-Feuchte:Windchill:Wind:
Aussen-T/F 2551 25-09-2008 20:42:02 11.8 C 6.74 g/m*3 11.8 C 0 km/h
2552 25-09-2008 20:47:02 11.8 C 6.74 g/m*3 11.8 C 0 km/h
2553 25-09-2008 20:52:02 11.8 C 6.74 g/m*3 11.8 C 0 km/h
2554 25-09-2008 20:57:02 11.9 C 6.78 g/m*3 11.9 C 0 km/h
2555 25-09-2008 21:02:01 11.9 C 6.78 g/m*3 11.9 C 0 km/h
2556 25-09-2008 21:07:01 11.9 C 6.88 g/m*3 11.9 C 0 km/h
2557 25-09-2008 21:12:01 11.9 C 6.88 g/m*3 11.9 C 0 km/h
2558 25-09-2008 21:17:01 11.9 C 6.88 g/m*3 11.9 C 0 km/h
2559 25-09-2008 21:22:01 12 C 6.93 g/m*3 12 C 0 km/h
2560 25-09-2008 21:27:01 12 C 6.93 g/m*3 12 C 0 km/h
2561 25-09-2008 21:32:02 11.9 C 6.78 g/m*3 11.9 C 0 km/h
2562 25-09-2008 21:37:02 11.8 C 6.84 g/m*3 11.8 C 0 km/h
2563 25-09-2008 21:42:03 11.7 C 6.8 g/m*3 11.7 C 0 km/h
2564 25-09-2008 21:47:02 11.5 C 6.82 g/m*3 11.5 C 0 km/h
2565 25-09-2008 21:52:02 11.4 C 6.77 g/m*3 11.4 C 0 km/h
2566 25-09-2008 21:57:02 11.3 C 6.73 g/m*3 11.3 C 0 km/h
2567 25-09-2008 22:02:02 11.2 C 6.79 g/m*3 11.2 C 0 km/h
2568 25-09-2008 22:07:02 11.1 C 6.75 g/m*3 11.1 C 0 km/h
2569 25-09-2008 22:12:02 10.9 C 6.76 g/m*3 10.9 C 0 km/h
2570 25-09-2008 22:17:02 10.9 C 6.86 g/m*3 10.9 C 0 km/h
2571 25-09-2008 22:22:02 10.9 C 6.96 g/m*3 10.9 C 0 km/h
2572 25-09-2008 22:27:03 10.8 C 6.92 g/m*3 10.8 C 0 km/h
2573 25-09-2008 22:32:01 10.8 C 6.92 g/m*3 10.8 C 0 km/h
2574 25-09-2008 22:37:01 10.7 C 6.88 g/m*3 10.7 C 0 km/h
2575 25-09-2008 22:42:01 10.5 C 6.89 g/m*3 10.5 C 0 km/h
Sensor: Nr:Datum:Temp:Abs-Feuchte:Windchill:Wind:
Aussen-T/F 2576 25-09-2008 22:47:02 10.4 C 6.84 g/m*3 10.4 C 0 km/h
2577 25-09-2008 22:52:02 10.2 C 6.76 g/m*3 10.2 C 0 km/h
2578 25-09-2008 22:57:02 10 C 6.77 g/m*3 10 C 0 km/h
2579 25-09-2008 23:03:03 10 C 6.86 g/m*3 10 C 0 km/h
2580 25-09-2008 23:08:03 9.9 C 6.91 g/m*3 9.9 C 0 km/h
2581 25-09-2008 23:13:03 9.8 C 6.87 g/m*3 9.8 C 0 km/h
2582 25-09-2008 23:18:03 9.7 C 6.91 g/m*3 9.7 C 0 km/h
2583 25-09-2008 23:23:03 9.7 C 6.91 g/m*3 9.7 C 0 km/h
2584 25-09-2008 23:28:03 9.6 C 7.05 g/m*3 9.6 C 0 km/h
2585 25-09-2008 23:33:03 9.5 C 7.01 g/m*3 9.5 C 0 km/h
2586 25-09-2008 23:38:03 9.7 C 7.1 g/m*3 9.7 C 0 km/h
2587 25-09-2008 23:43:03 9.5 C 7.1 g/m*3 9.5 C 0 km/h
2588 25-09-2008 23:48:03 9.5 C 7.1 g/m*3 9.5 C 0 km/h
2589 25-09-2008 23:53:03 9.4 C 7.05 g/m*3 9.4 C 0 km/h
2590 25-09-2008 23:58:03 9.3 C 7.01 g/m*3 9.3 C 0 km/h
2591 26-09-2008 00:03:03 9.2 C 6.97 g/m*3 9.2 C 0 km/h
2592 26-09-2008 00:08:03 9.2 C 6.97 g/m*3 9.2 C 0 km/h
2593 26-09-2008 00:13:03 9.2 C 7.05 g/m*3 9.2 C 0 km/h
2594 26-09-2008 00:18:03 9.2 C 7.05 g/m*3 9.2 C 0 km/h
2595 26-09-2008 00:23:03 9 C 6.96 g/m*3 9 C 0 km/h
2596 26-09-2008 00:28:03 9 C 6.96 g/m*3 9 C 0 km/h
2597 26-09-2008 00:33:03 9 C 6.96 g/m*3 9 C 0 km/h
2598 26-09-2008 00:38:04 9 C 6.96 g/m*3 9 C 0 km/h
2599 26-09-2008 00:43:04 8.9 C 7.01 g/m*3 8.9 C 0 km/h
2600 26-09-2008 00:48:04 8.8 C 7.05 g/m*3 8.8 C 0 km/h
Sensor: Nr:Datum:Temp:Abs-Feuchte:Windchill:Wind:
Aussen-T/F 2601 26-09-2008 00:53:04 8.9 C 7.1 g/m*3 8.9 C 0 km/h
2602 26-09-2008 00:58:04 8.9 C 7.18 g/m*3 8.9 C 0 km/h
2603 26-09-2008 01:03:04 8.8 C 7.14 g/m*3 8.8 C 0 km/h
2604 26-09-2008 01:08:04 8.7 C 7.09 g/m*3 8.7 C 0 km/h
2605 26-09-2008 01:13:04 8.7 C 7.09 g/m*3 8.7 C 0 km/h
2606 26-09-2008 01:18:04 8.7 C 7.18 g/m*3 8.7 C 0 km/h
2607 26-09-2008 01:23:04 8.6 C 7.13 g/m*3 8.6 C 0 km/h
2608 26-09-2008 01:28:04 8.7 C 7.18 g/m*3 8.7 C 0 km/h
2609 26-09-2008 01:33:04 8.6 C 7.13 g/m*3 8.6 C 0 km/h
2610 26-09-2008 01:38:04 8.5 C 7.09 g/m*3 8.5 C 0 km/h
2611 26-09-2008 01:43:04 8.5 C 7.09 g/m*3 8.5 C 0 km/h
2612 26-09-2008 01:48:04 8.5 C 7.09 g/m*3 8.5 C 0 km/h
2613 26-09-2008 01:53:04 8.4 C 7.13 g/m*3 8.4 C 0 km/h
2614 26-09-2008 01:58:04 8.3 C 7.08 g/m*3 8.3 C 0 km/h
2615 26-09-2008 02:03:04 8.4 C 7.13 g/m*3 8.4 C 0 km/h
2616 26-09-2008 02:08:04 8.4 C 7.21 g/m*3 8.4 C 0 km/h
2617 26-09-2008 02:13:05 8.3 C 7.16 g/m*3 8.3 C 0 km/h
2618 26-09-2008 02:18:05 8.2 C 7.12 g/m*3 8.2 C 0 km/h
2619 26-09-2008 02:23:05 8.3 C 7.16 g/m*3 8.3 C 0 km/h
2620 26-09-2008 02:28:05 8.2 C 7.12 g/m*3 8.2 C 0 km/h
2621 26-09-2008 02:33:05 8.1 C 7.07 g/m*3 8.1 C 0 km/h
2622 26-09-2008 02:38:05 8.1 C 7.07 g/m*3 8.1 C 0 km/h
2623 26-09-2008 02:43:05 8 C 7.03 g/m*3 8 C 0 km/h
2624 26-09-2008 02:48:05 7.9 C 7.06 g/m*3 7.9 C 0 km/h
2625 26-09-2008 02:53:05 7.8 C 7.02 g/m*3 7.8 C 0 km/h
Sensor: Nr:Datum:Temp:Abs-Feuchte:Windchill:Wind:
Aussen-T/F 2626 26-09-2008 02:58:05 7.8 C 7.02 g/m*3 7.8 C 0 km/h
2627 26-09-2008 03:03:05 7.8 C 7.02 g/m*3 7.8 C 0 km/h
2628 26-09-2008 03:08:05 7.7 C 7.05 g/m*3 7.7 C 0 km/h
2629 26-09-2008 03:13:05 7.6 C 7.01 g/m*3 7.6 C 0 km/h
2630 26-09-2008 03:18:05 7.5 C 6.96 g/m*3 7.5 C 0 km/h
2631 26-09-2008 03:23:05 7.5 C 6.96 g/m*3 7.5 C 0 km/h
2632 26-09-2008 03:28:05 7.5 C 6.96 g/m*3 7.5 C 0 km/h
2633 26-09-2008 03:33:05 7.4 C 6.92 g/m*3 7.4 C 0 km/h
2634 26-09-2008 03:38:05 7.4 C 7 g/m*3 7.4 C 0 km/h
2635 26-09-2008 03:43:05 7.5 C 7.04 g/m*3 7.5 C 0 km/h
2636 26-09-2008 03:48:05 7.3 C 6.95 g/m*3 7.3 C 0 km/h
2637 26-09-2008 03:53:06 7.3 C 6.95 g/m*3 7.3 C 0 km/h
2638 26-09-2008 03:58:06 7.3 C 7.03 g/m*3 7.3 C 0 km/h
2639 26-09-2008 04:03:06 7.4 C 7.08 g/m*3 7.4 C 0 km/h
2640 26-09-2008 04:08:06 7.2 C 6.99 g/m*3 7.2 C 0 km/h
2641 26-09-2008 04:13:06 7.1 C 6.94 g/m*3 7.1 C 0 km/h
2642 26-09-2008 04:18:06 7.1 C 6.94 g/m*3 7.1 C 0 km/h
2643 26-09-2008 04:23:06 7.1 C 6.94 g/m*3 7.1 C 0 km/h
2644 26-09-2008 04:28:06 7.1 C 6.94 g/m*3 7.1 C 0 km/h
2645 26-09-2008 04:33:06 7.1 C 6.94 g/m*3 7.1 C 0 km/h
2646 26-09-2008 04:38:06 7.1 C 6.94 g/m*3 7.1 C 0 km/h
2647 26-09-2008 04:43:06 6.9 C 6.93 g/m*3 6.9 C 0 km/h
2648 26-09-2008 04:48:06 6.9 C 6.93 g/m*3 6.9 C 0 km/h
2649 26-09-2008 04:53:06 6.9 C 6.93 g/m*3 6.9 C 0 km/h
2650 26-09-2008 04:58:06 6.8 C 6.88 g/m*3 6.8 C 0 km/h
Sensor: Nr:Datum:Temp:Abs-Feuchte:Windchill:Wind:
Aussen-T/F 2651 26-09-2008 05:03:06 6.7 C 6.84 g/m*3 6.7 C 0 km/h
2652 26-09-2008 05:08:06 6.8 C 6.96 g/m*3 6.8 C 0 km/h
2653 26-09-2008 05:13:06 6.7 C 6.91 g/m*3 6.7 C 0 km/h
2654 26-09-2008 05:18:06 6.7 C 6.91 g/m*3 6.7 C 0 km/h
2655 26-09-2008 05:23:06 6.6 C 6.87 g/m*3 6.6 C 0 km/h
2656 26-09-2008 05:28:07 6.6 C 6.87 g/m*3 6.6 C 0 km/h
2657 26-09-2008 05:33:07 6.6 C 6.87 g/m*3 6.6 C 0 km/h
2658 26-09-2008 05:38:07 6.6 C 6.87 g/m*3 6.6 C 0 km/h
2659 26-09-2008 05:43:07 6.6 C 6.87 g/m*3 6.6 C 0 km/h
2660 26-09-2008 05:48:07 6.4 C 6.78 g/m*3 6.4 C 0 km/h
2661 26-09-2008 05:53:07 6.3 C 6.74 g/m*3 6.3 C 0 km/h
2662 26-09-2008 05:58:07 6.4 C 6.78 g/m*3 6.4 C 0 km/h
2663 26-09-2008 06:03:07 6.4 C 6.78 g/m*3 6.4 C 0 km/h
2664 26-09-2008 06:08:07 6.4 C 6.78 g/m*3 6.4 C 0 km/h
2665 26-09-2008 06:13:07 6.2 C 6.69 g/m*3 6.2 C 0 km/h
2666 26-09-2008 06:18:07 6.2 C 6.69 g/m*3 6.2 C 0 km/h
2667 26-09-2008 06:23:07 6 C 6.6 g/m*3 6 C 0 km/h
2668 26-09-2008 06:28:07 5.9 C 6.63 g/m*3 5.9 C 0 km/h
2669 26-09-2008 06:33:07 6 C 6.6 g/m*3 6 C 0 km/h
2670 26-09-2008 06:38:07 5.9 C 6.63 g/m*3 5.9 C 0 km/h
2671 26-09-2008 06:43:07 6 C 6.6 g/m*3 6 C 0 km/h
2672 26-09-2008 06:48:02 6 C 6.6 g/m*3 6 C 0 km/h
2673 26-09-2008 06:53:02 6 C 6.68 g/m*3 6 C 0 km/h
2674 26-09-2008 06:58:02 5.9 C 6.63 g/m*3 5.9 C 0 km/h
2675 26-09-2008 07:03:02 5.9 C 6.71 g/m*3 5.9 C 0 km/h
Sensor: Nr:Datum:Temp:Abs-Feuchte:Windchill:Wind:
Aussen-T/F 2676 26-09-2008 07:08:02 5.9 C 6.71 g/m*3 5.9 C 0 km/h
2677 26-09-2008 07:13:02 5.8 C 6.66 g/m*3 5.8 C 0 km/h
2678 26-09-2008 07:18:03 5.7 C 6.62 g/m*3 5.7 C 0 km/h
2679 26-09-2008 07:23:03 5.7 C 6.62 g/m*3 5.7 C 0 km/h
2680 26-09-2008 07:28:03 5.7 C 6.62 g/m*3 5.7 C 0 km/h
2681 26-09-2008 07:33:02 5.7 C 6.62 g/m*3 5.7 C 0 km/h
2682 26-09-2008 07:38:02 5.7 C 6.62 g/m*3 5.7 C 0 km/h
2683 26-09-2008 07:43:02 5.7 C 6.62 g/m*3 5.7 C 0 km/h
2684 26-09-2008 07:48:01 5.7 C 6.62 g/m*3 5.7 C 0 km/h
2685 26-09-2008 07:53:01 5.6 C 6.57 g/m*3 5.6 C 0 km/h
2686 26-09-2008 07:58:01 5.7 C 6.62 g/m*3 5.7 C 0 km/h
2687 26-09-2008 08:03:02 5.8 C 6.66 g/m*3 5.8 C 0 km/h
2688 26-09-2008 08:08:02 5.9 C 6.71 g/m*3 5.9 C 0 km/h
2689 26-09-2008 08:13:02 5.8 C 6.66 g/m*3 5.8 C 0 km/h
2690 26-09-2008 08:18:02 5.7 C 6.62 g/m*3 5.7 C 0 km/h
2691 26-09-2008 08:23:03 5.7 C 6.62 g/m*3 5.7 C 0 km/h
2692 26-09-2008 08:28:03 5.7 C 6.62 g/m*3 5.7 C 0 km/h
2693 26-09-2008 08:33:01 5.8 C 6.66 g/m*3 5.8 C 0 km/h
2694 26-09-2008 08:38:01 5.9 C 6.71 g/m*3 5.9 C 0 km/h
2695 26-09-2008 08:43:01 6 C 6.75 g/m*3 6 C 0 km/h
2696 26-09-2008 08:48:01 6 C 6.75 g/m*3 6 C 0 km/h
2697 26-09-2008 08:53:01 6.1 C 6.79 g/m*3 6.1 C 0 km/h
2698 26-09-2008 08:58:01 6.1 C 6.79 g/m*3 6.1 C 0 km/h
2699 26-09-2008 09:03:02 6.2 C 6.84 g/m*3 6.2 C 0 km/h
2700 26-09-2008 09:08:03 6.2 C 6.84 g/m*3 6.2 C 0 km/h
Sensor: Nr:Datum:Temp:Abs-Feuchte:Windchill:Wind:
Aussen-T/F 2701 26-09-2008 09:13:03 6.3 C 6.88 g/m*3 6.3 C 0 km/h
2702 26-09-2008 09:18:01 6.3 C 6.88 g/m*3 6.3 C 0 km/h
2703 26-09-2008 09:23:01 6.4 C 6.93 g/m*3 6.4 C 0 km/h
2704 26-09-2008 09:28:01 6.5 C 6.97 g/m*3 6.5 C 0 km/h
2705 26-09-2008 09:33:01 6.6 C 7.02 g/m*3 6.6 C 0 km/h
2706 26-09-2008 09:38:01 6.7 C 7.07 g/m*3 6.7 C 0 km/h
2707 26-09-2008 09:43:01 6.9 C 7.16 g/m*3 6.9 C 0 km/h
2708 26-09-2008 09:48:01 7.1 C 7.25 g/m*3 7.1 C 0 km/h
2709 26-09-2008 09:53:01 7.3 C 7.35 g/m*3 7.3 C 0 km/h
2710 26-09-2008 09:58:01 7.6 C 7.57 g/m*3 7.6 C 0 km/h
2711 26-09-2008 10:03:02 7.9 C 7.72 g/m*3 7.9 C 0 km/h
2712 26-09-2008 10:08:02 8 C 7.69 g/m*3 8 C 0 km/h
2713 26-09-2008 10:13:02 8.2 C 7.79 g/m*3 8.2 C 0 km/h
2714 26-09-2008 10:18:02 8.5 C 8.03 g/m*3 8.5 C 0 km/h
2715 26-09-2008 10:23:02 8.6 C 8.08 g/m*3 8.6 C 0 km/h
2716 26-09-2008 10:28:02 8.8 C 8.18 g/m*3 8.8 C 0 km/h
2717 26-09-2008 10:33:01 9 C 8.2 g/m*3 9 C 0 km/h
2718 26-09-2008 10:38:01 9.2 C 8.3 g/m*3 9.2 C 0 km/h
2719 26-09-2008 10:43:01 9.3 C 8.36 g/m*3 9.3 C 0 km/h
2720 26-09-2008 10:48:02 9.6 C 8.52 g/m*3 9.6 C 0 km/h
2721 26-09-2008 10:53:02 9.8 C 8.63 g/m*3 9.8 C 0 km/h
2722 26-09-2008 10:58:02 10 C 8.55 g/m*3 10 C 0 km/h
2723 26-09-2008 11:03:01 10.2 C 8.66 g/m*3 10.2 C 0 km/h
2724 26-09-2008 11:08:01 10.5 C 8.83 g/m*3 10.5 C 0 km/h
2725 26-09-2008 11:13:01 10.6 C 8.78 g/m*3 10.6 C 0 km/h
Sensor: Nr:Datum:Temp:Abs-Feuchte:Windchill:Wind:
Aussen-T/F 2726 26-09-2008 11:18:01 11 C 8.91 g/m*3 11 C 0 km/h
2727 26-09-2008 11:23:01 11.2 C 8.92 g/m*3 11.2 C 0 km/h
2728 26-09-2008 11:28:01 11.4 C 9.03 g/m*3 11.4 C 0 km/h
2729 26-09-2008 11:33:02 11.6 C 8.94 g/m*3 11.6 C 0 km/h
2730 26-09-2008 11:38:03 11.9 C 8.9 g/m*3 11.9 C 0 km/h
2731 26-09-2008 11:43:03 12.4 C 8.63 g/m*3 12.4 C 0 km/h
2732 26-09-2008 11:48:02 12.6 C 8.52 g/m*3 12.6 C 0 km/h
2733 26-09-2008 11:53:02 12.9 C 8.23 g/m*3 12.9 C 0 km/h
2734 26-09-2008 11:58:02 13.5 C 7.49 g/m*3 13.5 C 0 km/h
2735 26-09-2008 12:03:01 13.8 C 7.15 g/m*3 13.8 C 0 km/h
2736 26-09-2008 12:08:01 14.2 C 7.33 g/m*3 14.2 C 0 km/h
2737 26-09-2008 12:13:01 14.3 C 7.13 g/m*3 14.3 C 0 km/h
2738 26-09-2008 12:18:02 14.5 C 6.96 g/m*3 14.5 C 0 km/h
2739 26-09-2008 12:23:03 14.8 C 6.21 g/m*3 14.8 C 0 km/h
2740 26-09-2008 12:28:03 15 C 5.9 g/m*3 15 C 0 km/h
2741 26-09-2008 12:33:01 15.1 C 5.93 g/m*3 15.1 C 0 km/h
2742 26-09-2008 12:38:01 15.3 C 5.75 g/m*3 15.3 C 0 km/h
2743 26-09-2008 12:43:01 15.4 C 5.78 g/m*3 15.4 C 0 km/h
2744 26-09-2008 12:48:01 15.6 C 5.59 g/m*3 15.6 C 0 km/h
2745 26-09-2008 12:53:01 15.6 C 5.32 g/m*3 15.6 C 0 km/h
2746 26-09-2008 12:58:01 15.9 C 5.55 g/m*3 15.9 C 0 km/h
2747 26-09-2008 13:03:02 16 C 5.59 g/m*3 16 C 0 km/h
2748 26-09-2008 13:08:02 16.2 C 5.52 g/m*3 16.2 C 0 km/h
2749 26-09-2008 13:13:02 16.5 C 5.48 g/m*3 16.5 C 0 km/h
2750 26-09-2008 13:18:01 16.8 C 5.43 g/m*3 16.8 C 0 km/h
Sensor: Nr:Datum:Temp:Abs-Feuchte:Windchill:Wind:
Aussen-T/F 2751 26-09-2008 13:23:01 16.8 C 5.43 g/m*3 16.8 C 0 km/h
2752 26-09-2008 13:28:01 17 C 5.21 g/m*3 17 C 0 km/h
2753 26-09-2008 13:33:02 17.2 C 5.27 g/m*3 17.2 C 0 km/h
2754 26-09-2008 13:38:02 17.5 C 5.22 g/m*3 17.5 C 0 km/h
2755 26-09-2008 13:43:02 17.6 C 5.25 g/m*3 17.6 C 0 km/h
2756 26-09-2008 13:48:02 17.9 C 5.34 g/m*3 17.9 C 0 km/h
2757 26-09-2008 13:53:02 18.1 C 4.94 g/m*3 18.1 C 0 km/h
2758 26-09-2008 13:58:02 18.2 C 4.82 g/m*3 18.2 C 0 km/h
2759 26-09-2008 14:03:02 18.4 C 4.72 g/m*3 18.4 C 0 km/h
2760 26-09-2008 14:08:02 18.6 C 4.77 g/m*3 18.6 C 0 km/h
2761 26-09-2008 14:13:02 18.7 C 4.96 g/m*3 18.7 C 0 km/h
2762 26-09-2008 14:18:02 19 C 4.89 g/m*3 19 C 0 km/h
2763 26-09-2008 14:23:03 19.2 C 4.95 g/m*3 19.2 C 0 km/h
2764 26-09-2008 14:28:03 19.3 C 4.98 g/m*3 19.3 C 0 km/h
2765 26-09-2008 14:33:02 19.4 C 4.84 g/m*3 19.4 C 0 km/h
2766 26-09-2008 14:38:02 19.7 C 5.09 g/m*3 19.7 C 0 km/h
2767 26-09-2008 14:43:02 19.7 C 5.09 g/m*3 19.7 C 0 km/h
2768 26-09-2008 14:48:02 19.7 C 4.75 g/m*3 19.7 C 0 km/h
2769 26-09-2008 14:53:02 19.9 C 4.81 g/m*3 19.9 C 0 km/h
2770 26-09-2008 14:58:02 20.3 C 4.92 g/m*3 20.3 C 0 km/h
2771 26-09-2008 15:03:02 20.4 C 4.95 g/m*3 20.4 C 0 km/h
2772 26-09-2008 15:08:02 20.7 C 5.04 g/m*3 20.7 C 0 km/h
2773 26-09-2008 15:13:03 20.8 C 4.53 g/m*3 20.8 C 0 km/h
2774 26-09-2008 15:18:02 20.8 C 4.71 g/m*3 20.8 C 0 km/h
2775 26-09-2008 15:23:02 20.5 C 4.45 g/m*3 20.5 C 0 km/h
Sensor: Nr:Datum:Temp:Abs-Feuchte:Windchill:Wind:
Aussen-T/F 2776 26-09-2008 15:28:02 20.6 C 4.47 g/m*3 20.6 C 0 km/h
2777 26-09-2008 15:33:03 20.7 C 4.68 g/m*3 20.7 C 0 km/h
2778 26-09-2008 15:38:03 21.2 C 4.82 g/m*3 21.2 C 0 km/h
2779 26-09-2008 15:43:03 21.2 C 4.63 g/m*3 21.2 C 0 km/h
2780 26-09-2008 15:48:02 21.1 C 4.42 g/m*3 21.1 C 0 km/h
2781 26-09-2008 15:53:02 21.2 C 4.63 g/m*3 21.2 C 0 km/h
2782 26-09-2008 15:58:02 21.3 C 4.66 g/m*3 21.3 C 0 km/h
2783 26-09-2008 16:03:02 21.5 C 4.71 g/m*3 21.5 C 0 km/h
2784 26-09-2008 16:08:02 21.6 C 4.93 g/m*3 21.6 C 0 km/h
2785 26-09-2008 16:13:02 21.6 C 4.74 g/m*3 21.6 C 0 km/h
2786 26-09-2008 16:18:02 21.8 C 4.8 g/m*3 21.8 C 0 km/h
2787 26-09-2008 16:23:02 21.9 C 4.82 g/m*3 21.9 C 0 km/h
2788 26-09-2008 16:28:02 21.6 C 4.55 g/m*3 21.6 C 0 km/h
2789 26-09-2008 16:33:02 21.7 C 4.77 g/m*3 21.7 C 0 km/h
2790 26-09-2008 16:38:02 21.7 C 4.77 g/m*3 21.7 C 0 km/h
2791 26-09-2008 16:43:02 21.7 C 4.77 g/m*3 21.7 C 0 km/h
2792 26-09-2008 16:48:02 21.6 C 4.74 g/m*3 21.6 C 0 km/h
2793 26-09-2008 16:53:02 21.6 C 4.93 g/m*3 21.6 C 0 km/h
2794 26-09-2008 16:58:02 21.6 C 4.74 g/m*3 21.6 C 0 km/h
2795 26-09-2008 17:03:01 21.7 C 4.77 g/m*3 21.7 C 0 km/h
2796 26-09-2008 17:08:01 21.9 C 5.02 g/m*3 21.9 C 0 km/h
2797 26-09-2008 17:13:01 21.9 C 5.02 g/m*3 21.9 C 0 km/h
2798 26-09-2008 17:18:02 21.9 C 5.02 g/m*3 21.9 C 0 km/h
2799 26-09-2008 17:23:02 21.7 C 4.77 g/m*3 21.7 C 0 km/h
2800 26-09-2008 17:28:02 21.7 C 4.77 g/m*3 21.7 C 0 km/h
Sensor: Nr:Datum:Temp:Abs-Feuchte:Windchill:Wind:
Aussen-T/F 2801 26-09-2008 17:33:02 21.5 C 4.9 g/m*3 21.5 C 0 km/h
2802 26-09-2008 17:38:02 21.4 C 4.87 g/m*3 21.4 C 0 km/h
2803 26-09-2008 17:43:02 21.2 C 4.82 g/m*3 21.2 C 0 km/h
2804 26-09-2008 17:48:02 21.3 C 5.03 g/m*3 21.3 C 0 km/h
2805 26-09-2008 17:53:02 21.2 C 4.82 g/m*3 21.2 C 0 km/h
2806 26-09-2008 17:58:02 21 C 5.5 g/m*3 21 C 0 km/h
2807 26-09-2008 18:03:02 20.8 C 5.25 g/m*3 20.8 C 0 km/h
2808 26-09-2008 18:08:02 20.4 C 5.13 g/m*3 20.4 C 0 km/h
2809 26-09-2008 18:13:02 20 C 5.53 g/m*3 20 C 0 km/h
2810 26-09-2008 18:18:02 19.9 C 5.67 g/m*3 19.9 C 0 km/h
2811 26-09-2008 18:23:02 19.5 C 5.54 g/m*3 19.5 C 0 km/h
2812 26-09-2008 18:28:02 19.1 C 5.74 g/m*3 19.1 C 0 km/h
2813 26-09-2008 18:33:02 18.8 C 5.64 g/m*3 18.8 C 0 km/h
2814 26-09-2008 18:38:02 18.7 C 5.6 g/m*3 18.7 C 0 km/h
2815 26-09-2008 18:43:02 18.6 C 5.73 g/m*3 18.6 C 0 km/h
2816 26-09-2008 18:48:02 18.4 C 5.66 g/m*3 18.4 C 0 km/h
2817 26-09-2008 18:53:02 18.2 C 5.75 g/m*3 18.2 C 0 km/h
2818 26-09-2008 18:58:02 17.6 C 5.7 g/m*3 17.6 C 0 km/h
2819 26-09-2008 19:03:01 17 C 5.64 g/m*3 17 C 0 km/h
2820 26-09-2008 19:08:01 16.8 C 5.72 g/m*3 16.8 C 0 km/h
2821 26-09-2008 19:13:01 16.4 C 5.72 g/m*3 16.4 C 0 km/h
2822 26-09-2008 19:18:02 16.1 C 5.76 g/m*3 16.1 C 0 km/h
2823 26-09-2008 19:23:02 15.9 C 5.82 g/m*3 15.9 C 0 km/h
2824 26-09-2008 19:28:02 15.6 C 5.85 g/m*3 15.6 C 0 km/h
2825 26-09-2008 19:33:02 15.3 C 6.01 g/m*3 15.3 C 0 km/h
Sensor: Nr:Datum:Temp:Abs-Feuchte:Windchill:Wind:
Aussen-T/F 2826 26-09-2008 19:38:02 14.9 C 6.25 g/m*3 14.9 C 0 km/h
2827 26-09-2008 19:43:02 14.7 C 6.3 g/m*3 14.7 C 0 km/h
2828 26-09-2008 19:48:02 14.4 C 6.3 g/m*3 14.4 C 0 km/h
2829 26-09-2008 19:53:02 14.2 C 6.23 g/m*3 14.2 C 0 km/h
2830 26-09-2008 19:58:02 14 C 6.27 g/m*3 14 C 0 km/h
2831 26-09-2008 20:03:02 13.7 C 6.39 g/m*3 13.7 C 0 km/h
2832 26-09-2008 20:08:02 13.6 C 6.36 g/m*3 13.6 C 0 km/h
2833 26-09-2008 20:13:02 13.5 C 6.32 g/m*3 13.5 C 0 km/h
2834 26-09-2008 20:18:02 13.4 C 6.39 g/m*3 13.4 C 0 km/h
2835 26-09-2008 20:23:02 13.2 C 6.43 g/m*3 13.2 C 0 km/h
2836 26-09-2008 20:28:03 13.2 C 6.43 g/m*3 13.2 C 0 km/h
2837 26-09-2008 20:33:01 13.1 C 6.5 g/m*3 13.1 C 0 km/h
2838 26-09-2008 20:38:01 13 C 6.58 g/m*3 13 C 0 km/h
2839 26-09-2008 20:43:01 12.8 C 6.61 g/m*3 12.8 C 0 km/h
2840 26-09-2008 20:48:01 12.7 C 6.68 g/m*3 12.7 C 0 km/h
2841 26-09-2008 20:53:01 12.5 C 6.6 g/m*3 12.5 C 0 km/h
2842 26-09-2008 20:58:01 12.4 C 6.66 g/m*3 12.4 C 0 km/h
2843 26-09-2008 21:03:02 12.4 C 6.66 g/m*3 12.4 C 0 km/h
2844 26-09-2008 21:08:03 12.3 C 6.62 g/m*3 12.3 C 0 km/h
2845 26-09-2008 21:13:03 12.2 C 6.69 g/m*3 12.2 C 0 km/h
2846 26-09-2008 21:18:02 12.2 C 6.69 g/m*3 12.2 C 0 km/h
2847 26-09-2008 21:23:02 12 C 6.71 g/m*3 12 C 0 km/h
2848 26-09-2008 21:28:02 11.9 C 6.78 g/m*3 11.9 C 0 km/h
2849 26-09-2008 21:33:02 11.8 C 6.84 g/m*3 11.8 C 0 km/h
2850 26-09-2008 21:38:02 11.7 C 6.9 g/m*3 11.7 C 0 km/h
Sensor: Nr:Datum:Temp:Abs-Feuchte:Windchill:Wind:
Aussen-T/F 2851 26-09-2008 21:43:02 11.7 C 6.8 g/m*3 11.7 C 0 km/h
2852 26-09-2008 21:48:02 11.6 C 6.86 g/m*3 11.6 C 0 km/h
2853 26-09-2008 21:53:02 11.5 C 6.82 g/m*3 11.5 C 0 km/h
2854 26-09-2008 21:58:02 11.5 C 6.82 g/m*3 11.5 C 0 km/h
2855 26-09-2008 22:03:02 11.4 C 6.88 g/m*3 11.4 C 0 km/h
2856 26-09-2008 22:08:02 11.3 C 6.83 g/m*3 11.3 C 0 km/h
2857 26-09-2008 22:13:02 11.2 C 6.89 g/m*3 11.2 C 0 km/h
2858 26-09-2008 22:18:01 11.2 C 6.89 g/m*3 11.2 C 0 km/h
2859 26-09-2008 22:23:01 11.1 C 6.85 g/m*3 11.1 C 0 km/h
2860 26-09-2008 22:28:01 11.1 C 6.85 g/m*3 11.1 C 0 km/h
2861 26-09-2008 22:33:02 10.9 C 6.86 g/m*3 10.9 C 0 km/h
2862 26-09-2008 22:38:02 10.8 C 6.92 g/m*3 10.8 C 0 km/h
2863 26-09-2008 22:43:03 10.9 C 7.06 g/m*3 10.9 C 0 km/h
2864 26-09-2008 22:48:02 10.8 C 7.02 g/m*3 10.8 C 0 km/h
2865 26-09-2008 22:53:02 10.8 C 7.02 g/m*3 10.8 C 0 km/h
2866 26-09-2008 22:58:02 10.8 C 7.02 g/m*3 10.8 C 0 km/h
2867 26-09-2008 23:03:02 10.7 C 6.97 g/m*3 10.7 C 0 km/h
2868 26-09-2008 23:08:02 10.5 C 6.89 g/m*3 10.5 C 0 km/h
2869 26-09-2008 23:13:02 10.5 C 6.89 g/m*3 10.5 C 0 km/h
2870 26-09-2008 23:19:02 10.5 C 6.89 g/m*3 10.5 C 0 km/h
2871 26-09-2008 23:24:02 10.4 C 6.84 g/m*3 10.4 C 0 km/h
2872 26-09-2008 23:29:02 10.4 C 6.84 g/m*3 10.4 C 0 km/h
2873 26-09-2008 23:34:02 10.2 C 6.76 g/m*3 10.2 C 0 km/h
2874 26-09-2008 23:39:02 10.1 C 6.9 g/m*3 10.1 C 0 km/h
2875 26-09-2008 23:44:02 10 C 6.95 g/m*3 10 C 0 km/h
Sensor: Nr:Datum:Temp:Abs-Feuchte:Windchill:Wind:
Aussen-T/F 2876 26-09-2008 23:49:02 9.9 C 7.1 g/m*3 9.9 C 0 km/h
2877 26-09-2008 23:54:02 9.8 C 7.05 g/m*3 9.8 C 0 km/h
2878 26-09-2008 23:59:02 9.7 C 7.01 g/m*3 9.7 C 0 km/h
2879 27-09-2008 00:04:02 9.7 C 7.1 g/m*3 9.7 C 0 km/h
2880 27-09-2008 00:09:02 9.5 C 7.01 g/m*3 9.5 C 0 km/h
2881 27-09-2008 00:14:02 9.4 C 6.96 g/m*3 9.4 C 0 km/h
2882 27-09-2008 00:19:02 9.4 C 6.96 g/m*3 9.4 C 0 km/h
2883 27-09-2008 00:24:02 9.3 C 6.92 g/m*3 9.3 C 0 km/h
2884 27-09-2008 00:29:02 9.3 C 6.92 g/m*3 9.3 C 0 km/h
2885 27-09-2008 00:34:02 9.2 C 6.79 g/m*3 9.2 C 0 km/h
2886 27-09-2008 00:39:03 9.2 C 6.79 g/m*3 9.2 C 0 km/h
2887 27-09-2008 00:44:03 9 C 6.79 g/m*3 9 C 0 km/h
2888 27-09-2008 00:49:03 8.9 C 6.83 g/m*3 8.9 C 0 km/h
2889 27-09-2008 00:54:03 8.9 C 6.83 g/m*3 8.9 C 0 km/h
2890 27-09-2008 00:59:03 8.9 C 6.92 g/m*3 8.9 C 0 km/h
2891 27-09-2008 01:04:03 8.8 C 6.88 g/m*3 8.8 C 0 km/h
2892 27-09-2008 01:09:03 8.7 C 6.83 g/m*3 8.7 C 0 km/h
2893 27-09-2008 01:14:03 8.7 C 6.83 g/m*3 8.7 C 0 km/h
2894 27-09-2008 01:19:03 8.6 C 6.79 g/m*3 8.6 C 0 km/h
2895 27-09-2008 01:24:03 8.6 C 6.79 g/m*3 8.6 C 0 km/h
2896 27-09-2008 01:29:03 8.6 C 6.87 g/m*3 8.6 C 0 km/h
2897 27-09-2008 01:34:03 8.5 C 6.92 g/m*3 8.5 C 0 km/h
2898 27-09-2008 01:39:03 8.4 C 6.87 g/m*3 8.4 C 0 km/h
2899 27-09-2008 01:44:03 8.3 C 6.83 g/m*3 8.3 C 0 km/h
2900 27-09-2008 01:49:03 8.2 C 6.78 g/m*3 8.2 C 0 km/h
Sensor: Nr:Datum:Temp:Abs-Feuchte:Windchill:Wind:
Aussen-T/F 2901 27-09-2008 01:54:03 8.1 C 6.74 g/m*3 8.1 C 0 km/h
2902 27-09-2008 01:59:03 8 C 6.7 g/m*3 8 C 0 km/h
2903 27-09-2008 02:04:03 7.9 C 6.82 g/m*3 7.9 C 0 km/h
2904 27-09-2008 02:09:03 7.8 C 6.77 g/m*3 7.8 C 0 km/h
2905 27-09-2008 02:14:03 7.7 C 6.73 g/m*3 7.7 C 0 km/h
2906 27-09-2008 02:19:04 7.6 C 6.69 g/m*3 7.6 C 0 km/h
2907 27-09-2008 02:24:04 7.6 C 6.69 g/m*3 7.6 C 0 km/h
2908 27-09-2008 02:29:04 7.5 C 6.64 g/m*3 7.5 C 0 km/h
2909 27-09-2008 02:34:04 7.5 C 6.64 g/m*3 7.5 C 0 km/h
2910 27-09-2008 02:39:04 7.5 C 6.64 g/m*3 7.5 C 0 km/h
2911 27-09-2008 02:44:04 7.4 C 6.6 g/m*3 7.4 C 0 km/h
2912 27-09-2008 02:49:04 7.4 C 6.6 g/m*3 7.4 C 0 km/h
2913 27-09-2008 02:54:04 7.3 C 6.64 g/m*3 7.3 C 0 km/h
2914 27-09-2008 02:59:04 7.4 C 6.68 g/m*3 7.4 C 0 km/h
2915 27-09-2008 03:04:04 7.4 C 6.68 g/m*3 7.4 C 0 km/h
2916 27-09-2008 03:09:04 7.2 C 6.59 g/m*3 7.2 C 0 km/h
2917 27-09-2008 03:14:04 7.1 C 6.55 g/m*3 7.1 C 0 km/h
2918 27-09-2008 03:19:04 7.1 C 6.55 g/m*3 7.1 C 0 km/h
2919 27-09-2008 03:24:04 7.1 C 6.63 g/m*3 7.1 C 0 km/h
2920 27-09-2008 03:29:04 7.1 C 6.63 g/m*3 7.1 C 0 km/h
2921 27-09-2008 03:34:04 7 C 6.59 g/m*3 7 C 0 km/h
2922 27-09-2008 03:39:04 7 C 6.59 g/m*3 7 C 0 km/h
2923 27-09-2008 03:44:04 6.9 C 6.62 g/m*3 6.9 C 0 km/h
2924 27-09-2008 03:49:04 6.9 C 6.62 g/m*3 6.9 C 0 km/h
2925 27-09-2008 03:54:04 6.9 C 6.62 g/m*3 6.9 C 0 km/h
Sensor: Nr:Datum:Temp:Abs-Feuchte:Windchill:Wind:
Aussen-T/F 2926 27-09-2008 03:59:04 6.7 C 6.53 g/m*3 6.7 C 0 km/h
2927 27-09-2008 04:04:05 6.7 C 6.53 g/m*3 6.7 C 0 km/h
2928 27-09-2008 04:09:05 6.6 C 6.57 g/m*3 6.6 C 0 km/h
2929 27-09-2008 04:14:05 6.6 C 6.57 g/m*3 6.6 C 0 km/h
2930 27-09-2008 04:19:05 6.5 C 6.45 g/m*3 6.5 C 0 km/h
2931 27-09-2008 04:24:05 6.5 C 6.45 g/m*3 6.5 C 0 km/h
2932 27-09-2008 04:29:05 6.5 C 6.52 g/m*3 6.5 C 0 km/h
2933 27-09-2008 04:34:05 6.3 C 6.44 g/m*3 6.3 C 0 km/h
2934 27-09-2008 04:39:05 6.3 C 6.44 g/m*3 6.3 C 0 km/h
2935 27-09-2008 04:44:05 6.2 C 6.4 g/m*3 6.2 C 0 km/h
2936 27-09-2008 04:49:05 6.3 C 6.44 g/m*3 6.3 C 0 km/h
2937 27-09-2008 04:54:05 6.3 C 6.51 g/m*3 6.3 C 0 km/h
2938 27-09-2008 04:59:05 6.3 C 6.51 g/m*3 6.3 C 0 km/h
2939 27-09-2008 05:04:05 6.3 C 6.51 g/m*3 6.3 C 0 km/h
2940 27-09-2008 05:09:05 6.2 C 6.47 g/m*3 6.2 C 0 km/h
2941 27-09-2008 05:14:05 6.2 C 6.47 g/m*3 6.2 C 0 km/h
2942 27-09-2008 05:19:05 6 C 6.39 g/m*3 6 C 0 km/h
2943 27-09-2008 05:24:05 6 C 6.31 g/m*3 6 C 0 km/h
2944 27-09-2008 05:29:05 5.9 C 6.35 g/m*3 5.9 C 0 km/h
2945 27-09-2008 05:34:05 5.9 C 6.35 g/m*3 5.9 C 0 km/h
2946 27-09-2008 05:39:05 5.9 C 6.42 g/m*3 5.9 C 0 km/h
2947 27-09-2008 05:44:06 5.8 C 6.38 g/m*3 5.8 C 0 km/h
2948 27-09-2008 05:49:06 5.7 C 6.33 g/m*3 5.7 C 0 km/h
2949 27-09-2008 05:54:06 5.7 C 6.33 g/m*3 5.7 C 0 km/h
2950 27-09-2008 05:59:06 5.6 C 6.29 g/m*3 5.6 C 0 km/h
Sensor: Nr:Datum:Temp:Abs-Feuchte:Windchill:Wind:
Aussen-T/F 2951 27-09-2008 06:04:06 5.6 C 6.29 g/m*3 5.6 C 0 km/h
2952 27-09-2008 06:09:06 5.6 C 6.29 g/m*3 5.6 C 0 km/h
2953 27-09-2008 06:14:06 5.6 C 6.29 g/m*3 5.6 C 0 km/h
2954 27-09-2008 06:19:06 5.6 C 6.29 g/m*3 5.6 C 0 km/h
2955 27-09-2008 06:24:06 5.4 C 6.21 g/m*3 5.4 C 0 km/h
2956 27-09-2008 06:29:06 5.4 C 6.21 g/m*3 5.4 C 0 km/h
2957 27-09-2008 06:34:06 5.4 C 6.21 g/m*3 5.4 C 0 km/h
2958 27-09-2008 06:39:06 5.3 C 6.17 g/m*3 5.3 C 0 km/h
2959 27-09-2008 06:44:06 5.3 C 6.17 g/m*3 5.3 C 0 km/h
2960 27-09-2008 06:49:06 5.4 C 6.21 g/m*3 5.4 C 0 km/h
2961 27-09-2008 06:54:06 5.3 C 6.24 g/m*3 5.3 C 0 km/h
2962 27-09-2008 06:59:06 5.3 C 6.24 g/m*3 5.3 C 0 km/h
2963 27-09-2008 07:04:06 5.2 C 6.2 g/m*3 5.2 C 0 km/h
2964 27-09-2008 07:09:06 5.2 C 6.2 g/m*3 5.2 C 0 km/h
2965 27-09-2008 07:14:06 5.2 C 6.2 g/m*3 5.2 C 0 km/h
2966 27-09-2008 07:19:06 5.3 C 6.24 g/m*3 5.3 C 0 km/h
2967 27-09-2008 07:24:06 5.4 C 6.35 g/m*3 5.4 C 0 km/h
2968 27-09-2008 07:29:07 5.5 C 6.39 g/m*3 5.5 C 0 km/h
2969 27-09-2008 07:34:07 5.5 C 6.39 g/m*3 5.5 C 0 km/h
2970 27-09-2008 07:39:07 5.5 C 6.39 g/m*3 5.5 C 0 km/h
2971 27-09-2008 07:44:07 5.5 C 6.39 g/m*3 5.5 C 0 km/h
2972 27-09-2008 07:49:07 5.6 C 6.43 g/m*3 5.6 C 0 km/h
2973 27-09-2008 07:54:07 5.6 C 6.43 g/m*3 5.6 C 0 km/h
2974 27-09-2008 07:59:07 5.6 C 6.5 g/m*3 5.6 C 0 km/h
2975 27-09-2008 08:04:07 5.7 C 6.55 g/m*3 5.7 C 0 km/h
Sensor: Nr:Datum:Temp:Abs-Feuchte:Windchill:Wind:
Aussen-T/F 2976 27-09-2008 08:09:07 5.8 C 6.59 g/m*3 5.8 C 0 km/h
2977 27-09-2008 08:14:07 5.8 C 6.59 g/m*3 5.8 C 0 km/h
2978 27-09-2008 08:19:07 5.8 C 6.59 g/m*3 5.8 C 0 km/h
2979 27-09-2008 08:24:07 5.9 C 6.63 g/m*3 5.9 C 0 km/h
2980 27-09-2008 08:29:07 5.6 C 6.5 g/m*3 5.6 C 0 km/h
2981 27-09-2008 08:34:07 5.6 C 6.5 g/m*3 5.6 C 0 km/h
2982 27-09-2008 08:39:07 5.8 C 6.59 g/m*3 5.8 C 0 km/h
2983 27-09-2008 08:44:07 5.9 C 6.63 g/m*3 5.9 C 0 km/h
2984 27-09-2008 08:49:07 6.2 C 6.69 g/m*3 6.2 C 0 km/h
2985 27-09-2008 08:54:07 6.3 C 6.74 g/m*3 6.3 C 0 km/h
2986 27-09-2008 08:59:07 6.5 C 6.82 g/m*3 6.5 C 0 km/h
2987 27-09-2008 09:04:07 6.6 C 6.87 g/m*3 6.6 C 0 km/h
2988 27-09-2008 09:09:07 6.7 C 6.91 g/m*3 6.7 C 0 km/h
2989 27-09-2008 09:14:08 6.9 C 6.93 g/m*3 6.9 C 0 km/h
2990 27-09-2008 09:19:08 6.9 C 6.93 g/m*3 6.9 C 0 km/h
2991 27-09-2008 09:24:08 7 C 6.9 g/m*3 7 C 0 km/h
2992 27-09-2008 09:29:08 7.1 C 6.86 g/m*3 7.1 C 0 km/h
2993 27-09-2008 09:34:08 7.3 C 6.95 g/m*3 7.3 C 0 km/h
2994 27-09-2008 09:39:08 7.3 C 6.95 g/m*3 7.3 C 0 km/h
2995 27-09-2008 09:44:08 7.3 C 6.87 g/m*3 7.3 C 0 km/h
2996 27-09-2008 09:49:08 7.6 C 7.01 g/m*3 7.6 C 0 km/h
2997 27-09-2008 09:54:08 7.8 C 7.1 g/m*3 7.8 C 0 km/h
2998 27-09-2008 09:59:08 7.9 C 7.15 g/m*3 7.9 C 0 km/h
2999 27-09-2008 10:04:02 8.1 C 7.07 g/m*3 8.1 C 0 km/h
3000 27-09-2008 10:09:03 8.3 C 7.16 g/m*3 8.3 C 0 km/h
Sensor: Nr:Datum:Temp:Abs-Feuchte:Windchill:Wind:
Aussen-T/F 3001 27-09-2008 10:14:03 8.4 C 7.21 g/m*3 8.4 C 0 km/h
3002 27-09-2008 10:19:02 8.7 C 7.26 g/m*3 8.7 C 0 km/h
3003 27-09-2008 10:24:02 9 C 7.32 g/m*3 9 C 0 km/h
3004 27-09-2008 10:29:02 9 C 7.23 g/m*3 9 C 0 km/h
3005 27-09-2008 10:34:01 8.9 C 7.27 g/m*3 8.9 C 0 km/h
3006 27-09-2008 10:39:01 9.1 C 7.28 g/m*3 9.1 C 0 km/h
3007 27-09-2008 10:44:01 9.5 C 7.46 g/m*3 9.5 C 0 km/h
3008 27-09-2008 10:49:01 9.6 C 7.51 g/m*3 9.6 C 0 km/h
3009 27-09-2008 10:54:01 9.9 C 7.56 g/m*3 9.9 C 0 km/h
3010 27-09-2008 10:59:01 10 C 7.33 g/m*3 10 C 0 km/h
3011 27-09-2008 11:04:02 10.1 C 7.38 g/m*3 10.1 C 0 km/h
3012 27-09-2008 11:09:02 10.4 C 7.52 g/m*3 10.4 C 0 km/h
3013 27-09-2008 11:14:02 10.5 C 7.47 g/m*3 10.5 C 0 km/h
3014 27-09-2008 11:19:01 10.7 C 7.46 g/m*3 10.7 C 0 km/h
3015 27-09-2008 11:24:01 10.8 C 7.51 g/m*3 10.8 C 0 km/h
3016 27-09-2008 11:29:01 10.5 C 7.37 g/m*3 10.5 C 0 km/h
3017 27-09-2008 11:34:02 10.3 C 7.47 g/m*3 10.3 C 0 km/h
3018 27-09-2008 11:39:02 10.4 C 7.61 g/m*3 10.4 C 0 km/h
3019 27-09-2008 11:44:02 10.6 C 7.81 g/m*3 10.6 C 0 km/h
3020 27-09-2008 11:49:01 10.9 C 7.96 g/m*3 10.9 C 0 km/h
3021 27-09-2008 11:54:01 11 C 8.01 g/m*3 11 C 0 km/h
3022 27-09-2008 11:59:01 11.3 C 8.06 g/m*3 11.3 C 0 km/h
3023 27-09-2008 12:04:01 11.5 C 8.06 g/m*3 11.5 C 0 km/h
3024 27-09-2008 12:09:01 11.5 C 8.06 g/m*3 11.5 C 0 km/h
3025 27-09-2008 12:14:01 12 C 7.99 g/m*3 12 C 0 km/h
Sensor: Nr:Datum:Temp:Abs-Feuchte:Windchill:Wind:
Aussen-T/F 3026 27-09-2008 12:19:01 12.3 C 7.93 g/m*3 12.3 C 0 km/h
3027 27-09-2008 12:24:01 12.5 C 8.03 g/m*3 12.5 C 0 km/h
3028 27-09-2008 12:29:01 12.8 C 8.06 g/m*3 12.8 C 0 km/h
3029 27-09-2008 12:34:02 13 C 7.83 g/m*3 13 C 0 km/h
3030 27-09-2008 12:39:02 13.4 C 7.79 g/m*3 13.4 C 0 km/h
3031 27-09-2008 12:44:03 13.6 C 7.89 g/m*3 13.6 C 0 km/h
3032 27-09-2008 12:49:02 13.8 C 7.86 g/m*3 13.8 C 0 km/h
3033 27-09-2008 12:54:02 14 C 7.84 g/m*3 14 C 0 km/h
3034 27-09-2008 12:59:02 14.1 C 7.77 g/m*3 14.1 C 0 km/h
3035 27-09-2008 13:04:02 14.3 C 7.74 g/m*3 14.3 C 0 km/h
3036 27-09-2008 13:09:02 14.7 C 7.93 g/m*3 14.7 C 0 km/h
3037 27-09-2008 13:14:02 14.7 C 7.93 g/m*3 14.7 C 0 km/h
3038 27-09-2008 13:19:02 15 C 7.69 g/m*3 15 C 0 km/h
3039 27-09-2008 13:24:02 15.2 C 7.79 g/m*3 15.2 C 0 km/h
3040 27-09-2008 13:29:02 15.4 C 8.01 g/m*3 15.4 C 0 km/h
3041 27-09-2008 13:34:01 15.6 C 7.98 g/m*3 15.6 C 0 km/h
3042 27-09-2008 13:39:01 16 C 7.63 g/m*3 16 C 0 km/h
3043 27-09-2008 13:44:01 16.3 C 7.77 g/m*3 16.3 C 0 km/h
3044 27-09-2008 13:49:02 16.5 C 7.58 g/m*3 16.5 C 0 km/h
3045 27-09-2008 13:54:02 17.1 C 7.13 g/m*3 17.1 C 0 km/h
3046 27-09-2008 13:59:02 17.6 C 7.05 g/m*3 17.6 C 0 km/h
3047 27-09-2008 14:04:02 17.9 C 6.87 g/m*3 17.9 C 0 km/h
3048 27-09-2008 14:09:02 18.3 C 6.57 g/m*3 18.3 C 0 km/h
3049 27-09-2008 14:14:02 18.7 C 6.4 g/m*3 18.7 C 0 km/h
3050 27-09-2008 14:19:01 19 C 6.19 g/m*3 19 C 0 km/h
Sensor: Nr:Datum:Temp:Abs-Feuchte:Windchill:Wind:
Aussen-T/F 3051 27-09-2008 14:24:01 19.2 C 6.27 g/m*3 19.2 C 0 km/h
3052 27-09-2008 14:29:01 19.5 C 6.21 g/m*3 19.5 C 0 km/h
3053 27-09-2008 14:34:02 19.7 C 6.45 g/m*3 19.7 C 0 km/h
3054 27-09-2008 14:39:03 19.8 C 6.66 g/m*3 19.8 C 0 km/h
3055 27-09-2008 14:44:03 20 C 6.22 g/m*3 20 C 0 km/h
3056 27-09-2008 14:49:02 20.3 C 6.51 g/m*3 20.3 C 0 km/h
3057 27-09-2008 14:54:02 20.3 C 6.33 g/m*3 20.3 C 0 km/h
3058 27-09-2008 14:59:02 20.4 C 5.84 g/m*3 20.4 C 0 km/h
3059 27-09-2008 15:04:02 20.8 C 5.98 g/m*3 20.8 C 0 km/h
3060 27-09-2008 15:09:02 21 C 5.68 g/m*3 21 C 0 km/h
3061 27-09-2008 15:14:02 21 C 5.68 g/m*3 21 C 0 km/h
3062 27-09-2008 15:19:02 21.2 C 5.93 g/m*3 21.2 C 0 km/h
3063 27-09-2008 15:24:02 21.4 C 6.37 g/m*3 21.4 C 0 km/h
3064 27-09-2008 15:29:03 21.5 C 5.85 g/m*3 21.5 C 0 km/h
3065 27-09-2008 15:34:02 21.8 C 5.37 g/m*3 21.8 C 0 km/h
3066 27-09-2008 15:39:02 21.9 C 5.79 g/m*3 21.9 C 0 km/h
3067 27-09-2008 15:44:02 22 C 5.82 g/m*3 22 C 0 km/h
3068 27-09-2008 15:49:02 22.3 C 5.13 g/m*3 22.3 C 0 km/h
3069 27-09-2008 15:54:02 22.4 C 4.96 g/m*3 22.4 C 0 km/h
3070 27-09-2008 15:59:02 22.5 C 5.19 g/m*3 22.5 C 0 km/h
3071 27-09-2008 16:04:02 22.7 C 5.05 g/m*3 22.7 C 0 km/h
3072 27-09-2008 16:09:02 22.6 C 5.02 g/m*3 22.6 C 0 km/h
3073 27-09-2008 16:14:02 22.6 C 5.22 g/m*3 22.6 C 0 km/h
3074 27-09-2008 16:19:01 22.6 C 5.22 g/m*3 22.6 C 0 km/h
3075 27-09-2008 16:24:01 22.7 C 5.46 g/m*3 22.7 C 0 km/h
Sensor: Nr:Datum:Temp:Abs-Feuchte:Windchill:Wind:
Aussen-T/F 3076 27-09-2008 16:29:01 23 C 5.14 g/m*3 23 C 0 km/h
3077 27-09-2008 16:34:02 23.3 C 5.23 g/m*3 23.3 C 0 km/h
3078 27-09-2008 16:39:02 23.3 C 5.44 g/m*3 23.3 C 0 km/h
3079 27-09-2008 16:44:02 23.3 C 5.85 g/m*3 23.3 C 0 km/h
3080 27-09-2008 16:49:02 23.3 C 5.85 g/m*3 23.3 C 0 km/h
3081 27-09-2008 16:54:02 23.3 C 5.65 g/m*3 23.3 C 0 km/h
3082 27-09-2008 16:59:02 23.1 C 5.37 g/m*3 23.1 C 0 km/h
3083 27-09-2008 17:04:02 23 C 5.34 g/m*3 23 C 0 km/h
3084 27-09-2008 17:09:02 23.1 C 5.37 g/m*3 23.1 C 0 km/h
3085 27-09-2008 17:14:02 22.9 C 5.31 g/m*3 22.9 C 0 km/h
3086 27-09-2008 17:19:02 22.8 C 5.08 g/m*3 22.8 C 0 km/h
3087 27-09-2008 17:24:03 22.8 C 5.08 g/m*3 22.8 C 0 km/h
3088 27-09-2008 17:29:03 22.8 C 5.69 g/m*3 22.8 C 0 km/h
3089 27-09-2008 17:34:02 22.8 C 5.69 g/m*3 22.8 C 0 km/h
3090 27-09-2008 17:39:02 22.8 C 5.49 g/m*3 22.8 C 0 km/h
3091 27-09-2008 17:44:02 22.7 C 5.46 g/m*3 22.7 C 0 km/h
3092 27-09-2008 17:49:02 22.5 C 5.99 g/m*3 22.5 C 0 km/h
3093 27-09-2008 17:54:02 22.4 C 6.16 g/m*3 22.4 C 0 km/h
3094 27-09-2008 17:59:02 22 C 5.82 g/m*3 22 C 0 km/h
3095 27-09-2008 18:04:02 21.8 C 6.33 g/m*3 21.8 C 0 km/h
3096 27-09-2008 18:09:02 21.6 C 5.88 g/m*3 21.6 C 0 km/h
3097 27-09-2008 18:14:03 21.4 C 5.81 g/m*3 21.4 C 0 km/h
3098 27-09-2008 18:19:02 21.2 C 6.3 g/m*3 21.2 C 0 km/h
3099 27-09-2008 18:24:02 20.9 C 6.37 g/m*3 20.9 C 0 km/h
3100 27-09-2008 18:29:02 20.7 C 6.3 g/m*3 20.7 C 0 km/h
Sensor: Nr:Datum:Temp:Abs-Feuchte:Windchill:Wind:
Aussen-T/F 3101 27-09-2008 18:34:02 20.3 C 6.33 g/m*3 20.3 C 0 km/h
3102 27-09-2008 18:39:02 19.8 C 6.32 g/m*3 19.8 C 0 km/h
3103 27-09-2008 18:44:02 19.5 C 6.21 g/m*3 19.5 C 0 km/h
3104 27-09-2008 18:49:02 19.1 C 6.39 g/m*3 19.1 C 0 km/h
3105 27-09-2008 18:54:02 18.9 C 6.32 g/m*3 18.9 C 0 km/h
3106 27-09-2008 18:59:02 18.4 C 6.29 g/m*3 18.4 C 0 km/h
3107 27-09-2008 19:04:01 17.9 C 6.26 g/m*3 17.9 C 0 km/h
3108 27-09-2008 19:09:01 17.2 C 6 g/m*3 17.2 C 0 km/h
3109 27-09-2008 19:14:01 16.6 C 6.07 g/m*3 16.6 C 0 km/h
3110 27-09-2008 19:19:02 16.4 C 6 g/m*3 16.4 C 0 km/h
3111 27-09-2008 19:24:02 16.1 C 6.03 g/m*3 16.1 C 0 km/h
3112 27-09-2008 19:29:02 15.6 C 6.12 g/m*3 15.6 C 0 km/h
3113 27-09-2008 19:34:01 15.4 C 6.04 g/m*3 15.4 C 0 km/h
3114 27-09-2008 19:39:01 15.3 C 6.01 g/m*3 15.3 C 0 km/h
3115 27-09-2008 19:44:01 15 C 6.15 g/m*3 15 C 0 km/h
3116 27-09-2008 19:49:01 14.8 C 6.21 g/m*3 14.8 C 0 km/h
3117 27-09-2008 19:54:01 14.5 C 6.22 g/m*3 14.5 C 0 km/h
3118 27-09-2008 19:59:01 14.5 C 6.34 g/m*3 14.5 C 0 km/h
3119 27-09-2008 20:04:02 14.2 C 6.35 g/m*3 14.2 C 0 km/h
3120 27-09-2008 20:09:03 14 C 6.39 g/m*3 14 C 0 km/h
3121 27-09-2008 20:14:03 13.8 C 6.43 g/m*3 13.8 C 0 km/h
3122 27-09-2008 20:19:01 13.9 C 6.59 g/m*3 13.9 C 0 km/h
3123 27-09-2008 20:24:01 13.8 C 6.55 g/m*3 13.8 C 0 km/h
3124 27-09-2008 20:29:01 13.7 C 6.63 g/m*3 13.7 C 0 km/h
3125 27-09-2008 20:34:02 13.6 C 6.71 g/m*3 13.6 C 0 km/h
Sensor: Nr:Datum:Temp:Abs-Feuchte:Windchill:Wind:
Aussen-T/F 3126 27-09-2008 20:39:02 13.5 C 6.67 g/m*3 13.5 C 0 km/h
3127 27-09-2008 20:44:02 13.3 C 6.7 g/m*3 13.3 C 0 km/h
3128 27-09-2008 20:49:02 13.2 C 6.77 g/m*3 13.2 C 0 km/h
3129 27-09-2008 20:54:02 13.1 C 6.85 g/m*3 13.1 C 0 km/h
3130 27-09-2008 20:59:02 12.9 C 6.88 g/m*3 12.9 C 0 km/h
3131 27-09-2008 21:04:02 12.7 C 6.79 g/m*3 12.7 C 0 km/h
3132 27-09-2008 21:09:02 12.7 C 6.79 g/m*3 12.7 C 0 km/h
3133 27-09-2008 21:14:02 12.5 C 6.82 g/m*3 12.5 C 0 km/h
3134 27-09-2008 21:19:02 12.3 C 6.73 g/m*3 12.3 C 0 km/h
3135 27-09-2008 21:24:02 12.2 C 6.8 g/m*3 12.2 C 0 km/h
3136 27-09-2008 21:29:02 12.1 C 6.76 g/m*3 12.1 C 0 km/h
3137 27-09-2008 21:34:02 12.1 C 6.86 g/m*3 12.1 C 0 km/h
3138 27-09-2008 21:39:02 11.8 C 6.84 g/m*3 11.8 C 0 km/h
3139 27-09-2008 21:44:02 11.8 C 6.84 g/m*3 11.8 C 0 km/h
3140 27-09-2008 21:49:02 11.8 C 6.95 g/m*3 11.8 C 0 km/h
3141 27-09-2008 21:54:02 11.7 C 7.01 g/m*3 11.7 C 0 km/h
3142 27-09-2008 21:59:02 11.6 C 6.96 g/m*3 11.6 C 0 km/h
3143 27-09-2008 22:05:25 11.4 C 6.88 g/m*3 11.4 C 0 km/h
3144 27-09-2008 22:10:25 11.2 C 6.89 g/m*3 11.2 C 0 km/h
3145 27-09-2008 22:15:25 11.2 C 6.89 g/m*3 11.2 C 0 km/h
3146 27-09-2008 22:20:25 11.1 C 6.95 g/m*3 11.1 C 0 km/h
3147 27-09-2008 22:25:25 11.1 C 6.95 g/m*3 11.1 C 0 km/h
3148 27-09-2008 22:30:25 11 C 7.01 g/m*3 11 C 0 km/h
3149 27-09-2008 22:35:25 11 C 7.01 g/m*3 11 C 0 km/h
3150 27-09-2008 22:40:25 10.8 C 7.02 g/m*3 10.8 C 0 km/h
Sensor: Nr:Datum:Temp:Abs-Feuchte:Windchill:Wind:
Aussen-T/F 3151 27-09-2008 22:45:25 10.6 C 7.03 g/m*3 10.6 C 0 km/h
3152 27-09-2008 22:50:25 10.6 C 7.03 g/m*3 10.6 C 0 km/h
3153 27-09-2008 22:55:25 10.5 C 6.98 g/m*3 10.5 C 0 km/h
3154 27-09-2008 23:00:25 10.4 C 7.04 g/m*3 10.4 C 0 km/h
3155 27-09-2008 23:05:25 10.4 C 7.04 g/m*3 10.4 C 0 km/h
3156 27-09-2008 23:10:25 10.3 C 6.99 g/m*3 10.3 C 0 km/h
3157 27-09-2008 23:15:26 10.2 C 6.95 g/m*3 10.2 C 0 km/h
3158 27-09-2008 23:20:26 10.1 C 7 g/m*3 10.1 C 0 km/h
3159 27-09-2008 23:25:26 10.1 C 7 g/m*3 10.1 C 0 km/h
3160 27-09-2008 23:30:26 10.1 C 7 g/m*3 10.1 C 0 km/h
3161 27-09-2008 23:35:26 10 C 6.95 g/m*3 10 C 0 km/h
3162 27-09-2008 23:40:26 9.9 C 7.1 g/m*3 9.9 C 0 km/h
3163 27-09-2008 23:45:26 9.8 C 7.05 g/m*3 9.8 C 0 km/h
3164 27-09-2008 23:50:26 9.8 C 7.14 g/m*3 9.8 C 0 km/h
3165 27-09-2008 23:55:26 9.8 C 7.14 g/m*3 9.8 C 0 km/h
3166 28-09-2008 00:00:26 9.8 C 7.14 g/m*3 9.8 C 0 km/h
3167 28-09-2008 00:05:26 9.7 C 7.1 g/m*3 9.7 C 0 km/h
3168 28-09-2008 00:10:26 9.7 C 7.19 g/m*3 9.7 C 0 km/h
3169 28-09-2008 00:15:26 9.7 C 7.19 g/m*3 9.7 C 0 km/h
3170 28-09-2008 00:20:26 9.5 C 7.1 g/m*3 9.5 C 0 km/h
3171 28-09-2008 00:25:26 9.5 C 7.1 g/m*3 9.5 C 0 km/h
3172 28-09-2008 00:30:26 9.5 C 7.1 g/m*3 9.5 C 0 km/h
3173 28-09-2008 00:35:26 9.4 C 7.05 g/m*3 9.4 C 0 km/h
3174 28-09-2008 00:40:26 9.3 C 7.01 g/m*3 9.3 C 0 km/h
3175 28-09-2008 00:45:26 9.2 C 6.97 g/m*3 9.2 C 0 km/h
Sensor: Nr:Datum:Temp:Abs-Feuchte:Windchill:Wind:
Aussen-T/F 3176 28-09-2008 00:50:26 9.1 C 6.92 g/m*3 9.1 C 0 km/h
3177 28-09-2008 00:55:27 9 C 6.88 g/m*3 9 C 0 km/h
3178 28-09-2008 01:00:27 9 C 6.88 g/m*3 9 C 0 km/h
3179 28-09-2008 01:05:27 9 C 6.88 g/m*3 9 C 0 km/h
3180 28-09-2008 01:10:27 8.9 C 7.01 g/m*3 8.9 C 0 km/h
3181 28-09-2008 01:15:27 8.9 C 7.1 g/m*3 8.9 C 0 km/h
3182 28-09-2008 01:20:27 8.8 C 7.05 g/m*3 8.8 C 0 km/h
3183 28-09-2008 01:25:27 8.7 C 7.09 g/m*3 8.7 C 0 km/h
3184 28-09-2008 01:30:27 8.5 C 7 g/m*3 8.5 C 0 km/h
3185 28-09-2008 01:35:27 8.5 C 7 g/m*3 8.5 C 0 km/h
3186 28-09-2008 01:40:27 8.4 C 6.96 g/m*3 8.4 C 0 km/h
3187 28-09-2008 01:45:27 8.4 C 6.96 g/m*3 8.4 C 0 km/h
3188 28-09-2008 01:50:27 8.3 C 6.91 g/m*3 8.3 C 0 km/h
3189 28-09-2008 01:55:27 8.2 C 6.87 g/m*3 8.2 C 0 km/h
3190 28-09-2008 02:00:27 8.2 C 6.95 g/m*3 8.2 C 0 km/h
3191 28-09-2008 02:05:27 8.1 C 6.91 g/m*3 8.1 C 0 km/h
3192 28-09-2008 02:10:27 8.1 C 6.82 g/m*3 8.1 C 0 km/h
3193 28-09-2008 02:15:27 8 C 6.78 g/m*3 8 C 0 km/h
3194 28-09-2008 02:20:27 7.9 C 6.82 g/m*3 7.9 C 0 km/h
3195 28-09-2008 02:25:27 7.9 C 6.82 g/m*3 7.9 C 0 km/h
3196 28-09-2008 02:30:27 7.9 C 6.82 g/m*3 7.9 C 0 km/h
3197 28-09-2008 02:35:28 7.9 C 6.82 g/m*3 7.9 C 0 km/h
3198 28-09-2008 02:40:28 7.8 C 6.77 g/m*3 7.8 C 0 km/h
3199 28-09-2008 02:45:28 7.8 C 6.77 g/m*3 7.8 C 0 km/h
3200 28-09-2008 02:50:28 7.7 C 6.73 g/m*3 7.7 C 0 km/h
Sensor: Nr:Datum:Temp:Abs-Feuchte:Windchill:Wind:
Aussen-T/F 3201 28-09-2008 02:55:28 7.6 C 6.69 g/m*3 7.6 C 0 km/h
3202 28-09-2008 03:00:28 7.6 C 6.69 g/m*3 7.6 C 0 km/h
3203 28-09-2008 03:05:28 7.5 C 6.64 g/m*3 7.5 C 0 km/h
3204 28-09-2008 03:10:28 7.4 C 6.6 g/m*3 7.4 C 0 km/h
3205 28-09-2008 03:15:28 7.4 C 6.6 g/m*3 7.4 C 0 km/h
3206 28-09-2008 03:20:28 7.3 C 6.56 g/m*3 7.3 C 0 km/h
3207 28-09-2008 03:25:28 7.3 C 6.56 g/m*3 7.3 C 0 km/h
3208 28-09-2008 03:30:28 7.2 C 6.52 g/m*3 7.2 C 0 km/h
3209 28-09-2008 03:35:28 7.2 C 6.52 g/m*3 7.2 C 0 km/h
3210 28-09-2008 03:40:28 7.1 C 6.55 g/m*3 7.1 C 0 km/h
3211 28-09-2008 03:45:28 7.1 C 6.55 g/m*3 7.1 C 0 km/h
3212 28-09-2008 03:50:28 7 C 6.51 g/m*3 7 C 0 km/h
3213 28-09-2008 03:55:28 7 C 6.51 g/m*3 7 C 0 km/h
3214 28-09-2008 04:00:28 6.9 C 6.54 g/m*3 6.9 C 0 km/h
3215 28-09-2008 04:05:28 6.9 C 6.54 g/m*3 6.9 C 0 km/h
3216 28-09-2008 04:10:28 6.8 C 6.5 g/m*3 6.8 C 0 km/h
3217 28-09-2008 04:15:28 6.7 C 6.46 g/m*3 6.7 C 0 km/h
3218 28-09-2008 04:20:29 6.7 C 6.46 g/m*3 6.7 C 0 km/h
3219 28-09-2008 04:25:29 6.6 C 6.42 g/m*3 6.6 C 0 km/h
3220 28-09-2008 04:30:29 6.5 C 6.37 g/m*3 6.5 C 0 km/h
3221 28-09-2008 04:35:29 6.6 C 6.42 g/m*3 6.6 C 0 km/h
3222 28-09-2008 04:40:29 6.6 C 6.42 g/m*3 6.6 C 0 km/h
3223 28-09-2008 04:45:29 6.5 C 6.45 g/m*3 6.5 C 0 km/h
3224 28-09-2008 04:50:29 6.4 C 6.41 g/m*3 6.4 C 0 km/h
3225 28-09-2008 04:55:29 6.3 C 6.37 g/m*3 6.3 C 0 km/h
Sensor: Nr:Datum:Temp:Abs-Feuchte:Windchill:Wind:
Aussen-T/F 3226 28-09-2008 05:00:29 6.3 C 6.37 g/m*3 6.3 C 0 km/h
3227 28-09-2008 05:05:29 6.2 C 6.32 g/m*3 6.2 C 0 km/h
3228 28-09-2008 05:10:29 6.2 C 6.32 g/m*3 6.2 C 0 km/h
3229 28-09-2008 05:15:29 6.2 C 6.4 g/m*3 6.2 C 0 km/h
3230 28-09-2008 05:20:29 6.1 C 6.36 g/m*3 6.1 C 0 km/h
3231 28-09-2008 05:25:29 6.2 C 6.4 g/m*3 6.2 C 0 km/h
3232 28-09-2008 05:30:29 6.2 C 6.4 g/m*3 6.2 C 0 km/h
3233 28-09-2008 05:35:29 6.2 C 6.47 g/m*3 6.2 C 0 km/h
3234 28-09-2008 05:40:29 6.3 C 6.51 g/m*3 6.3 C 0 km/h
3235 28-09-2008 05:45:29 6.3 C 6.59 g/m*3 6.3 C 0 km/h
3236 28-09-2008 05:50:29 6.3 C 6.59 g/m*3 6.3 C 0 km/h
3237 28-09-2008 05:55:29 6.3 C 6.59 g/m*3 6.3 C 0 km/h
3238 28-09-2008 06:00:29 6.2 C 6.55 g/m*3 6.2 C 0 km/h
3239